<?xml version="1.0" encoding="UTF-8" standalone="no" ?>
<gpx xmlns="http://www.topografix.com/GPX/1/1" xmlns:xsi="http://www.w3.org/2001/XMLSchema-instance" xsi:schemaLocation="http://www.topografix.com/GPX/1/1 http://www.topografix.com/GPX/1/1/gpx.xsd" version="1.1" creator="VisuGPX - https://www.visugpx.com">
  <metadata>
    <name>CURRENT TRACK- 16 AOUT SMSR</name>
    <desc><![CDATA[Trace Rando CDLP Sainte Maxime Saint Raphael St Tropez CDLP]]></desc>
  </metadata>
  <trk>
    <name><![CDATA[CURRENT TRACK- 15 AOU 2019 15-03-MNT]]></name>
    <trkseg>
      <trkpt lat="43.28165" lon="6.58734">
        <ele>1.92375</ele>
        <time>2019-08-16T07:03:12Z</time>
      </trkpt>
      <trkpt lat="43.28178" lon="6.58671">
        <ele>3.39185</ele>
        <time>2019-08-16T07:03:40Z</time>
      </trkpt>
      <trkpt lat="43.28198" lon="6.58617">
        <ele>5.441231</ele>
        <time>2019-08-16T07:03:57Z</time>
      </trkpt>
      <trkpt lat="43.28221" lon="6.58672">
        <ele>5.19375</ele>
        <time>2019-08-16T07:04:16Z</time>
      </trkpt>
      <trkpt lat="43.28238" lon="6.58735">
        <ele>5.14086</ele>
        <time>2019-08-16T07:04:32Z</time>
      </trkpt>
      <trkpt lat="43.28258" lon="6.58801">
        <ele>5.1456</ele>
        <time>2019-08-16T07:04:48Z</time>
      </trkpt>
      <trkpt lat="43.28273" lon="6.58861">
        <ele>4.450922</ele>
        <time>2019-08-16T07:05:02Z</time>
      </trkpt>
      <trkpt lat="43.2829" lon="6.58923">
        <ele>3.911625</ele>
        <time>2019-08-16T07:05:19Z</time>
      </trkpt>
      <trkpt lat="43.28309" lon="6.58991">
        <ele>4.11875</ele>
        <time>2019-08-16T07:05:36Z</time>
      </trkpt>
      <trkpt lat="43.28326" lon="6.59055">
        <ele>4.351406</ele>
        <time>2019-08-16T07:05:48Z</time>
      </trkpt>
      <trkpt lat="43.28341" lon="6.59113">
        <ele>3.635309</ele>
        <time>2019-08-16T07:05:58Z</time>
      </trkpt>
      <trkpt lat="43.28361" lon="6.59182">
        <ele>3.978875</ele>
        <time>2019-08-16T07:06:10Z</time>
      </trkpt>
      <trkpt lat="43.28377" lon="6.59244">
        <ele>3.17875</ele>
        <time>2019-08-16T07:06:21Z</time>
      </trkpt>
      <trkpt lat="43.28397" lon="6.59309">
        <ele>3.1325</ele>
        <time>2019-08-16T07:06:33Z</time>
      </trkpt>
      <trkpt lat="43.28415" lon="6.59373">
        <ele>3.068825</ele>
        <time>2019-08-16T07:06:45Z</time>
      </trkpt>
      <trkpt lat="43.28434" lon="6.59433">
        <ele>4.059412</ele>
        <time>2019-08-16T07:06:58Z</time>
      </trkpt>
      <trkpt lat="43.28451" lon="6.59494">
        <ele>3.870687</ele>
        <time>2019-08-16T07:07:11Z</time>
      </trkpt>
      <trkpt lat="43.28466" lon="6.59554">
        <ele>3.45705</ele>
        <time>2019-08-16T07:07:21Z</time>
      </trkpt>
      <trkpt lat="43.28479" lon="6.59616">
        <ele>4.114297</ele>
        <time>2019-08-16T07:07:31Z</time>
      </trkpt>
      <trkpt lat="43.28496" lon="6.59679">
        <ele>6.465625</ele>
        <time>2019-08-16T07:07:42Z</time>
      </trkpt>
      <trkpt lat="43.2851" lon="6.5974">
        <ele>8.04</ele>
        <time>2019-08-16T07:07:53Z</time>
      </trkpt>
      <trkpt lat="43.28526" lon="6.59804">
        <ele>8.800941</ele>
        <time>2019-08-16T07:08:05Z</time>
      </trkpt>
      <trkpt lat="43.28547" lon="6.59861">
        <ele>9.753225</ele>
        <time>2019-08-16T07:08:18Z</time>
      </trkpt>
      <trkpt lat="43.28564" lon="6.59924">
        <ele>10.6075</ele>
        <time>2019-08-16T07:08:29Z</time>
      </trkpt>
      <trkpt lat="43.28592" lon="6.59975">
        <ele>10.554744</ele>
        <time>2019-08-16T07:08:40Z</time>
      </trkpt>
      <trkpt lat="43.28621" lon="6.60027">
        <ele>8.78</ele>
        <time>2019-08-16T07:08:51Z</time>
      </trkpt>
      <trkpt lat="43.28653" lon="6.60077">
        <ele>7.73</ele>
        <time>2019-08-16T07:09:02Z</time>
      </trkpt>
      <trkpt lat="43.28683" lon="6.60128">
        <ele>7.967975</ele>
        <time>2019-08-16T07:09:13Z</time>
      </trkpt>
      <trkpt lat="43.28711" lon="6.60178">
        <ele>7.622288</ele>
        <time>2019-08-16T07:09:24Z</time>
      </trkpt>
      <trkpt lat="43.28742" lon="6.60229">
        <ele>7.890031</ele>
        <time>2019-08-16T07:09:36Z</time>
      </trkpt>
      <trkpt lat="43.28769" lon="6.6028">
        <ele>7.74875</ele>
        <time>2019-08-16T07:09:48Z</time>
      </trkpt>
      <trkpt lat="43.288" lon="6.60332">
        <ele>8.144815</ele>
        <time>2019-08-16T07:09:58Z</time>
      </trkpt>
      <trkpt lat="43.28829" lon="6.60383">
        <ele>8.61</ele>
        <time>2019-08-16T07:10:07Z</time>
      </trkpt>
      <trkpt lat="43.28865" lon="6.60429">
        <ele>8.47</ele>
        <time>2019-08-16T07:10:16Z</time>
      </trkpt>
      <trkpt lat="43.28901" lon="6.60471">
        <ele>8.6295</ele>
        <time>2019-08-16T07:10:25Z</time>
      </trkpt>
      <trkpt lat="43.28934" lon="6.60527">
        <ele>6.59875</ele>
        <time>2019-08-16T07:10:34Z</time>
      </trkpt>
      <trkpt lat="43.28963" lon="6.60581">
        <ele>5.804241</ele>
        <time>2019-08-16T07:10:43Z</time>
      </trkpt>
      <trkpt lat="43.28986" lon="6.6064">
        <ele>4.829856</ele>
        <time>2019-08-16T07:10:52Z</time>
      </trkpt>
      <trkpt lat="43.29002" lon="6.60699">
        <ele>3.97</ele>
        <time>2019-08-16T07:11:01Z</time>
      </trkpt>
      <trkpt lat="43.29008" lon="6.60763">
        <ele>3.01735</ele>
        <time>2019-08-16T07:11:10Z</time>
      </trkpt>
      <trkpt lat="43.29018" lon="6.60828">
        <ele>1.7525</ele>
        <time>2019-08-16T07:11:19Z</time>
      </trkpt>
      <trkpt lat="43.29048" lon="6.60879">
        <ele>1.871619</ele>
        <time>2019-08-16T07:11:29Z</time>
      </trkpt>
      <trkpt lat="43.29079" lon="6.60925">
        <ele>1.856469</ele>
        <time>2019-08-16T07:11:39Z</time>
      </trkpt>
      <trkpt lat="43.29117" lon="6.60961">
        <ele>2.160125</ele>
        <time>2019-08-16T07:11:48Z</time>
      </trkpt>
      <trkpt lat="43.29143" lon="6.61015">
        <ele>1.957656</ele>
        <time>2019-08-16T07:11:58Z</time>
      </trkpt>
      <trkpt lat="43.29161" lon="6.61078">
        <ele>1.550319</ele>
        <time>2019-08-16T07:12:08Z</time>
      </trkpt>
      <trkpt lat="43.29176" lon="6.61143">
        <ele>1.184312</ele>
        <time>2019-08-16T07:12:18Z</time>
      </trkpt>
      <trkpt lat="43.29191" lon="6.61202">
        <ele>1.0602</ele>
        <time>2019-08-16T07:12:28Z</time>
      </trkpt>
      <trkpt lat="43.2921" lon="6.61263">
        <ele>1.530856</ele>
        <time>2019-08-16T07:12:39Z</time>
      </trkpt>
      <trkpt lat="43.29239" lon="6.61314">
        <ele>1.615625</ele>
        <time>2019-08-16T07:12:51Z</time>
      </trkpt>
      <trkpt lat="43.29274" lon="6.61355">
        <ele>2.331753</ele>
        <time>2019-08-16T07:13:05Z</time>
      </trkpt>
      <trkpt lat="43.29311" lon="6.61395">
        <ele>2.285675</ele>
        <time>2019-08-16T07:13:18Z</time>
      </trkpt>
      <trkpt lat="43.29347" lon="6.61434">
        <ele>2.426675</ele>
        <time>2019-08-16T07:13:29Z</time>
      </trkpt>
      <trkpt lat="43.29384" lon="6.61472">
        <ele>1.89445</ele>
        <time>2019-08-16T07:13:40Z</time>
      </trkpt>
      <trkpt lat="43.2942" lon="6.61514">
        <ele>3.05655</ele>
        <time>2019-08-16T07:13:51Z</time>
      </trkpt>
      <trkpt lat="43.29449" lon="6.6157">
        <ele>2.8712</ele>
        <time>2019-08-16T07:14:02Z</time>
      </trkpt>
      <trkpt lat="43.29476" lon="6.61626">
        <ele>3.678203</ele>
        <time>2019-08-16T07:14:13Z</time>
      </trkpt>
      <trkpt lat="43.29503" lon="6.61676">
        <ele>3.785</ele>
        <time>2019-08-16T07:14:24Z</time>
      </trkpt>
      <trkpt lat="43.29529" lon="6.61732">
        <ele>4.477812</ele>
        <time>2019-08-16T07:14:36Z</time>
      </trkpt>
      <trkpt lat="43.2954" lon="6.61793">
        <ele>4.1632</ele>
        <time>2019-08-16T07:14:48Z</time>
      </trkpt>
      <trkpt lat="43.29553" lon="6.61856">
        <ele>3.087375</ele>
        <time>2019-08-16T07:14:59Z</time>
      </trkpt>
      <trkpt lat="43.29578" lon="6.61914">
        <ele>1.6625</ele>
        <time>2019-08-16T07:15:10Z</time>
      </trkpt>
      <trkpt lat="43.29606" lon="6.61968">
        <ele>1.361419</ele>
        <time>2019-08-16T07:15:20Z</time>
      </trkpt>
      <trkpt lat="43.29633" lon="6.62026">
        <ele>1.7475</ele>
        <time>2019-08-16T07:15:29Z</time>
      </trkpt>
      <trkpt lat="43.29654" lon="6.62087">
        <ele>2.319969</ele>
        <time>2019-08-16T07:15:37Z</time>
      </trkpt>
      <trkpt lat="43.29659" lon="6.62146">
        <ele>3.362156</ele>
        <time>2019-08-16T07:15:48Z</time>
      </trkpt>
      <trkpt lat="43.29661" lon="6.62209">
        <ele>4.8648</ele>
        <time>2019-08-16T07:16:02Z</time>
      </trkpt>
      <trkpt lat="43.29659" lon="6.6227">
        <ele>5.66435</ele>
        <time>2019-08-16T07:16:13Z</time>
      </trkpt>
      <trkpt lat="43.29649" lon="6.62332">
        <ele>5.323394</ele>
        <time>2019-08-16T07:16:25Z</time>
      </trkpt>
      <trkpt lat="43.29653" lon="6.62399">
        <ele>5.430516</ele>
        <time>2019-08-16T07:16:37Z</time>
      </trkpt>
      <trkpt lat="43.29681" lon="6.62455">
        <ele>4.746016</ele>
        <time>2019-08-16T07:16:48Z</time>
      </trkpt>
      <trkpt lat="43.29722" lon="6.62483">
        <ele>3.649987</ele>
        <time>2019-08-16T07:16:59Z</time>
      </trkpt>
      <trkpt lat="43.29768" lon="6.62501">
        <ele>4.576747</ele>
        <time>2019-08-16T07:17:08Z</time>
      </trkpt>
      <trkpt lat="43.29816" lon="6.62521">
        <ele>4.416644</ele>
        <time>2019-08-16T07:17:17Z</time>
      </trkpt>
      <trkpt lat="43.29863" lon="6.62536">
        <ele>2.747875</ele>
        <time>2019-08-16T07:17:27Z</time>
      </trkpt>
      <trkpt lat="43.29911" lon="6.62545">
        <ele>1.7755</ele>
        <time>2019-08-16T07:17:37Z</time>
      </trkpt>
      <trkpt lat="43.29957" lon="6.62554">
        <ele>1.2325</ele>
        <time>2019-08-16T07:17:48Z</time>
      </trkpt>
      <trkpt lat="43.30003" lon="6.62564">
        <ele>1.0125</ele>
        <time>2019-08-16T07:18:00Z</time>
      </trkpt>
      <trkpt lat="43.30049" lon="6.62577">
        <ele>0.86625</ele>
        <time>2019-08-16T07:18:13Z</time>
      </trkpt>
      <trkpt lat="43.30095" lon="6.62583">
        <ele>1.04875</ele>
        <time>2019-08-16T07:18:28Z</time>
      </trkpt>
      <trkpt lat="43.3014" lon="6.62603">
        <ele>1.810819</ele>
        <time>2019-08-16T07:18:44Z</time>
      </trkpt>
      <trkpt lat="43.30184" lon="6.62632">
        <ele>1.4796</ele>
        <time>2019-08-16T07:18:56Z</time>
      </trkpt>
      <trkpt lat="43.30226" lon="6.62655">
        <ele>0.988697</ele>
        <time>2019-08-16T07:19:07Z</time>
      </trkpt>
      <trkpt lat="43.30271" lon="6.6268">
        <ele>1.031375</ele>
        <time>2019-08-16T07:19:17Z</time>
      </trkpt>
      <trkpt lat="43.30312" lon="6.62707">
        <ele>0.385</ele>
        <time>2019-08-16T07:19:27Z</time>
      </trkpt>
      <trkpt lat="43.30354" lon="6.62736">
        <ele>0.7875</ele>
        <time>2019-08-16T07:19:37Z</time>
      </trkpt>
      <trkpt lat="43.30392" lon="6.62772">
        <ele>1.129187</ele>
        <time>2019-08-16T07:19:49Z</time>
      </trkpt>
      <trkpt lat="43.30425" lon="6.62818">
        <ele>1.1875</ele>
        <time>2019-08-16T07:20:01Z</time>
      </trkpt>
      <trkpt lat="43.30458" lon="6.62865">
        <ele>1.612081</ele>
        <time>2019-08-16T07:20:13Z</time>
      </trkpt>
      <trkpt lat="43.30489" lon="6.62915">
        <ele>1.59</ele>
        <time>2019-08-16T07:20:25Z</time>
      </trkpt>
      <trkpt lat="43.30511" lon="6.62975">
        <ele>2.717062</ele>
        <time>2019-08-16T07:20:37Z</time>
      </trkpt>
      <trkpt lat="43.30514" lon="6.63039">
        <ele>4.925797</ele>
        <time>2019-08-16T07:20:51Z</time>
      </trkpt>
      <trkpt lat="43.30517" lon="6.63105">
        <ele>5.890687</ele>
        <time>2019-08-16T07:21:04Z</time>
      </trkpt>
      <trkpt lat="43.30531" lon="6.63165">
        <ele>4.677187</ele>
        <time>2019-08-16T07:21:15Z</time>
      </trkpt>
      <trkpt lat="43.30558" lon="6.63218">
        <ele>1.916244</ele>
        <time>2019-08-16T07:21:25Z</time>
      </trkpt>
      <trkpt lat="43.30597" lon="6.6326">
        <ele>2.180588</ele>
        <time>2019-08-16T07:21:33Z</time>
      </trkpt>
      <trkpt lat="43.30638" lon="6.63297">
        <ele>0.846828</ele>
        <time>2019-08-16T07:21:41Z</time>
      </trkpt>
      <trkpt lat="43.30675" lon="6.63333">
        <ele>1.14</ele>
        <time>2019-08-16T07:21:50Z</time>
      </trkpt>
      <trkpt lat="43.30707" lon="6.6338">
        <ele>0.486219</ele>
        <time>2019-08-16T07:22:00Z</time>
      </trkpt>
      <trkpt lat="43.3074" lon="6.63433">
        <ele>0.8665</ele>
        <time>2019-08-16T07:22:10Z</time>
      </trkpt>
      <trkpt lat="43.3077" lon="6.63483">
        <ele>1.0375</ele>
        <time>2019-08-16T07:22:19Z</time>
      </trkpt>
      <trkpt lat="43.30797" lon="6.63536">
        <ele>1.6875</ele>
        <time>2019-08-16T07:22:28Z</time>
      </trkpt>
      <trkpt lat="43.30823" lon="6.63595">
        <ele>1.817519</ele>
        <time>2019-08-16T07:22:38Z</time>
      </trkpt>
      <trkpt lat="43.3084" lon="6.63655">
        <ele>2.007475</ele>
        <time>2019-08-16T07:22:47Z</time>
      </trkpt>
      <trkpt lat="43.30866" lon="6.63644">
        <ele>2.99625</ele>
        <time>2019-08-16T07:23:42Z</time>
      </trkpt>
      <trkpt lat="43.30915" lon="6.63622">
        <ele>4.385</ele>
        <time>2019-08-16T07:24:12Z</time>
      </trkpt>
      <trkpt lat="43.30964" lon="6.63614">
        <ele>5.4625</ele>
        <time>2019-08-16T07:24:44Z</time>
      </trkpt>
      <trkpt lat="43.31004" lon="6.63588">
        <ele>6</ele>
        <time>2019-08-16T07:25:27Z</time>
      </trkpt>
      <trkpt lat="43.31054" lon="6.63581">
        <ele>6</ele>
        <time>2019-08-16T07:26:06Z</time>
      </trkpt>
      <trkpt lat="43.31098" lon="6.63609">
        <ele>6.435</ele>
        <time>2019-08-16T07:26:18Z</time>
      </trkpt>
      <trkpt lat="43.31138" lon="6.63644">
        <ele>7.104025</ele>
        <time>2019-08-16T07:26:30Z</time>
      </trkpt>
      <trkpt lat="43.3118" lon="6.63633">
        <ele>7.256856</ele>
        <time>2019-08-16T07:26:43Z</time>
      </trkpt>
      <trkpt lat="43.31224" lon="6.63617">
        <ele>7.84125</ele>
        <time>2019-08-16T07:26:55Z</time>
      </trkpt>
      <trkpt lat="43.31268" lon="6.63599">
        <ele>8.300713</ele>
        <time>2019-08-16T07:27:08Z</time>
      </trkpt>
      <trkpt lat="43.3131" lon="6.63573">
        <ele>8.1125</ele>
        <time>2019-08-16T07:27:22Z</time>
      </trkpt>
      <trkpt lat="43.31353" lon="6.63548">
        <ele>9.21735</ele>
        <time>2019-08-16T07:27:36Z</time>
      </trkpt>
      <trkpt lat="43.31398" lon="6.63524">
        <ele>11.734162</ele>
        <time>2019-08-16T07:27:53Z</time>
      </trkpt>
      <trkpt lat="43.31444" lon="6.63537">
        <ele>15.141075</ele>
        <time>2019-08-16T07:28:10Z</time>
      </trkpt>
      <trkpt lat="43.31485" lon="6.6357">
        <ele>18.582275</ele>
        <time>2019-08-16T07:28:28Z</time>
      </trkpt>
      <trkpt lat="43.31522" lon="6.63606">
        <ele>20.551025</ele>
        <time>2019-08-16T07:28:47Z</time>
      </trkpt>
      <trkpt lat="43.31539" lon="6.63667">
        <ele>25.358587</ele>
        <time>2019-08-16T07:29:03Z</time>
      </trkpt>
      <trkpt lat="43.3157" lon="6.6371">
        <ele>29.853613</ele>
        <time>2019-08-16T07:29:19Z</time>
      </trkpt>
      <trkpt lat="43.3161" lon="6.63677">
        <ele>26.446693</ele>
        <time>2019-08-16T07:29:34Z</time>
      </trkpt>
      <trkpt lat="43.31654" lon="6.63649">
        <ele>27.755508</ele>
        <time>2019-08-16T07:29:52Z</time>
      </trkpt>
      <trkpt lat="43.31691" lon="6.6369">
        <ele>32.759293</ele>
        <time>2019-08-16T07:30:11Z</time>
      </trkpt>
      <trkpt lat="43.3173" lon="6.63728">
        <ele>33.812611</ele>
        <time>2019-08-16T07:30:28Z</time>
      </trkpt>
      <trkpt lat="43.31775" lon="6.63735">
        <ele>30.226181</ele>
        <time>2019-08-16T07:30:46Z</time>
      </trkpt>
      <trkpt lat="43.31807" lon="6.63786">
        <ele>30.671782</ele>
        <time>2019-08-16T07:31:00Z</time>
      </trkpt>
      <trkpt lat="43.31838" lon="6.63835">
        <ele>32.542686</ele>
        <time>2019-08-16T07:31:12Z</time>
      </trkpt>
      <trkpt lat="43.31868" lon="6.63885">
        <ele>29.360201</ele>
        <time>2019-08-16T07:33:26Z</time>
      </trkpt>
      <trkpt lat="43.31853" lon="6.63949">
        <ele>34.077736</ele>
        <time>2019-08-16T07:33:35Z</time>
      </trkpt>
      <trkpt lat="43.31885" lon="6.63982">
        <ele>32.68734</ele>
        <time>2019-08-16T07:33:43Z</time>
      </trkpt>
      <trkpt lat="43.31931" lon="6.63991">
        <ele>29.168375</ele>
        <time>2019-08-16T07:33:54Z</time>
      </trkpt>
      <trkpt lat="43.31965" lon="6.64037">
        <ele>29.358871</ele>
        <time>2019-08-16T07:34:04Z</time>
      </trkpt>
      <trkpt lat="43.31958" lon="6.63988">
        <ele>25.857937</ele>
        <time>2019-08-16T07:34:46Z</time>
      </trkpt>
      <trkpt lat="43.31926" lon="6.6394">
        <ele>24.35425</ele>
        <time>2019-08-16T07:34:55Z</time>
      </trkpt>
      <trkpt lat="43.31897" lon="6.63889">
        <ele>23.823362</ele>
        <time>2019-08-16T07:35:04Z</time>
      </trkpt>
      <trkpt lat="43.31865" lon="6.63837">
        <ele>27.3696</ele>
        <time>2019-08-16T07:35:14Z</time>
      </trkpt>
      <trkpt lat="43.31845" lon="6.63777">
        <ele>27.186687</ele>
        <time>2019-08-16T07:35:23Z</time>
      </trkpt>
      <trkpt lat="43.31834" lon="6.63713">
        <ele>25.674171</ele>
        <time>2019-08-16T07:35:33Z</time>
      </trkpt>
      <trkpt lat="43.31818" lon="6.63637">
        <ele>22.869999</ele>
        <time>2019-08-16T07:35:47Z</time>
      </trkpt>
      <trkpt lat="43.31783" lon="6.63587">
        <ele>20.254999</ele>
        <time>2019-08-16T07:35:55Z</time>
      </trkpt>
      <trkpt lat="43.31739" lon="6.63557">
        <ele>19.31875</ele>
        <time>2019-08-16T07:36:10Z</time>
      </trkpt>
      <trkpt lat="43.31694" lon="6.63549">
        <ele>19.15625</ele>
        <time>2019-08-16T07:36:21Z</time>
      </trkpt>
      <trkpt lat="43.31646" lon="6.63549">
        <ele>17.611151</ele>
        <time>2019-08-16T07:36:33Z</time>
      </trkpt>
      <trkpt lat="43.31603" lon="6.63524">
        <ele>13.41235</ele>
        <time>2019-08-16T07:36:45Z</time>
      </trkpt>
      <trkpt lat="43.31579" lon="6.63468">
        <ele>10.021844</ele>
        <time>2019-08-16T07:36:52Z</time>
      </trkpt>
      <trkpt lat="43.31557" lon="6.63408">
        <ele>9.25375</ele>
        <time>2019-08-16T07:37:01Z</time>
      </trkpt>
      <trkpt lat="43.31589" lon="6.63361">
        <ele>9.12875</ele>
        <time>2019-08-16T07:37:12Z</time>
      </trkpt>
      <trkpt lat="43.31629" lon="6.63314">
        <ele>9.16375</ele>
        <time>2019-08-16T07:37:21Z</time>
      </trkpt>
      <trkpt lat="43.31665" lon="6.63269">
        <ele>8.8479</ele>
        <time>2019-08-16T07:37:31Z</time>
      </trkpt>
      <trkpt lat="43.31704" lon="6.63226">
        <ele>9.215</ele>
        <time>2019-08-16T07:37:41Z</time>
      </trkpt>
      <trkpt lat="43.31743" lon="6.63192">
        <ele>9.827056</ele>
        <time>2019-08-16T07:37:55Z</time>
      </trkpt>
      <trkpt lat="43.31788" lon="6.63197">
        <ele>13.396972</ele>
        <time>2019-08-16T07:38:15Z</time>
      </trkpt>
      <trkpt lat="43.31831" lon="6.63217">
        <ele>17.825001</ele>
        <time>2019-08-16T07:38:38Z</time>
      </trkpt>
      <trkpt lat="43.31871" lon="6.63251">
        <ele>20.033751</ele>
        <time>2019-08-16T07:38:57Z</time>
      </trkpt>
      <trkpt lat="43.31916" lon="6.63235">
        <ele>23.231838</ele>
        <time>2019-08-16T07:39:15Z</time>
      </trkpt>
      <trkpt lat="43.31963" lon="6.63234">
        <ele>26.34495</ele>
        <time>2019-08-16T07:39:35Z</time>
      </trkpt>
      <trkpt lat="43.32005" lon="6.63255">
        <ele>28.3225</ele>
        <time>2019-08-16T07:39:58Z</time>
      </trkpt>
      <trkpt lat="43.32049" lon="6.63235">
        <ele>32.148026</ele>
        <time>2019-08-16T07:40:18Z</time>
      </trkpt>
      <trkpt lat="43.32083" lon="6.6328">
        <ele>35.200001</ele>
        <time>2019-08-16T07:40:39Z</time>
      </trkpt>
      <trkpt lat="43.32113" lon="6.63329">
        <ele>38.762501</ele>
        <time>2019-08-16T07:41:03Z</time>
      </trkpt>
      <trkpt lat="43.32146" lon="6.63382">
        <ele>37.614784</ele>
        <time>2019-08-16T07:41:17Z</time>
      </trkpt>
      <trkpt lat="43.3218" lon="6.63434">
        <ele>36.059799</ele>
        <time>2019-08-16T07:41:25Z</time>
      </trkpt>
      <trkpt lat="43.32211" lon="6.63481">
        <ele>36.834923</ele>
        <time>2019-08-16T07:41:36Z</time>
      </trkpt>
      <trkpt lat="43.32257" lon="6.63481">
        <ele>40.547962</ele>
        <time>2019-08-16T07:41:54Z</time>
      </trkpt>
      <trkpt lat="43.32301" lon="6.63489">
        <ele>41.690002</ele>
        <time>2019-08-16T07:42:10Z</time>
      </trkpt>
      <trkpt lat="43.32339" lon="6.63524">
        <ele>43.610001</ele>
        <time>2019-08-16T07:42:31Z</time>
      </trkpt>
      <trkpt lat="43.3239" lon="6.63547">
        <ele>48.391361</ele>
        <time>2019-08-16T07:42:56Z</time>
      </trkpt>
      <trkpt lat="43.32435" lon="6.63594">
        <ele>53.330002</ele>
        <time>2019-08-16T07:43:25Z</time>
      </trkpt>
      <trkpt lat="43.32472" lon="6.63641">
        <ele>58.406551</ele>
        <time>2019-08-16T07:43:46Z</time>
      </trkpt>
      <trkpt lat="43.32507" lon="6.63689">
        <ele>61.645126</ele>
        <time>2019-08-16T07:44:07Z</time>
      </trkpt>
      <trkpt lat="43.32547" lon="6.6373">
        <ele>59.093449</ele>
        <time>2019-08-16T07:44:21Z</time>
      </trkpt>
      <trkpt lat="43.32585" lon="6.6377">
        <ele>54.309349</ele>
        <time>2019-08-16T07:44:31Z</time>
      </trkpt>
      <trkpt lat="43.32635" lon="6.63756">
        <ele>53.508171</ele>
        <time>2019-08-16T07:44:39Z</time>
      </trkpt>
      <trkpt lat="43.32683" lon="6.6376">
        <ele>51.684406</ele>
        <time>2019-08-16T07:44:47Z</time>
      </trkpt>
      <trkpt lat="43.32728" lon="6.63766">
        <ele>51.931667</ele>
        <time>2019-08-16T07:44:55Z</time>
      </trkpt>
      <trkpt lat="43.32773" lon="6.6378">
        <ele>51.737808</ele>
        <time>2019-08-16T07:45:02Z</time>
      </trkpt>
      <trkpt lat="43.32818" lon="6.63787">
        <ele>53.580563</ele>
        <time>2019-08-16T07:45:30Z</time>
      </trkpt>
      <trkpt lat="43.32865" lon="6.63776">
        <ele>53.83778</ele>
        <time>2019-08-16T07:45:41Z</time>
      </trkpt>
      <trkpt lat="43.32911" lon="6.6378">
        <ele>52.076359</ele>
        <time>2019-08-16T07:45:54Z</time>
      </trkpt>
      <trkpt lat="43.32958" lon="6.63789">
        <ele>54.527187</ele>
        <time>2019-08-16T07:46:08Z</time>
      </trkpt>
      <trkpt lat="43.33005" lon="6.63791">
        <ele>56.1325</ele>
        <time>2019-08-16T07:46:20Z</time>
      </trkpt>
      <trkpt lat="43.33051" lon="6.63777">
        <ele>56.282681</ele>
        <time>2019-08-16T07:46:31Z</time>
      </trkpt>
      <trkpt lat="43.33097" lon="6.6378">
        <ele>58.217026</ele>
        <time>2019-08-16T07:46:45Z</time>
      </trkpt>
      <trkpt lat="43.33141" lon="6.63758">
        <ele>61.602276</ele>
        <time>2019-08-16T07:47:00Z</time>
      </trkpt>
      <trkpt lat="43.33182" lon="6.63731">
        <ele>61.180851</ele>
        <time>2019-08-16T07:47:15Z</time>
      </trkpt>
      <trkpt lat="43.33223" lon="6.63702">
        <ele>63.363438</ele>
        <time>2019-08-16T07:47:31Z</time>
      </trkpt>
      <trkpt lat="43.33258" lon="6.63664">
        <ele>65.337502</ele>
        <time>2019-08-16T07:47:53Z</time>
      </trkpt>
      <trkpt lat="43.33297" lon="6.6364">
        <ele>70.051552</ele>
        <time>2019-08-16T07:48:14Z</time>
      </trkpt>
      <trkpt lat="43.33344" lon="6.63652">
        <ele>76.009415</ele>
        <time>2019-08-16T07:48:34Z</time>
      </trkpt>
      <trkpt lat="43.33392" lon="6.63666">
        <ele>79.051956</ele>
        <time>2019-08-16T07:48:54Z</time>
      </trkpt>
      <trkpt lat="43.33436" lon="6.63686">
        <ele>80.471252</ele>
        <time>2019-08-16T07:49:13Z</time>
      </trkpt>
      <trkpt lat="43.33478" lon="6.6371">
        <ele>85.161201</ele>
        <time>2019-08-16T07:49:36Z</time>
      </trkpt>
      <trkpt lat="43.33521" lon="6.63738">
        <ele>89.841248</ele>
        <time>2019-08-16T07:50:00Z</time>
      </trkpt>
      <trkpt lat="43.33568" lon="6.63742">
        <ele>94.696747</ele>
        <time>2019-08-16T07:50:24Z</time>
      </trkpt>
      <trkpt lat="43.33616" lon="6.63745">
        <ele>99.968254</ele>
        <time>2019-08-16T07:50:48Z</time>
      </trkpt>
      <trkpt lat="43.33661" lon="6.63761">
        <ele>104.474312</ele>
        <time>2019-08-16T07:51:15Z</time>
      </trkpt>
      <trkpt lat="43.33703" lon="6.63791">
        <ele>110.004997</ele>
        <time>2019-08-16T07:51:41Z</time>
      </trkpt>
      <trkpt lat="43.33739" lon="6.63831">
        <ele>117.313347</ele>
        <time>2019-08-16T07:52:09Z</time>
      </trkpt>
      <trkpt lat="43.33782" lon="6.6383">
        <ele>123.393501</ele>
        <time>2019-08-16T07:52:38Z</time>
      </trkpt>
      <trkpt lat="43.33824" lon="6.63806">
        <ele>127.058983</ele>
        <time>2019-08-16T07:53:11Z</time>
      </trkpt>
      <trkpt lat="43.3387" lon="6.638">
        <ele>134.463318</ele>
        <time>2019-08-16T07:53:45Z</time>
      </trkpt>
      <trkpt lat="43.33917" lon="6.63791">
        <ele>140.13269</ele>
        <time>2019-08-16T07:54:18Z</time>
      </trkpt>
      <trkpt lat="43.33961" lon="6.63796">
        <ele>145.610001</ele>
        <time>2019-08-16T07:58:42Z</time>
      </trkpt>
      <trkpt lat="43.34007" lon="6.63813">
        <ele>153.505005</ele>
        <time>2019-08-16T07:59:10Z</time>
      </trkpt>
      <trkpt lat="43.34054" lon="6.63828">
        <ele>162.515152</ele>
        <time>2019-08-16T07:59:43Z</time>
      </trkpt>
      <trkpt lat="43.341" lon="6.63824">
        <ele>168.452881</ele>
        <time>2019-08-16T08:00:17Z</time>
      </trkpt>
      <trkpt lat="43.34148" lon="6.63822">
        <ele>175.282852</ele>
        <time>2019-08-16T08:00:52Z</time>
      </trkpt>
      <trkpt lat="43.3419" lon="6.63838">
        <ele>185.705688</ele>
        <time>2019-08-16T08:01:26Z</time>
      </trkpt>
      <trkpt lat="43.34217" lon="6.63885">
        <ele>189.540649</ele>
        <time>2019-08-16T08:02:00Z</time>
      </trkpt>
      <trkpt lat="43.34262" lon="6.63875">
        <ele>191.943375</ele>
        <time>2019-08-16T08:02:34Z</time>
      </trkpt>
      <trkpt lat="43.34309" lon="6.63884">
        <ele>191.176819</ele>
        <time>2019-08-16T08:05:00Z</time>
      </trkpt>
      <trkpt lat="43.34346" lon="6.63878">
        <ele>190.177109</ele>
        <time>2019-08-16T08:05:24Z</time>
      </trkpt>
      <trkpt lat="43.3434" lon="6.63823">
        <ele>197.701904</ele>
        <time>2019-08-16T08:05:47Z</time>
      </trkpt>
      <trkpt lat="43.34358" lon="6.63767">
        <ele>202.395081</ele>
        <time>2019-08-16T08:06:10Z</time>
      </trkpt>
      <trkpt lat="43.34364" lon="6.63705">
        <ele>206.043198</ele>
        <time>2019-08-16T08:06:34Z</time>
      </trkpt>
      <trkpt lat="43.34361" lon="6.63643">
        <ele>210.413864</ele>
        <time>2019-08-16T08:06:57Z</time>
      </trkpt>
      <trkpt lat="43.34364" lon="6.63579">
        <ele>221.006805</ele>
        <time>2019-08-16T08:07:21Z</time>
      </trkpt>
      <trkpt lat="43.34414" lon="6.63547">
        <ele>215.898148</ele>
        <time>2019-08-16T08:07:49Z</time>
      </trkpt>
      <trkpt lat="43.34456" lon="6.63524">
        <ele>217.123123</ele>
        <time>2019-08-16T08:08:16Z</time>
      </trkpt>
      <trkpt lat="43.34498" lon="6.63495">
        <ele>218.234161</ele>
        <time>2019-08-16T08:08:43Z</time>
      </trkpt>
      <trkpt lat="43.34531" lon="6.63454">
        <ele>220.64061</ele>
        <time>2019-08-16T08:09:09Z</time>
      </trkpt>
      <trkpt lat="43.34555" lon="6.63402">
        <ele>220.738312</ele>
        <time>2019-08-16T08:09:37Z</time>
      </trkpt>
      <trkpt lat="43.34558" lon="6.63341">
        <ele>223.217468</ele>
        <time>2019-08-16T08:10:01Z</time>
      </trkpt>
      <trkpt lat="43.34541" lon="6.63282">
        <ele>227.506729</ele>
        <time>2019-08-16T08:10:25Z</time>
      </trkpt>
      <trkpt lat="43.34516" lon="6.63228">
        <ele>234.785004</ele>
        <time>2019-08-16T08:10:51Z</time>
      </trkpt>
      <trkpt lat="43.345" lon="6.63165">
        <ele>235.800003</ele>
        <time>2019-08-16T08:11:18Z</time>
      </trkpt>
      <trkpt lat="43.34481" lon="6.63107">
        <ele>239.762939</ele>
        <time>2019-08-16T08:11:45Z</time>
      </trkpt>
      <trkpt lat="43.34463" lon="6.63045">
        <ele>249.867401</ele>
        <time>2019-08-16T08:12:15Z</time>
      </trkpt>
      <trkpt lat="43.34457" lon="6.62979">
        <ele>266.0495</ele>
        <time>2019-08-16T08:12:42Z</time>
      </trkpt>
      <trkpt lat="43.34486" lon="6.62938">
        <ele>265.685394</ele>
        <time>2019-08-16T08:13:12Z</time>
      </trkpt>
      <trkpt lat="43.34518" lon="6.62928">
        <ele>258.509308</ele>
        <time>2019-08-16T08:13:46Z</time>
      </trkpt>
      <trkpt lat="43.34502" lon="6.62878">
        <ele>268.570038</ele>
        <time>2019-08-16T08:15:35Z</time>
      </trkpt>
      <trkpt lat="43.34485" lon="6.62824">
        <ele>277.013977</ele>
        <time>2019-08-16T08:16:02Z</time>
      </trkpt>
      <trkpt lat="43.34471" lon="6.62763">
        <ele>287.222687</ele>
        <time>2019-08-16T08:16:22Z</time>
      </trkpt>
      <trkpt lat="43.34502" lon="6.62715">
        <ele>280.068024</ele>
        <time>2019-08-16T08:16:44Z</time>
      </trkpt>
      <trkpt lat="43.34533" lon="6.62676">
        <ele>266.122864</ele>
        <time>2019-08-16T08:17:03Z</time>
      </trkpt>
      <trkpt lat="43.34527" lon="6.62631">
        <ele>264.00061</ele>
        <time>2019-08-16T08:17:23Z</time>
      </trkpt>
      <trkpt lat="43.34492" lon="6.62587">
        <ele>269.15506</ele>
        <time>2019-08-16T08:17:42Z</time>
      </trkpt>
      <trkpt lat="43.34465" lon="6.62537">
        <ele>270.938782</ele>
        <time>2019-08-16T08:18:04Z</time>
      </trkpt>
      <trkpt lat="43.34464" lon="6.62471">
        <ele>268.439911</ele>
        <time>2019-08-16T08:18:23Z</time>
      </trkpt>
      <trkpt lat="43.34474" lon="6.6241">
        <ele>268.680511</ele>
        <time>2019-08-16T08:18:41Z</time>
      </trkpt>
      <trkpt lat="43.34507" lon="6.62365">
        <ele>268.334869</ele>
        <time>2019-08-16T08:19:00Z</time>
      </trkpt>
      <trkpt lat="43.34549" lon="6.62339">
        <ele>270.350891</ele>
        <time>2019-08-16T08:19:21Z</time>
      </trkpt>
      <trkpt lat="43.34599" lon="6.62334">
        <ele>270.942871</ele>
        <time>2019-08-16T08:19:38Z</time>
      </trkpt>
      <trkpt lat="43.34649" lon="6.62337">
        <ele>270.358521</ele>
        <time>2019-08-16T08:19:49Z</time>
      </trkpt>
      <trkpt lat="43.34696" lon="6.6234">
        <ele>268.710388</ele>
        <time>2019-08-16T08:20:00Z</time>
      </trkpt>
      <trkpt lat="43.34746" lon="6.62343">
        <ele>266.619995</ele>
        <time>2019-08-16T08:20:08Z</time>
      </trkpt>
      <trkpt lat="43.34792" lon="6.62339">
        <ele>266.398712</ele>
        <time>2019-08-16T08:20:20Z</time>
      </trkpt>
      <trkpt lat="43.3484" lon="6.62336">
        <ele>267.921265</ele>
        <time>2019-08-16T08:20:41Z</time>
      </trkpt>
      <trkpt lat="43.34885" lon="6.62323">
        <ele>274.417816</ele>
        <time>2019-08-16T08:21:00Z</time>
      </trkpt>
      <trkpt lat="43.34929" lon="6.62324">
        <ele>281.900208</ele>
        <time>2019-08-16T08:21:20Z</time>
      </trkpt>
      <trkpt lat="43.34968" lon="6.62362">
        <ele>282.754395</ele>
        <time>2019-08-16T08:21:41Z</time>
      </trkpt>
      <trkpt lat="43.35001" lon="6.62404">
        <ele>281.723022</ele>
        <time>2019-08-16T08:22:04Z</time>
      </trkpt>
      <trkpt lat="43.35041" lon="6.62431">
        <ele>283.165588</ele>
        <time>2019-08-16T08:22:25Z</time>
      </trkpt>
      <trkpt lat="43.35067" lon="6.62395">
        <ele>282.895721</ele>
        <time>2019-08-16T08:22:47Z</time>
      </trkpt>
      <trkpt lat="43.3506" lon="6.62334">
        <ele>288.18399</ele>
        <time>2019-08-16T08:23:09Z</time>
      </trkpt>
      <trkpt lat="43.35068" lon="6.62271">
        <ele>293.618347</ele>
        <time>2019-08-16T08:23:29Z</time>
      </trkpt>
      <trkpt lat="43.35079" lon="6.6221">
        <ele>296.798462</ele>
        <time>2019-08-16T08:23:49Z</time>
      </trkpt>
      <trkpt lat="43.3507" lon="6.6215">
        <ele>298.716553</ele>
        <time>2019-08-16T08:24:09Z</time>
      </trkpt>
      <trkpt lat="43.35087" lon="6.62093">
        <ele>300.231445</ele>
        <time>2019-08-16T08:24:35Z</time>
      </trkpt>
      <trkpt lat="43.35114" lon="6.62042">
        <ele>302.256012</ele>
        <time>2019-08-16T08:25:04Z</time>
      </trkpt>
      <trkpt lat="43.35144" lon="6.61992">
        <ele>305.548065</ele>
        <time>2019-08-16T08:25:33Z</time>
      </trkpt>
      <trkpt lat="43.35172" lon="6.61945">
        <ele>308.259766</ele>
        <time>2019-08-16T08:26:00Z</time>
      </trkpt>
      <trkpt lat="43.35211" lon="6.61907">
        <ele>309.648987</ele>
        <time>2019-08-16T08:26:28Z</time>
      </trkpt>
      <trkpt lat="43.35247" lon="6.61864">
        <ele>310.765015</ele>
        <time>2019-08-16T08:27:01Z</time>
      </trkpt>
      <trkpt lat="43.35274" lon="6.61814">
        <ele>312.856995</ele>
        <time>2019-08-16T08:27:24Z</time>
      </trkpt>
      <trkpt lat="43.35303" lon="6.61762">
        <ele>315.393066</ele>
        <time>2019-08-16T08:30:50Z</time>
      </trkpt>
      <trkpt lat="43.35331" lon="6.61711">
        <ele>316.258545</ele>
        <time>2019-08-16T08:31:10Z</time>
      </trkpt>
      <trkpt lat="43.3535" lon="6.61656">
        <ele>318.700928</ele>
        <time>2019-08-16T08:31:25Z</time>
      </trkpt>
      <trkpt lat="43.35374" lon="6.61603">
        <ele>317.878754</ele>
        <time>2019-08-16T08:31:37Z</time>
      </trkpt>
      <trkpt lat="43.35406" lon="6.61556">
        <ele>317.31012</ele>
        <time>2019-08-16T08:31:49Z</time>
      </trkpt>
      <trkpt lat="43.35439" lon="6.61507">
        <ele>314.78656</ele>
        <time>2019-08-16T08:31:58Z</time>
      </trkpt>
      <trkpt lat="43.35468" lon="6.61462">
        <ele>313.223419</ele>
        <time>2019-08-16T08:32:08Z</time>
      </trkpt>
      <trkpt lat="43.35509" lon="6.61439">
        <ele>301.118591</ele>
        <time>2019-08-16T08:32:18Z</time>
      </trkpt>
      <trkpt lat="43.35534" lon="6.61379">
        <ele>301.920319</ele>
        <time>2019-08-16T08:32:26Z</time>
      </trkpt>
      <trkpt lat="43.3557" lon="6.61336">
        <ele>296.671173</ele>
        <time>2019-08-16T08:32:36Z</time>
      </trkpt>
      <trkpt lat="43.35606" lon="6.61297">
        <ele>294.150543</ele>
        <time>2019-08-16T08:32:43Z</time>
      </trkpt>
      <trkpt lat="43.35647" lon="6.61262">
        <ele>295.511169</ele>
        <time>2019-08-16T08:32:55Z</time>
      </trkpt>
      <trkpt lat="43.35692" lon="6.61258">
        <ele>287.572113</ele>
        <time>2019-08-16T08:33:06Z</time>
      </trkpt>
      <trkpt lat="43.35731" lon="6.61247">
        <ele>276.901642</ele>
        <time>2019-08-16T08:33:17Z</time>
      </trkpt>
      <trkpt lat="43.35742" lon="6.61184">
        <ele>277.967499</ele>
        <time>2019-08-16T08:33:25Z</time>
      </trkpt>
      <trkpt lat="43.35742" lon="6.61122">
        <ele>279.81131</ele>
        <time>2019-08-16T08:33:35Z</time>
      </trkpt>
      <trkpt lat="43.35763" lon="6.61069">
        <ele>274.0047</ele>
        <time>2019-08-16T08:33:45Z</time>
      </trkpt>
      <trkpt lat="43.35793" lon="6.61012">
        <ele>271.956421</ele>
        <time>2019-08-16T08:33:53Z</time>
      </trkpt>
      <trkpt lat="43.35826" lon="6.60967">
        <ele>269.332458</ele>
        <time>2019-08-16T08:34:02Z</time>
      </trkpt>
      <trkpt lat="43.35873" lon="6.60953">
        <ele>257.516693</ele>
        <time>2019-08-16T08:34:11Z</time>
      </trkpt>
      <trkpt lat="43.35899" lon="6.60893">
        <ele>257.089935</ele>
        <time>2019-08-16T08:34:19Z</time>
      </trkpt>
      <trkpt lat="43.35934" lon="6.60852">
        <ele>254.618179</ele>
        <time>2019-08-16T08:34:29Z</time>
      </trkpt>
      <trkpt lat="43.35985" lon="6.60852">
        <ele>246.494522</ele>
        <time>2019-08-16T08:34:37Z</time>
      </trkpt>
      <trkpt lat="43.36027" lon="6.60838">
        <ele>249.568649</ele>
        <time>2019-08-16T08:34:44Z</time>
      </trkpt>
      <trkpt lat="43.36062" lon="6.60807">
        <ele>256.74295</ele>
        <time>2019-08-16T08:35:09Z</time>
      </trkpt>
      <trkpt lat="43.36095" lon="6.60764">
        <ele>263.196655</ele>
        <time>2019-08-16T08:35:42Z</time>
      </trkpt>
      <trkpt lat="43.36133" lon="6.60731">
        <ele>271.570343</ele>
        <time>2019-08-16T08:36:16Z</time>
      </trkpt>
      <trkpt lat="43.36173" lon="6.60704">
        <ele>266.519653</ele>
        <time>2019-08-16T08:36:48Z</time>
      </trkpt>
      <trkpt lat="43.36199" lon="6.6075">
        <ele>276.314606</ele>
        <time>2019-08-16T08:37:14Z</time>
      </trkpt>
      <trkpt lat="43.36242" lon="6.6077">
        <ele>277.265106</ele>
        <time>2019-08-16T08:37:27Z</time>
      </trkpt>
      <trkpt lat="43.3628" lon="6.60745">
        <ele>275.639801</ele>
        <time>2019-08-16T08:37:36Z</time>
      </trkpt>
      <trkpt lat="43.363" lon="6.60685">
        <ele>266.151001</ele>
        <time>2019-08-16T08:37:44Z</time>
      </trkpt>
      <trkpt lat="43.36343" lon="6.60676">
        <ele>272.989807</ele>
        <time>2019-08-16T08:37:54Z</time>
      </trkpt>
      <trkpt lat="43.36367" lon="6.60624">
        <ele>264.895081</ele>
        <time>2019-08-16T08:38:07Z</time>
      </trkpt>
      <trkpt lat="43.3641" lon="6.60601">
        <ele>262.931732</ele>
        <time>2019-08-16T08:38:16Z</time>
      </trkpt>
      <trkpt lat="43.36444" lon="6.60557">
        <ele>260.957581</ele>
        <time>2019-08-16T08:38:26Z</time>
      </trkpt>
      <trkpt lat="43.36474" lon="6.60505">
        <ele>259.444214</ele>
        <time>2019-08-16T08:38:41Z</time>
      </trkpt>
      <trkpt lat="43.36519" lon="6.60491">
        <ele>264.593658</ele>
        <time>2019-08-16T08:39:02Z</time>
      </trkpt>
      <trkpt lat="43.36563" lon="6.605">
        <ele>272.045013</ele>
        <time>2019-08-16T08:39:27Z</time>
      </trkpt>
      <trkpt lat="43.3661" lon="6.60506">
        <ele>277.633057</ele>
        <time>2019-08-16T08:39:47Z</time>
      </trkpt>
      <trkpt lat="43.36655" lon="6.60479">
        <ele>276.084106</ele>
        <time>2019-08-16T08:40:09Z</time>
      </trkpt>
      <trkpt lat="43.36622" lon="6.60524">
        <ele>284.861176</ele>
        <time>2019-08-16T08:41:38Z</time>
      </trkpt>
      <trkpt lat="43.36572" lon="6.60538">
        <ele>283.508728</ele>
        <time>2019-08-16T08:42:04Z</time>
      </trkpt>
      <trkpt lat="43.36531" lon="6.60583">
        <ele>289.690094</ele>
        <time>2019-08-16T08:42:35Z</time>
      </trkpt>
      <trkpt lat="43.36511" lon="6.6064">
        <ele>295.913391</ele>
        <time>2019-08-16T08:43:04Z</time>
      </trkpt>
      <trkpt lat="43.36494" lon="6.60698">
        <ele>302.284668</ele>
        <time>2019-08-16T08:43:36Z</time>
      </trkpt>
      <trkpt lat="43.36457" lon="6.60729">
        <ele>303.959503</ele>
        <time>2019-08-16T08:44:11Z</time>
      </trkpt>
      <trkpt lat="43.36414" lon="6.6075">
        <ele>309.514832</ele>
        <time>2019-08-16T08:44:44Z</time>
      </trkpt>
      <trkpt lat="43.364" lon="6.60806">
        <ele>320.329773</ele>
        <time>2019-08-16T08:45:20Z</time>
      </trkpt>
      <trkpt lat="43.36382" lon="6.60862">
        <ele>325.123444</ele>
        <time>2019-08-16T08:45:58Z</time>
      </trkpt>
      <trkpt lat="43.36357" lon="6.60914">
        <ele>327.78952</ele>
        <time>2019-08-16T08:46:30Z</time>
      </trkpt>
      <trkpt lat="43.3632" lon="6.60954">
        <ele>327.039276</ele>
        <time>2019-08-16T08:46:58Z</time>
      </trkpt>
      <trkpt lat="43.36329" lon="6.61012">
        <ele>331.291656</ele>
        <time>2019-08-16T08:47:25Z</time>
      </trkpt>
      <trkpt lat="43.3636" lon="6.61061">
        <ele>336.156738</ele>
        <time>2019-08-16T08:47:55Z</time>
      </trkpt>
      <trkpt lat="43.36393" lon="6.61101">
        <ele>340.397369</ele>
        <time>2019-08-16T08:48:20Z</time>
      </trkpt>
      <trkpt lat="43.36415" lon="6.61157">
        <ele>342.290009</ele>
        <time>2019-08-16T08:48:33Z</time>
      </trkpt>
      <trkpt lat="43.36437" lon="6.61217">
        <ele>352.384491</ele>
        <time>2019-08-16T08:48:59Z</time>
      </trkpt>
      <trkpt lat="43.3643" lon="6.61279">
        <ele>357.046997</ele>
        <time>2019-08-16T08:49:27Z</time>
      </trkpt>
      <trkpt lat="43.36396" lon="6.61319">
        <ele>355.340668</ele>
        <time>2019-08-16T08:49:53Z</time>
      </trkpt>
      <trkpt lat="43.36377" lon="6.6137">
        <ele>355.399475</ele>
        <time>2019-08-16T08:50:19Z</time>
      </trkpt>
      <trkpt lat="43.3639" lon="6.61424">
        <ele>358.772491</ele>
        <time>2019-08-16T08:50:46Z</time>
      </trkpt>
      <trkpt lat="43.3641" lon="6.61478">
        <ele>363.64798</ele>
        <time>2019-08-16T08:51:09Z</time>
      </trkpt>
      <trkpt lat="43.36406" lon="6.61539">
        <ele>359.565613</ele>
        <time>2019-08-16T08:51:27Z</time>
      </trkpt>
      <trkpt lat="43.36414" lon="6.61589">
        <ele>356.050629</ele>
        <time>2019-08-16T08:51:45Z</time>
      </trkpt>
      <trkpt lat="43.3646" lon="6.61604">
        <ele>359.251251</ele>
        <time>2019-08-16T08:52:00Z</time>
      </trkpt>
      <trkpt lat="43.36504" lon="6.61639">
        <ele>358.988007</ele>
        <time>2019-08-16T08:52:12Z</time>
      </trkpt>
      <trkpt lat="43.36538" lon="6.61696">
        <ele>351.614563</ele>
        <time>2019-08-16T08:52:19Z</time>
      </trkpt>
      <trkpt lat="43.36576" lon="6.61743">
        <ele>346.632233</ele>
        <time>2019-08-16T08:52:25Z</time>
      </trkpt>
      <trkpt lat="43.36609" lon="6.61778">
        <ele>344.873749</ele>
        <time>2019-08-16T08:54:53Z</time>
      </trkpt>
      <trkpt lat="43.366" lon="6.61843">
        <ele>344.340942</ele>
        <time>2019-08-16T08:55:07Z</time>
      </trkpt>
      <trkpt lat="43.36603" lon="6.6191">
        <ele>343.287903</ele>
        <time>2019-08-16T08:55:21Z</time>
      </trkpt>
      <trkpt lat="43.36613" lon="6.61978">
        <ele>340.198792</ele>
        <time>2019-08-16T08:55:33Z</time>
      </trkpt>
      <trkpt lat="43.36621" lon="6.62045">
        <ele>334.220001</ele>
        <time>2019-08-16T08:55:42Z</time>
      </trkpt>
      <trkpt lat="43.36625" lon="6.62113">
        <ele>329.887726</ele>
        <time>2019-08-16T08:55:49Z</time>
      </trkpt>
      <trkpt lat="43.36621" lon="6.62169">
        <ele>326.550171</ele>
        <time>2019-08-16T08:55:57Z</time>
      </trkpt>
      <trkpt lat="43.36579" lon="6.62187">
        <ele>323.16391</ele>
        <time>2019-08-16T08:56:06Z</time>
      </trkpt>
      <trkpt lat="43.3656" lon="6.62202">
        <ele>317.22522</ele>
        <time>2019-08-16T08:56:18Z</time>
      </trkpt>
      <trkpt lat="43.36601" lon="6.62243">
        <ele>313.669678</ele>
        <time>2019-08-16T08:56:31Z</time>
      </trkpt>
      <trkpt lat="43.36642" lon="6.6228">
        <ele>311.343109</ele>
        <time>2019-08-16T08:56:52Z</time>
      </trkpt>
      <trkpt lat="43.36678" lon="6.62326">
        <ele>307.907898</ele>
        <time>2019-08-16T08:57:00Z</time>
      </trkpt>
      <trkpt lat="43.36695" lon="6.62394">
        <ele>304.137512</ele>
        <time>2019-08-16T08:57:06Z</time>
      </trkpt>
      <trkpt lat="43.3671" lon="6.62456">
        <ele>302.205231</ele>
        <time>2019-08-16T08:57:15Z</time>
      </trkpt>
      <trkpt lat="43.36718" lon="6.62517">
        <ele>298.197083</ele>
        <time>2019-08-16T08:57:23Z</time>
      </trkpt>
      <trkpt lat="43.36723" lon="6.62586">
        <ele>291.018311</ele>
        <time>2019-08-16T08:57:31Z</time>
      </trkpt>
      <trkpt lat="43.3671" lon="6.62652">
        <ele>283.059143</ele>
        <time>2019-08-16T08:57:38Z</time>
      </trkpt>
      <trkpt lat="43.36705" lon="6.62716">
        <ele>280.395447</ele>
        <time>2019-08-16T08:57:50Z</time>
      </trkpt>
      <trkpt lat="43.36659" lon="6.62731">
        <ele>277.470398</ele>
        <time>2019-08-16T08:58:06Z</time>
      </trkpt>
      <trkpt lat="43.36625" lon="6.62776">
        <ele>273.357178</ele>
        <time>2019-08-16T08:58:15Z</time>
      </trkpt>
      <trkpt lat="43.36596" lon="6.62827">
        <ele>274.541229</ele>
        <time>2019-08-16T08:58:25Z</time>
      </trkpt>
      <trkpt lat="43.36547" lon="6.62831">
        <ele>265.500793</ele>
        <time>2019-08-16T08:58:35Z</time>
      </trkpt>
      <trkpt lat="43.36501" lon="6.6281">
        <ele>256.757507</ele>
        <time>2019-08-16T08:58:44Z</time>
      </trkpt>
      <trkpt lat="43.36456" lon="6.62795">
        <ele>250.044998</ele>
        <time>2019-08-16T08:58:54Z</time>
      </trkpt>
      <trkpt lat="43.36411" lon="6.62794">
        <ele>246.577805</ele>
        <time>2019-08-16T08:59:07Z</time>
      </trkpt>
      <trkpt lat="43.36364" lon="6.62783">
        <ele>238.433167</ele>
        <time>2019-08-16T08:59:18Z</time>
      </trkpt>
      <trkpt lat="43.36319" lon="6.62785">
        <ele>233.51268</ele>
        <time>2019-08-16T08:59:29Z</time>
      </trkpt>
      <trkpt lat="43.36276" lon="6.62802">
        <ele>230.76059</ele>
        <time>2019-08-16T08:59:39Z</time>
      </trkpt>
      <trkpt lat="43.36232" lon="6.62833">
        <ele>225.681152</ele>
        <time>2019-08-16T08:59:48Z</time>
      </trkpt>
      <trkpt lat="43.36195" lon="6.62871">
        <ele>220.401108</ele>
        <time>2019-08-16T08:59:56Z</time>
      </trkpt>
      <trkpt lat="43.36165" lon="6.62919">
        <ele>216.767944</ele>
        <time>2019-08-16T09:00:03Z</time>
      </trkpt>
      <trkpt lat="43.36145" lon="6.62974">
        <ele>212.713745</ele>
        <time>2019-08-16T09:00:10Z</time>
      </trkpt>
      <trkpt lat="43.36157" lon="6.63041">
        <ele>215.023041</ele>
        <time>2019-08-16T09:00:19Z</time>
      </trkpt>
      <trkpt lat="43.36141" lon="6.63099">
        <ele>211.284378</ele>
        <time>2019-08-16T09:00:27Z</time>
      </trkpt>
      <trkpt lat="43.36112" lon="6.6315">
        <ele>209.171722</ele>
        <time>2019-08-16T09:00:39Z</time>
      </trkpt>
      <trkpt lat="43.36081" lon="6.63193">
        <ele>207.028046</ele>
        <time>2019-08-16T09:01:03Z</time>
      </trkpt>
      <trkpt lat="43.3604" lon="6.63218">
        <ele>206.725464</ele>
        <time>2019-08-16T09:01:27Z</time>
      </trkpt>
      <trkpt lat="43.36015" lon="6.63269">
        <ele>209.490646</ele>
        <time>2019-08-16T09:01:47Z</time>
      </trkpt>
      <trkpt lat="43.36023" lon="6.63331">
        <ele>210.157684</ele>
        <time>2019-08-16T09:02:08Z</time>
      </trkpt>
      <trkpt lat="43.36031" lon="6.63394">
        <ele>211.919632</ele>
        <time>2019-08-16T09:02:29Z</time>
      </trkpt>
      <trkpt lat="43.36039" lon="6.63462">
        <ele>211.927322</ele>
        <time>2019-08-16T09:02:50Z</time>
      </trkpt>
      <trkpt lat="43.36032" lon="6.63523">
        <ele>215.288696</ele>
        <time>2019-08-16T09:03:08Z</time>
      </trkpt>
      <trkpt lat="43.36028" lon="6.63587">
        <ele>212.629318</ele>
        <time>2019-08-16T09:03:24Z</time>
      </trkpt>
      <trkpt lat="43.35995" lon="6.63633">
        <ele>217.282608</ele>
        <time>2019-08-16T09:03:40Z</time>
      </trkpt>
      <trkpt lat="43.35955" lon="6.63669">
        <ele>221.645004</ele>
        <time>2019-08-16T09:03:52Z</time>
      </trkpt>
      <trkpt lat="43.35957" lon="6.63734">
        <ele>220.435944</ele>
        <time>2019-08-16T09:04:02Z</time>
      </trkpt>
      <trkpt lat="43.35993" lon="6.63775">
        <ele>218.691528</ele>
        <time>2019-08-16T09:04:14Z</time>
      </trkpt>
      <trkpt lat="43.36032" lon="6.63812">
        <ele>215.362869</ele>
        <time>2019-08-16T09:04:28Z</time>
      </trkpt>
      <trkpt lat="43.36047" lon="6.63868">
        <ele>211.793625</ele>
        <time>2019-08-16T09:04:40Z</time>
      </trkpt>
      <trkpt lat="43.36034" lon="6.63929">
        <ele>216.332504</ele>
        <time>2019-08-16T09:04:50Z</time>
      </trkpt>
      <trkpt lat="43.36046" lon="6.63989">
        <ele>210.227371</ele>
        <time>2019-08-16T09:04:59Z</time>
      </trkpt>
      <trkpt lat="43.3602" lon="6.64051">
        <ele>210.01683</ele>
        <time>2019-08-16T09:05:08Z</time>
      </trkpt>
      <trkpt lat="43.36026" lon="6.64109">
        <ele>211.412994</ele>
        <time>2019-08-16T09:05:15Z</time>
      </trkpt>
      <trkpt lat="43.36059" lon="6.64158">
        <ele>209.234131</ele>
        <time>2019-08-16T09:05:27Z</time>
      </trkpt>
      <trkpt lat="43.36083" lon="6.64213">
        <ele>208.101166</ele>
        <time>2019-08-16T09:05:41Z</time>
      </trkpt>
      <trkpt lat="43.36075" lon="6.64273">
        <ele>211.585434</ele>
        <time>2019-08-16T09:05:56Z</time>
      </trkpt>
      <trkpt lat="43.36053" lon="6.6433">
        <ele>214.743759</ele>
        <time>2019-08-16T09:06:13Z</time>
      </trkpt>
      <trkpt lat="43.36029" lon="6.64384">
        <ele>216.650131</ele>
        <time>2019-08-16T09:06:31Z</time>
      </trkpt>
      <trkpt lat="43.36004" lon="6.64434">
        <ele>221.773544</ele>
        <time>2019-08-16T09:06:50Z</time>
      </trkpt>
      <trkpt lat="43.36011" lon="6.64497">
        <ele>220.494995</ele>
        <time>2019-08-16T09:07:11Z</time>
      </trkpt>
      <trkpt lat="43.36005" lon="6.6456">
        <ele>225.036621</ele>
        <time>2019-08-16T09:07:32Z</time>
      </trkpt>
      <trkpt lat="43.35995" lon="6.64622">
        <ele>224.393463</ele>
        <time>2019-08-16T09:07:51Z</time>
      </trkpt>
      <trkpt lat="43.35957" lon="6.64661">
        <ele>225.246338</ele>
        <time>2019-08-16T09:08:05Z</time>
      </trkpt>
      <trkpt lat="43.35917" lon="6.64691">
        <ele>227.336166</ele>
        <time>2019-08-16T09:08:14Z</time>
      </trkpt>
      <trkpt lat="43.3588" lon="6.64737">
        <ele>229.252747</ele>
        <time>2019-08-16T09:08:24Z</time>
      </trkpt>
      <trkpt lat="43.35841" lon="6.64771">
        <ele>232.186905</ele>
        <time>2019-08-16T09:08:37Z</time>
      </trkpt>
      <trkpt lat="43.35818" lon="6.64825">
        <ele>231.870697</ele>
        <time>2019-08-16T09:08:49Z</time>
      </trkpt>
      <trkpt lat="43.35829" lon="6.64885">
        <ele>232.540695</ele>
        <time>2019-08-16T09:09:02Z</time>
      </trkpt>
      <trkpt lat="43.35851" lon="6.64939">
        <ele>235.017502</ele>
        <time>2019-08-16T09:09:16Z</time>
      </trkpt>
      <trkpt lat="43.35874" lon="6.64997">
        <ele>231.350891</ele>
        <time>2019-08-16T09:09:31Z</time>
      </trkpt>
      <trkpt lat="43.35917" lon="6.65019">
        <ele>229.210007</ele>
        <time>2019-08-16T09:09:45Z</time>
      </trkpt>
      <trkpt lat="43.35964" lon="6.65032">
        <ele>225.001968</ele>
        <time>2019-08-16T09:09:54Z</time>
      </trkpt>
      <trkpt lat="43.36012" lon="6.65045">
        <ele>223.590637</ele>
        <time>2019-08-16T09:10:03Z</time>
      </trkpt>
      <trkpt lat="43.36061" lon="6.65068">
        <ele>222.48114</ele>
        <time>2019-08-16T09:10:11Z</time>
      </trkpt>
      <trkpt lat="43.36107" lon="6.65074">
        <ele>224.797104</ele>
        <time>2019-08-16T09:10:18Z</time>
      </trkpt>
      <trkpt lat="43.36146" lon="6.65112">
        <ele>222.643677</ele>
        <time>2019-08-16T09:10:27Z</time>
      </trkpt>
      <trkpt lat="43.36172" lon="6.65169">
        <ele>217.493942</ele>
        <time>2019-08-16T09:10:40Z</time>
      </trkpt>
      <trkpt lat="43.36205" lon="6.65227">
        <ele>213.689026</ele>
        <time>2019-08-16T09:10:48Z</time>
      </trkpt>
      <trkpt lat="43.3621" lon="6.65288">
        <ele>210.396255</ele>
        <time>2019-08-16T09:10:55Z</time>
      </trkpt>
      <trkpt lat="43.36192" lon="6.65348">
        <ele>208.837341</ele>
        <time>2019-08-16T09:11:01Z</time>
      </trkpt>
      <trkpt lat="43.36173" lon="6.65413">
        <ele>208.179428</ele>
        <time>2019-08-16T09:11:07Z</time>
      </trkpt>
      <trkpt lat="43.3618" lon="6.65476">
        <ele>205.689835</ele>
        <time>2019-08-16T09:11:13Z</time>
      </trkpt>
      <trkpt lat="43.36192" lon="6.65539">
        <ele>205.168747</ele>
        <time>2019-08-16T09:11:21Z</time>
      </trkpt>
      <trkpt lat="43.36193" lon="6.65605">
        <ele>209.560104</ele>
        <time>2019-08-16T09:11:31Z</time>
      </trkpt>
      <trkpt lat="43.36207" lon="6.65648">
        <ele>213.169998</ele>
        <time>2019-08-16T09:11:41Z</time>
      </trkpt>
      <trkpt lat="43.36245" lon="6.65665">
        <ele>212.526474</ele>
        <time>2019-08-16T09:11:56Z</time>
      </trkpt>
      <trkpt lat="43.36277" lon="6.65707">
        <ele>208.812622</ele>
        <time>2019-08-16T09:12:10Z</time>
      </trkpt>
      <trkpt lat="43.36316" lon="6.65678">
        <ele>205.068695</ele>
        <time>2019-08-16T09:12:20Z</time>
      </trkpt>
      <trkpt lat="43.36353" lon="6.65638">
        <ele>202.027756</ele>
        <time>2019-08-16T09:12:32Z</time>
      </trkpt>
      <trkpt lat="43.36389" lon="6.65654">
        <ele>192.233963</ele>
        <time>2019-08-16T09:12:45Z</time>
      </trkpt>
      <trkpt lat="43.3636" lon="6.65703">
        <ele>191.665207</ele>
        <time>2019-08-16T09:12:54Z</time>
      </trkpt>
      <trkpt lat="43.3634" lon="6.65762">
        <ele>185.15712</ele>
        <time>2019-08-16T09:13:05Z</time>
      </trkpt>
      <trkpt lat="43.36319" lon="6.6581">
        <ele>180.836624</ele>
        <time>2019-08-16T09:13:15Z</time>
      </trkpt>
      <trkpt lat="43.3634" lon="6.65861">
        <ele>184.663467</ele>
        <time>2019-08-16T09:13:25Z</time>
      </trkpt>
      <trkpt lat="43.36384" lon="6.65842">
        <ele>186.499084</ele>
        <time>2019-08-16T09:13:52Z</time>
      </trkpt>
      <trkpt lat="43.36429" lon="6.65846">
        <ele>192.979996</ele>
        <time>2019-08-16T09:14:21Z</time>
      </trkpt>
      <trkpt lat="43.36475" lon="6.65844">
        <ele>193.708679</ele>
        <time>2019-08-16T09:14:49Z</time>
      </trkpt>
      <trkpt lat="43.36516" lon="6.6587">
        <ele>193.613495</ele>
        <time>2019-08-16T09:15:10Z</time>
      </trkpt>
      <trkpt lat="43.3655" lon="6.65915">
        <ele>187.904755</ele>
        <time>2019-08-16T09:15:23Z</time>
      </trkpt>
      <trkpt lat="43.36569" lon="6.65979">
        <ele>182.544189</ele>
        <time>2019-08-16T09:15:33Z</time>
      </trkpt>
      <trkpt lat="43.36555" lon="6.66038">
        <ele>184.48027</ele>
        <time>2019-08-16T09:15:41Z</time>
      </trkpt>
      <trkpt lat="43.36532" lon="6.66101">
        <ele>191.790146</ele>
        <time>2019-08-16T09:15:50Z</time>
      </trkpt>
      <trkpt lat="43.36554" lon="6.6612">
        <ele>192.619949</ele>
        <time>2019-08-16T09:16:05Z</time>
      </trkpt>
      <trkpt lat="43.36602" lon="6.66109">
        <ele>188.3582</ele>
        <time>2019-08-16T09:16:18Z</time>
      </trkpt>
      <trkpt lat="43.3664" lon="6.66139">
        <ele>190.566574</ele>
        <time>2019-08-16T09:16:31Z</time>
      </trkpt>
      <trkpt lat="43.3667" lon="6.66191">
        <ele>191.277115</ele>
        <time>2019-08-16T09:16:44Z</time>
      </trkpt>
      <trkpt lat="43.36689" lon="6.66245">
        <ele>188.212219</ele>
        <time>2019-08-16T09:16:55Z</time>
      </trkpt>
      <trkpt lat="43.36663" lon="6.66296">
        <ele>189.684677</ele>
        <time>2019-08-16T09:17:13Z</time>
      </trkpt>
      <trkpt lat="43.36665" lon="6.6636">
        <ele>184.535645</ele>
        <time>2019-08-16T09:17:38Z</time>
      </trkpt>
      <trkpt lat="43.36673" lon="6.66424">
        <ele>177.892349</ele>
        <time>2019-08-16T09:17:47Z</time>
      </trkpt>
      <trkpt lat="43.36674" lon="6.66493">
        <ele>172.251648</ele>
        <time>2019-08-16T09:17:55Z</time>
      </trkpt>
      <trkpt lat="43.36672" lon="6.6656">
        <ele>169.639069</ele>
        <time>2019-08-16T09:18:02Z</time>
      </trkpt>
      <trkpt lat="43.36679" lon="6.66622">
        <ele>163.524689</ele>
        <time>2019-08-16T09:18:08Z</time>
      </trkpt>
      <trkpt lat="43.36657" lon="6.66678">
        <ele>160.983551</ele>
        <time>2019-08-16T09:18:16Z</time>
      </trkpt>
      <trkpt lat="43.36608" lon="6.66661">
        <ele>164.622818</ele>
        <time>2019-08-16T09:18:27Z</time>
      </trkpt>
      <trkpt lat="43.36574" lon="6.66619">
        <ele>170.463562</ele>
        <time>2019-08-16T09:18:39Z</time>
      </trkpt>
      <trkpt lat="43.36536" lon="6.66581">
        <ele>171.434464</ele>
        <time>2019-08-16T09:18:53Z</time>
      </trkpt>
      <trkpt lat="43.36503" lon="6.66575">
        <ele>175.2229</ele>
        <time>2019-08-16T09:19:05Z</time>
      </trkpt>
      <trkpt lat="43.36514" lon="6.66641">
        <ele>168.295441</ele>
        <time>2019-08-16T09:19:17Z</time>
      </trkpt>
      <trkpt lat="43.36522" lon="6.66701">
        <ele>168.512909</ele>
        <time>2019-08-16T09:19:30Z</time>
      </trkpt>
      <trkpt lat="43.36525" lon="6.66765">
        <ele>175.222641</ele>
        <time>2019-08-16T09:19:46Z</time>
      </trkpt>
      <trkpt lat="43.36544" lon="6.66819">
        <ele>174.694031</ele>
        <time>2019-08-16T09:20:04Z</time>
      </trkpt>
      <trkpt lat="43.36559" lon="6.66878">
        <ele>179.409943</ele>
        <time>2019-08-16T09:20:24Z</time>
      </trkpt>
      <trkpt lat="43.36583" lon="6.66934">
        <ele>171.515015</ele>
        <time>2019-08-16T09:20:45Z</time>
      </trkpt>
      <trkpt lat="43.36575" lon="6.66992">
        <ele>167.699829</ele>
        <time>2019-08-16T09:21:01Z</time>
      </trkpt>
      <trkpt lat="43.36527" lon="6.6701">
        <ele>171.93219</ele>
        <time>2019-08-16T09:21:10Z</time>
      </trkpt>
      <trkpt lat="43.36486" lon="6.67039">
        <ele>175.348038</ele>
        <time>2019-08-16T09:21:17Z</time>
      </trkpt>
      <trkpt lat="43.36456" lon="6.67086">
        <ele>177.640213</ele>
        <time>2019-08-16T09:21:31Z</time>
      </trkpt>
      <trkpt lat="43.3643" lon="6.67139">
        <ele>180.518372</ele>
        <time>2019-08-16T09:21:48Z</time>
      </trkpt>
      <trkpt lat="43.36412" lon="6.67202">
        <ele>169.819473</ele>
        <time>2019-08-16T09:21:56Z</time>
      </trkpt>
      <trkpt lat="43.36393" lon="6.67259">
        <ele>162.317917</ele>
        <time>2019-08-16T09:22:04Z</time>
      </trkpt>
      <trkpt lat="43.3637" lon="6.67312">
        <ele>160.595993</ele>
        <time>2019-08-16T09:22:17Z</time>
      </trkpt>
      <trkpt lat="43.36368" lon="6.67326">
        <ele>160.561798</ele>
        <time>2019-08-16T09:23:16Z</time>
      </trkpt>
      <trkpt lat="43.36377" lon="6.67297">
        <ele>160.826111</ele>
        <time>2019-08-16T09:25:50Z</time>
      </trkpt>
      <trkpt lat="43.36357" lon="6.67349">
        <ele>160.459641</ele>
        <time>2019-08-16T09:26:52Z</time>
      </trkpt>
      <trkpt lat="43.36405" lon="6.67368">
        <ele>158.710495</ele>
        <time>2019-08-16T09:27:08Z</time>
      </trkpt>
      <trkpt lat="43.36449" lon="6.67399">
        <ele>158.413574</ele>
        <time>2019-08-16T09:27:17Z</time>
      </trkpt>
      <trkpt lat="43.36498" lon="6.67404">
        <ele>152.785599</ele>
        <time>2019-08-16T09:27:24Z</time>
      </trkpt>
      <trkpt lat="43.36546" lon="6.67418">
        <ele>146.507629</ele>
        <time>2019-08-16T09:27:31Z</time>
      </trkpt>
      <trkpt lat="43.3658" lon="6.67459">
        <ele>152.624069</ele>
        <time>2019-08-16T09:27:38Z</time>
      </trkpt>
      <trkpt lat="43.3662" lon="6.67428">
        <ele>138.562744</ele>
        <time>2019-08-16T09:27:45Z</time>
      </trkpt>
      <trkpt lat="43.3666" lon="6.67463">
        <ele>135.008484</ele>
        <time>2019-08-16T09:27:53Z</time>
      </trkpt>
      <trkpt lat="43.36679" lon="6.67527">
        <ele>133.15657</ele>
        <time>2019-08-16T09:27:59Z</time>
      </trkpt>
      <trkpt lat="43.3669" lon="6.67587">
        <ele>128.86702</ele>
        <time>2019-08-16T09:28:04Z</time>
      </trkpt>
      <trkpt lat="43.36696" lon="6.67653">
        <ele>130.166702</ele>
        <time>2019-08-16T09:28:10Z</time>
      </trkpt>
      <trkpt lat="43.36736" lon="6.67686">
        <ele>130.592346</ele>
        <time>2019-08-16T09:28:17Z</time>
      </trkpt>
      <trkpt lat="43.36757" lon="6.67732">
        <ele>135.993301</ele>
        <time>2019-08-16T09:29:43Z</time>
      </trkpt>
      <trkpt lat="43.36768" lon="6.67792">
        <ele>143.445007</ele>
        <time>2019-08-16T09:30:21Z</time>
      </trkpt>
      <trkpt lat="43.36774" lon="6.67855">
        <ele>153.506149</ele>
        <time>2019-08-16T09:31:00Z</time>
      </trkpt>
      <trkpt lat="43.36775" lon="6.67915">
        <ele>158.66095</ele>
        <time>2019-08-16T09:31:39Z</time>
      </trkpt>
      <trkpt lat="43.36766" lon="6.67975">
        <ele>156.649994</ele>
        <time>2019-08-16T09:32:26Z</time>
      </trkpt>
      <trkpt lat="43.36768" lon="6.67975">
        <ele>156.654999</ele>
        <time>2019-08-16T09:38:00Z</time>
      </trkpt>
      <trkpt lat="43.36739" lon="6.68021">
        <ele>154.856201</ele>
        <time>2019-08-16T09:38:12Z</time>
      </trkpt>
      <trkpt lat="43.36749" lon="6.68068">
        <ele>148.990631</ele>
        <time>2019-08-16T09:38:23Z</time>
      </trkpt>
      <trkpt lat="43.36781" lon="6.68117">
        <ele>141.699677</ele>
        <time>2019-08-16T09:38:32Z</time>
      </trkpt>
      <trkpt lat="43.36813" lon="6.68162">
        <ele>135.333008</ele>
        <time>2019-08-16T09:39:15Z</time>
      </trkpt>
      <trkpt lat="43.36857" lon="6.68181">
        <ele>136.83963</ele>
        <time>2019-08-16T09:39:29Z</time>
      </trkpt>
      <trkpt lat="43.36903" lon="6.6817">
        <ele>146.110001</ele>
        <time>2019-08-16T09:40:00Z</time>
      </trkpt>
      <trkpt lat="43.36939" lon="6.68133">
        <ele>155.409805</ele>
        <time>2019-08-16T09:40:35Z</time>
      </trkpt>
      <trkpt lat="43.3695" lon="6.68178">
        <ele>159.513611</ele>
        <time>2019-08-16T09:41:12Z</time>
      </trkpt>
      <trkpt lat="43.36966" lon="6.68234">
        <ele>170.388367</ele>
        <time>2019-08-16T09:41:50Z</time>
      </trkpt>
      <trkpt lat="43.36955" lon="6.68291">
        <ele>171.97287</ele>
        <time>2019-08-16T09:42:23Z</time>
      </trkpt>
      <trkpt lat="43.36921" lon="6.68336">
        <ele>165.938141</ele>
        <time>2019-08-16T09:42:39Z</time>
      </trkpt>
      <trkpt lat="43.36941" lon="6.68382">
        <ele>164.953873</ele>
        <time>2019-08-16T09:42:54Z</time>
      </trkpt>
      <trkpt lat="43.36987" lon="6.68402">
        <ele>164.919067</ele>
        <time>2019-08-16T09:44:48Z</time>
      </trkpt>
      <trkpt lat="43.37036" lon="6.68424">
        <ele>159.183746</ele>
        <time>2019-08-16T09:45:03Z</time>
      </trkpt>
      <trkpt lat="43.37087" lon="6.68422">
        <ele>162.268433</ele>
        <time>2019-08-16T09:45:14Z</time>
      </trkpt>
      <trkpt lat="43.37133" lon="6.68433">
        <ele>169.354141</ele>
        <time>2019-08-16T09:45:29Z</time>
      </trkpt>
      <trkpt lat="43.37146" lon="6.68492">
        <ele>162.500336</ele>
        <time>2019-08-16T09:46:06Z</time>
      </trkpt>
      <trkpt lat="43.37155" lon="6.68553">
        <ele>158.04921</ele>
        <time>2019-08-16T09:46:17Z</time>
      </trkpt>
      <trkpt lat="43.37164" lon="6.68614">
        <ele>154.897598</ele>
        <time>2019-08-16T09:46:32Z</time>
      </trkpt>
      <trkpt lat="43.37143" lon="6.68669">
        <ele>144.912491</ele>
        <time>2019-08-16T09:46:49Z</time>
      </trkpt>
      <trkpt lat="43.37135" lon="6.68681">
        <ele>142.424957</ele>
        <time>2019-08-16T09:59:47Z</time>
      </trkpt>
      <trkpt lat="43.37177" lon="6.68668">
        <ele>150.996094</ele>
        <time>2019-08-16T10:01:20Z</time>
      </trkpt>
      <trkpt lat="43.3721" lon="6.68621">
        <ele>165.989075</ele>
        <time>2019-08-16T10:03:11Z</time>
      </trkpt>
      <trkpt lat="43.37235" lon="6.6856">
        <ele>181.778519</ele>
        <time>2019-08-16T10:05:00Z</time>
      </trkpt>
      <trkpt lat="43.37262" lon="6.68543">
        <ele>189.602707</ele>
        <time>2019-08-16T10:07:54Z</time>
      </trkpt>
      <trkpt lat="43.37304" lon="6.68568">
        <ele>191.239746</ele>
        <time>2019-08-16T10:08:16Z</time>
      </trkpt>
      <trkpt lat="43.37349" lon="6.68572">
        <ele>196.904816</ele>
        <time>2019-08-16T10:08:47Z</time>
      </trkpt>
      <trkpt lat="43.37388" lon="6.68602">
        <ele>200.613495</ele>
        <time>2019-08-16T10:09:18Z</time>
      </trkpt>
      <trkpt lat="43.37424" lon="6.68637">
        <ele>201.708755</ele>
        <time>2019-08-16T10:09:48Z</time>
      </trkpt>
      <trkpt lat="43.3747" lon="6.68652">
        <ele>206.134933</ele>
        <time>2019-08-16T10:10:10Z</time>
      </trkpt>
      <trkpt lat="43.37511" lon="6.68674">
        <ele>210.943192</ele>
        <time>2019-08-16T10:10:39Z</time>
      </trkpt>
      <trkpt lat="43.37553" lon="6.68694">
        <ele>215.200821</ele>
        <time>2019-08-16T10:11:10Z</time>
      </trkpt>
      <trkpt lat="43.37597" lon="6.68702">
        <ele>221.562119</ele>
        <time>2019-08-16T10:11:44Z</time>
      </trkpt>
      <trkpt lat="43.37632" lon="6.68745">
        <ele>224.0616</ele>
        <time>2019-08-16T10:12:11Z</time>
      </trkpt>
      <trkpt lat="43.37651" lon="6.6878">
        <ele>225.618729</ele>
        <time>2019-08-16T10:13:30Z</time>
      </trkpt>
      <trkpt lat="43.37672" lon="6.68835">
        <ele>227.161163</ele>
        <time>2019-08-16T10:13:57Z</time>
      </trkpt>
      <trkpt lat="43.37695" lon="6.6889">
        <ele>230.818893</ele>
        <time>2019-08-16T10:14:25Z</time>
      </trkpt>
      <trkpt lat="43.37713" lon="6.68946">
        <ele>232.534592</ele>
        <time>2019-08-16T10:14:50Z</time>
      </trkpt>
      <trkpt lat="43.37724" lon="6.69007">
        <ele>233.160004</ele>
        <time>2019-08-16T10:15:15Z</time>
      </trkpt>
      <trkpt lat="43.3775" lon="6.6906">
        <ele>234.461731</ele>
        <time>2019-08-16T10:15:36Z</time>
      </trkpt>
      <trkpt lat="43.37788" lon="6.69098">
        <ele>236.896774</ele>
        <time>2019-08-16T10:15:54Z</time>
      </trkpt>
      <trkpt lat="43.37811" lon="6.69153">
        <ele>236.332336</ele>
        <time>2019-08-16T10:16:11Z</time>
      </trkpt>
      <trkpt lat="43.37818" lon="6.69215">
        <ele>233.857681</ele>
        <time>2019-08-16T10:16:23Z</time>
      </trkpt>
      <trkpt lat="43.37856" lon="6.69249">
        <ele>234.113953</ele>
        <time>2019-08-16T10:16:40Z</time>
      </trkpt>
      <trkpt lat="43.37902" lon="6.69249">
        <ele>239.132553</ele>
        <time>2019-08-16T10:16:55Z</time>
      </trkpt>
      <trkpt lat="43.37941" lon="6.69288">
        <ele>236.293747</ele>
        <time>2019-08-16T10:17:35Z</time>
      </trkpt>
      <trkpt lat="43.37986" lon="6.69311">
        <ele>234.624069</ele>
        <time>2019-08-16T10:17:43Z</time>
      </trkpt>
      <trkpt lat="43.38031" lon="6.69286">
        <ele>230.62999</ele>
        <time>2019-08-16T10:18:55Z</time>
      </trkpt>
      <trkpt lat="43.38069" lon="6.69241">
        <ele>229.619522</ele>
        <time>2019-08-16T10:19:04Z</time>
      </trkpt>
      <trkpt lat="43.38111" lon="6.69215">
        <ele>229.088028</ele>
        <time>2019-08-16T10:19:16Z</time>
      </trkpt>
      <trkpt lat="43.38153" lon="6.69186">
        <ele>228.816437</ele>
        <time>2019-08-16T10:19:35Z</time>
      </trkpt>
      <trkpt lat="43.38176" lon="6.69131">
        <ele>230.77475</ele>
        <time>2019-08-16T10:20:31Z</time>
      </trkpt>
      <trkpt lat="43.38218" lon="6.69099">
        <ele>226.070343</ele>
        <time>2019-08-16T10:20:42Z</time>
      </trkpt>
      <trkpt lat="43.38262" lon="6.69081">
        <ele>220.944489</ele>
        <time>2019-08-16T10:20:53Z</time>
      </trkpt>
      <trkpt lat="43.38306" lon="6.6908">
        <ele>218.606415</ele>
        <time>2019-08-16T10:21:07Z</time>
      </trkpt>
      <trkpt lat="43.3834" lon="6.6912">
        <ele>214.166702</ele>
        <time>2019-08-16T10:21:18Z</time>
      </trkpt>
      <trkpt lat="43.38364" lon="6.69177">
        <ele>207.519043</ele>
        <time>2019-08-16T10:21:25Z</time>
      </trkpt>
      <trkpt lat="43.38406" lon="6.69173">
        <ele>203.759171</ele>
        <time>2019-08-16T10:21:35Z</time>
      </trkpt>
      <trkpt lat="43.3844" lon="6.69128">
        <ele>204.306274</ele>
        <time>2019-08-16T10:21:43Z</time>
      </trkpt>
      <trkpt lat="43.38482" lon="6.69103">
        <ele>201.746872</ele>
        <time>2019-08-16T10:21:50Z</time>
      </trkpt>
      <trkpt lat="43.38531" lon="6.69091">
        <ele>200.306305</ele>
        <time>2019-08-16T10:21:58Z</time>
      </trkpt>
      <trkpt lat="43.38576" lon="6.6909">
        <ele>201.543106</ele>
        <time>2019-08-16T10:22:16Z</time>
      </trkpt>
      <trkpt lat="43.38622" lon="6.69084">
        <ele>207.040573</ele>
        <time>2019-08-16T10:22:48Z</time>
      </trkpt>
      <trkpt lat="43.38664" lon="6.69105">
        <ele>208.621902</ele>
        <time>2019-08-16T10:23:15Z</time>
      </trkpt>
      <trkpt lat="43.38707" lon="6.69131">
        <ele>210.912598</ele>
        <time>2019-08-16T10:23:34Z</time>
      </trkpt>
      <trkpt lat="43.38745" lon="6.69163">
        <ele>210.632126</ele>
        <time>2019-08-16T10:23:51Z</time>
      </trkpt>
      <trkpt lat="43.38782" lon="6.69204">
        <ele>207.297928</ele>
        <time>2019-08-16T10:24:05Z</time>
      </trkpt>
      <trkpt lat="43.38816" lon="6.69248">
        <ele>199.179993</ele>
        <time>2019-08-16T10:24:18Z</time>
      </trkpt>
      <trkpt lat="43.38855" lon="6.69281">
        <ele>193.304611</ele>
        <time>2019-08-16T10:24:35Z</time>
      </trkpt>
      <trkpt lat="43.38895" lon="6.69308">
        <ele>185.03656</ele>
        <time>2019-08-16T10:24:50Z</time>
      </trkpt>
      <trkpt lat="43.38931" lon="6.69341">
        <ele>177.558746</ele>
        <time>2019-08-16T10:25:07Z</time>
      </trkpt>
      <trkpt lat="43.38955" lon="6.69399">
        <ele>168.191925</ele>
        <time>2019-08-16T10:25:17Z</time>
      </trkpt>
      <trkpt lat="43.38974" lon="6.69454">
        <ele>160.419998</ele>
        <time>2019-08-16T10:25:29Z</time>
      </trkpt>
      <trkpt lat="43.39013" lon="6.69491">
        <ele>155.209839</ele>
        <time>2019-08-16T10:25:38Z</time>
      </trkpt>
      <trkpt lat="43.39051" lon="6.69524">
        <ele>149.062943</ele>
        <time>2019-08-16T10:25:48Z</time>
      </trkpt>
      <trkpt lat="43.3909" lon="6.69554">
        <ele>143.812256</ele>
        <time>2019-08-16T10:26:00Z</time>
      </trkpt>
      <trkpt lat="43.39108" lon="6.69616">
        <ele>136.708908</ele>
        <time>2019-08-16T10:26:12Z</time>
      </trkpt>
      <trkpt lat="43.3912" lon="6.69672">
        <ele>131.099884</ele>
        <time>2019-08-16T10:28:19Z</time>
      </trkpt>
      <trkpt lat="43.39134" lon="6.69734">
        <ele>123.587265</ele>
        <time>2019-08-16T10:28:41Z</time>
      </trkpt>
      <trkpt lat="43.39134" lon="6.69802">
        <ele>114.156128</ele>
        <time>2019-08-16T10:28:48Z</time>
      </trkpt>
      <trkpt lat="43.39153" lon="6.69855">
        <ele>108.586441</ele>
        <time>2019-08-16T10:28:58Z</time>
      </trkpt>
      <trkpt lat="43.39194" lon="6.69888">
        <ele>103.964874</ele>
        <time>2019-08-16T10:29:08Z</time>
      </trkpt>
      <trkpt lat="43.39207" lon="6.69948">
        <ele>100.466972</ele>
        <time>2019-08-16T10:29:16Z</time>
      </trkpt>
      <trkpt lat="43.39244" lon="6.69979">
        <ele>102.38028</ele>
        <time>2019-08-16T10:29:31Z</time>
      </trkpt>
      <trkpt lat="43.3929" lon="6.69983">
        <ele>103.644005</ele>
        <time>2019-08-16T10:29:47Z</time>
      </trkpt>
      <trkpt lat="43.39316" lon="6.70031">
        <ele>102.519829</ele>
        <time>2019-08-16T10:29:57Z</time>
      </trkpt>
      <trkpt lat="43.3932" lon="6.70093">
        <ele>102.73925</ele>
        <time>2019-08-16T10:30:12Z</time>
      </trkpt>
      <trkpt lat="43.39347" lon="6.70141">
        <ele>102.434341</ele>
        <time>2019-08-16T10:30:43Z</time>
      </trkpt>
      <trkpt lat="43.39392" lon="6.70149">
        <ele>102.275002</ele>
        <time>2019-08-16T10:30:59Z</time>
      </trkpt>
      <trkpt lat="43.39438" lon="6.70143">
        <ele>102.621094</ele>
        <time>2019-08-16T10:31:05Z</time>
      </trkpt>
      <trkpt lat="43.39483" lon="6.70149">
        <ele>103.220001</ele>
        <time>2019-08-16T10:31:15Z</time>
      </trkpt>
      <trkpt lat="43.39528" lon="6.70156">
        <ele>104.5</ele>
        <time>2019-08-16T10:31:35Z</time>
      </trkpt>
      <trkpt lat="43.39571" lon="6.70181">
        <ele>103.8125</ele>
        <time>2019-08-16T10:31:54Z</time>
      </trkpt>
      <trkpt lat="43.39615" lon="6.702">
        <ele>103.22863</ele>
        <time>2019-08-16T10:32:08Z</time>
      </trkpt>
      <trkpt lat="43.39662" lon="6.70207">
        <ele>103.351624</ele>
        <time>2019-08-16T10:32:15Z</time>
      </trkpt>
      <trkpt lat="43.39702" lon="6.7024">
        <ele>100.993752</ele>
        <time>2019-08-16T10:32:22Z</time>
      </trkpt>
      <trkpt lat="43.39748" lon="6.70252">
        <ele>100.337502</ele>
        <time>2019-08-16T10:32:34Z</time>
      </trkpt>
      <trkpt lat="43.39795" lon="6.7024">
        <ele>101.293999</ele>
        <time>2019-08-16T10:32:49Z</time>
      </trkpt>
      <trkpt lat="43.39837" lon="6.70214">
        <ele>103.358978</ele>
        <time>2019-08-16T10:33:07Z</time>
      </trkpt>
      <trkpt lat="43.39872" lon="6.70173">
        <ele>102.513496</ele>
        <time>2019-08-16T10:33:23Z</time>
      </trkpt>
      <trkpt lat="43.3991" lon="6.70136">
        <ele>99.771873</ele>
        <time>2019-08-16T10:33:37Z</time>
      </trkpt>
      <trkpt lat="43.39957" lon="6.70122">
        <ele>95.401733</ele>
        <time>2019-08-16T10:33:52Z</time>
      </trkpt>
      <trkpt lat="43.40003" lon="6.70107">
        <ele>88.609848</ele>
        <time>2019-08-16T10:34:01Z</time>
      </trkpt>
      <trkpt lat="43.40048" lon="6.70115">
        <ele>81.953873</ele>
        <time>2019-08-16T10:34:11Z</time>
      </trkpt>
      <trkpt lat="43.40091" lon="6.70111">
        <ele>72.505867</ele>
        <time>2019-08-16T10:34:25Z</time>
      </trkpt>
      <trkpt lat="43.4012" lon="6.70062">
        <ele>68.624428</ele>
        <time>2019-08-16T10:34:31Z</time>
      </trkpt>
      <trkpt lat="43.40151" lon="6.70017">
        <ele>67.273598</ele>
        <time>2019-08-16T10:34:39Z</time>
      </trkpt>
      <trkpt lat="43.40186" lon="6.69978">
        <ele>69.677986</ele>
        <time>2019-08-16T10:34:57Z</time>
      </trkpt>
      <trkpt lat="43.40225" lon="6.69945">
        <ele>75.304001</ele>
        <time>2019-08-16T10:35:28Z</time>
      </trkpt>
      <trkpt lat="43.40265" lon="6.69965">
        <ele>80.288002</ele>
        <time>2019-08-16T10:36:07Z</time>
      </trkpt>
      <trkpt lat="43.403" lon="6.70009">
        <ele>81.535004</ele>
        <time>2019-08-16T10:36:32Z</time>
      </trkpt>
      <trkpt lat="43.40338" lon="6.7004">
        <ele>80.806221</ele>
        <time>2019-08-16T10:37:36Z</time>
      </trkpt>
      <trkpt lat="43.40383" lon="6.70066">
        <ele>80.050888</ele>
        <time>2019-08-16T10:37:50Z</time>
      </trkpt>
      <trkpt lat="43.40431" lon="6.70089">
        <ele>76.50885</ele>
        <time>2019-08-16T10:38:05Z</time>
      </trkpt>
      <trkpt lat="43.4048" lon="6.70105">
        <ele>70.826462</ele>
        <time>2019-08-16T10:38:19Z</time>
      </trkpt>
      <trkpt lat="43.40531" lon="6.70107">
        <ele>66.598389</ele>
        <time>2019-08-16T10:38:25Z</time>
      </trkpt>
      <trkpt lat="43.4058" lon="6.70119">
        <ele>64.932503</ele>
        <time>2019-08-16T10:38:32Z</time>
      </trkpt>
      <trkpt lat="43.40623" lon="6.70135">
        <ele>65.193657</ele>
        <time>2019-08-16T10:38:48Z</time>
      </trkpt>
      <trkpt lat="43.40667" lon="6.70158">
        <ele>64.748993</ele>
        <time>2019-08-16T10:39:02Z</time>
      </trkpt>
      <trkpt lat="43.40713" lon="6.70179">
        <ele>62.912498</ele>
        <time>2019-08-16T10:39:14Z</time>
      </trkpt>
      <trkpt lat="43.4076" lon="6.70211">
        <ele>59.878551</ele>
        <time>2019-08-16T10:39:24Z</time>
      </trkpt>
      <trkpt lat="43.40804" lon="6.70244">
        <ele>58.429668</ele>
        <time>2019-08-16T10:39:32Z</time>
      </trkpt>
      <trkpt lat="43.40853" lon="6.70238">
        <ele>59.547501</ele>
        <time>2019-08-16T10:39:41Z</time>
      </trkpt>
      <trkpt lat="43.40856" lon="6.70235">
        <ele>59.885002</ele>
        <time>2019-08-16T10:40:13Z</time>
      </trkpt>
      <trkpt lat="43.4081" lon="6.70248">
        <ele>58.350998</ele>
        <time>2019-08-16T10:40:39Z</time>
      </trkpt>
      <trkpt lat="43.40788" lon="6.70306">
        <ele>54.599407</ele>
        <time>2019-08-16T10:40:53Z</time>
      </trkpt>
      <trkpt lat="43.40766" lon="6.70365">
        <ele>48.44677</ele>
        <time>2019-08-16T10:41:13Z</time>
      </trkpt>
      <trkpt lat="43.40763" lon="6.70427">
        <ele>41.749802</ele>
        <time>2019-08-16T10:41:32Z</time>
      </trkpt>
      <trkpt lat="43.40749" lon="6.70487">
        <ele>34.823761</ele>
        <time>2019-08-16T10:41:47Z</time>
      </trkpt>
      <trkpt lat="43.40725" lon="6.70542">
        <ele>24.403999</ele>
        <time>2019-08-16T10:42:40Z</time>
      </trkpt>
      <trkpt lat="43.40743" lon="6.70514">
        <ele>29.552631</ele>
        <time>2019-08-16T10:46:58Z</time>
      </trkpt>
      <trkpt lat="43.4076" lon="6.70455">
        <ele>39.420811</ele>
        <time>2019-08-16T10:48:22Z</time>
      </trkpt>
      <trkpt lat="43.40772" lon="6.70392">
        <ele>44.948032</ele>
        <time>2019-08-16T10:49:31Z</time>
      </trkpt>
      <trkpt lat="43.40776" lon="6.70332">
        <ele>51.900726</ele>
        <time>2019-08-16T10:50:41Z</time>
      </trkpt>
      <trkpt lat="43.40798" lon="6.70275">
        <ele>57.345364</ele>
        <time>2019-08-16T10:51:39Z</time>
      </trkpt>
      <trkpt lat="43.4083" lon="6.70241">
        <ele>58.893799</ele>
        <time>2019-08-16T10:52:04Z</time>
      </trkpt>
      <trkpt lat="43.40871" lon="6.70216">
        <ele>60.298187</ele>
        <time>2019-08-16T10:52:23Z</time>
      </trkpt>
      <trkpt lat="43.40899" lon="6.70174">
        <ele>60.897068</ele>
        <time>2019-08-16T10:52:48Z</time>
      </trkpt>
      <trkpt lat="43.40928" lon="6.70175">
        <ele>60.26049</ele>
        <time>2019-08-16T10:53:17Z</time>
      </trkpt>
      <trkpt lat="43.40957" lon="6.70218">
        <ele>59.974525</ele>
        <time>2019-08-16T10:53:35Z</time>
      </trkpt>
      <trkpt lat="43.40986" lon="6.70268">
        <ele>58.908951</ele>
        <time>2019-08-16T10:53:51Z</time>
      </trkpt>
      <trkpt lat="43.41034" lon="6.70283">
        <ele>57.775002</ele>
        <time>2019-08-16T10:53:59Z</time>
      </trkpt>
      <trkpt lat="43.4108" lon="6.70292">
        <ele>56.752499</ele>
        <time>2019-08-16T10:54:11Z</time>
      </trkpt>
      <trkpt lat="43.41099" lon="6.70272">
        <ele>56.352501</ele>
        <time>2019-08-16T10:55:19Z</time>
      </trkpt>
      <trkpt lat="43.41105" lon="6.70205">
        <ele>54.671745</ele>
        <time>2019-08-16T10:55:31Z</time>
      </trkpt>
      <trkpt lat="43.41131" lon="6.70165">
        <ele>53.500301</ele>
        <time>2019-08-16T10:55:45Z</time>
      </trkpt>
      <trkpt lat="43.41171" lon="6.70132">
        <ele>52.796249</ele>
        <time>2019-08-16T10:56:03Z</time>
      </trkpt>
      <trkpt lat="43.41183" lon="6.70068">
        <ele>50.949249</ele>
        <time>2019-08-16T10:56:16Z</time>
      </trkpt>
      <trkpt lat="43.41188" lon="6.7">
        <ele>49.410702</ele>
        <time>2019-08-16T10:56:26Z</time>
      </trkpt>
      <trkpt lat="43.41188" lon="6.69942">
        <ele>46.166641</ele>
        <time>2019-08-16T10:56:41Z</time>
      </trkpt>
      <trkpt lat="43.41162" lon="6.69994">
        <ele>50.908829</ele>
        <time>2019-08-16T10:57:04Z</time>
      </trkpt>
      <trkpt lat="43.41134" lon="6.7005">
        <ele>52.037281</ele>
        <time>2019-08-16T10:57:28Z</time>
      </trkpt>
      <trkpt lat="43.41144" lon="6.7001">
        <ele>49.829376</ele>
        <time>2019-08-16T10:57:57Z</time>
      </trkpt>
      <trkpt lat="43.41152" lon="6.69945">
        <ele>45.810574</ele>
        <time>2019-08-16T10:58:18Z</time>
      </trkpt>
      <trkpt lat="43.41149" lon="6.69882">
        <ele>40.077999</ele>
        <time>2019-08-16T10:58:32Z</time>
      </trkpt>
      <trkpt lat="43.41173" lon="6.6984">
        <ele>32.526924</ele>
        <time>2019-08-16T10:58:44Z</time>
      </trkpt>
      <trkpt lat="43.41126" lon="6.69849">
        <ele>32.862301</ele>
        <time>2019-08-16T10:58:53Z</time>
      </trkpt>
      <trkpt lat="43.41092" lon="6.69893">
        <ele>31.188147</ele>
        <time>2019-08-16T10:58:59Z</time>
      </trkpt>
      <trkpt lat="43.41051" lon="6.69904">
        <ele>25.701563</ele>
        <time>2019-08-16T10:59:07Z</time>
      </trkpt>
      <trkpt lat="43.41071" lon="6.69849">
        <ele>22.237793</ele>
        <time>2019-08-16T10:59:15Z</time>
      </trkpt>
      <trkpt lat="43.41094" lon="6.69793">
        <ele>18.609751</ele>
        <time>2019-08-16T10:59:21Z</time>
      </trkpt>
      <trkpt lat="43.41125" lon="6.69737">
        <ele>14.960938</ele>
        <time>2019-08-16T10:59:28Z</time>
      </trkpt>
      <trkpt lat="43.4115" lon="6.69688">
        <ele>9.392287</ele>
        <time>2019-08-16T10:59:36Z</time>
      </trkpt>
      <trkpt lat="43.41196" lon="6.69697">
        <ele>8.671513</ele>
        <time>2019-08-16T10:59:54Z</time>
      </trkpt>
      <trkpt lat="43.41224" lon="6.69742">
        <ele>8.396462</ele>
        <time>2019-08-16T11:01:07Z</time>
      </trkpt>
      <trkpt lat="43.41239" lon="6.69803">
        <ele>10.28805</ele>
        <time>2019-08-16T11:01:19Z</time>
      </trkpt>
      <trkpt lat="43.41257" lon="6.69866">
        <ele>11.542387</ele>
        <time>2019-08-16T11:01:30Z</time>
      </trkpt>
      <trkpt lat="43.41272" lon="6.69925">
        <ele>11.526406</ele>
        <time>2019-08-16T11:01:40Z</time>
      </trkpt>
      <trkpt lat="43.41286" lon="6.69988">
        <ele>11.113944</ele>
        <time>2019-08-16T11:01:51Z</time>
      </trkpt>
      <trkpt lat="43.41298" lon="6.70048">
        <ele>10.167624</ele>
        <time>2019-08-16T11:02:01Z</time>
      </trkpt>
      <trkpt lat="43.41307" lon="6.70112">
        <ele>10.28375</ele>
        <time>2019-08-16T11:02:13Z</time>
      </trkpt>
      <trkpt lat="43.41331" lon="6.70141">
        <ele>9.6125</ele>
        <time>2019-08-16T11:02:24Z</time>
      </trkpt>
      <trkpt lat="43.41376" lon="6.70136">
        <ele>8.8375</ele>
        <time>2019-08-16T11:02:33Z</time>
      </trkpt>
      <trkpt lat="43.41423" lon="6.70142">
        <ele>8.242866</ele>
        <time>2019-08-16T11:02:42Z</time>
      </trkpt>
      <trkpt lat="43.41474" lon="6.70139">
        <ele>8</ele>
        <time>2019-08-16T11:02:51Z</time>
      </trkpt>
      <trkpt lat="43.41516" lon="6.70162">
        <ele>7.173491</ele>
        <time>2019-08-16T11:03:00Z</time>
      </trkpt>
      <trkpt lat="43.41553" lon="6.70201">
        <ele>7</ele>
        <time>2019-08-16T11:03:08Z</time>
      </trkpt>
      <trkpt lat="43.41591" lon="6.70245">
        <ele>7</ele>
        <time>2019-08-16T11:03:17Z</time>
      </trkpt>
      <trkpt lat="43.41626" lon="6.70292">
        <ele>7</ele>
        <time>2019-08-16T11:03:28Z</time>
      </trkpt>
      <trkpt lat="43.41659" lon="6.70338">
        <ele>7</ele>
        <time>2019-08-16T11:03:38Z</time>
      </trkpt>
      <trkpt lat="43.41701" lon="6.7036">
        <ele>7</ele>
        <time>2019-08-16T11:03:50Z</time>
      </trkpt>
      <trkpt lat="43.41733" lon="6.70315">
        <ele>7</ele>
        <time>2019-08-16T11:04:00Z</time>
      </trkpt>
      <trkpt lat="43.41765" lon="6.7027">
        <ele>7</ele>
        <time>2019-08-16T11:04:10Z</time>
      </trkpt>
      <trkpt lat="43.41812" lon="6.70278">
        <ele>7</ele>
        <time>2019-08-16T11:04:20Z</time>
      </trkpt>
      <trkpt lat="43.41859" lon="6.70301">
        <ele>7</ele>
        <time>2019-08-16T11:04:30Z</time>
      </trkpt>
      <trkpt lat="43.41903" lon="6.70325">
        <ele>7</ele>
        <time>2019-08-16T11:04:39Z</time>
      </trkpt>
      <trkpt lat="43.41946" lon="6.70354">
        <ele>7</ele>
        <time>2019-08-16T11:04:49Z</time>
      </trkpt>
      <trkpt lat="43.41993" lon="6.70378">
        <ele>7</ele>
        <time>2019-08-16T11:04:59Z</time>
      </trkpt>
      <trkpt lat="43.42046" lon="6.70409">
        <ele>7</ele>
        <time>2019-08-16T11:05:09Z</time>
      </trkpt>
      <trkpt lat="43.42088" lon="6.7044">
        <ele>7</ele>
        <time>2019-08-16T11:05:19Z</time>
      </trkpt>
      <trkpt lat="43.42128" lon="6.70469">
        <ele>7</ele>
        <time>2019-08-16T11:05:30Z</time>
      </trkpt>
      <trkpt lat="43.42171" lon="6.70495">
        <ele>7</ele>
        <time>2019-08-16T11:05:42Z</time>
      </trkpt>
      <trkpt lat="43.42212" lon="6.70531">
        <ele>7</ele>
        <time>2019-08-16T11:05:53Z</time>
      </trkpt>
      <trkpt lat="43.42245" lon="6.70579">
        <ele>6.622375</ele>
        <time>2019-08-16T11:06:03Z</time>
      </trkpt>
      <trkpt lat="43.4227" lon="6.70635">
        <ele>6.000844</ele>
        <time>2019-08-16T11:06:13Z</time>
      </trkpt>
      <trkpt lat="43.42285" lon="6.707">
        <ele>6</ele>
        <time>2019-08-16T11:06:23Z</time>
      </trkpt>
      <trkpt lat="43.423" lon="6.70768">
        <ele>6</ele>
        <time>2019-08-16T11:06:32Z</time>
      </trkpt>
      <trkpt lat="43.42306" lon="6.70835">
        <ele>6</ele>
        <time>2019-08-16T11:06:41Z</time>
      </trkpt>
      <trkpt lat="43.42307" lon="6.709">
        <ele>5.93125</ele>
        <time>2019-08-16T11:06:51Z</time>
      </trkpt>
      <trkpt lat="43.4232" lon="6.70968">
        <ele>5</ele>
        <time>2019-08-16T11:07:00Z</time>
      </trkpt>
      <trkpt lat="43.42333" lon="6.71032">
        <ele>5</ele>
        <time>2019-08-16T11:07:08Z</time>
      </trkpt>
      <trkpt lat="43.42344" lon="6.71098">
        <ele>5.065</ele>
        <time>2019-08-16T11:07:17Z</time>
      </trkpt>
      <trkpt lat="43.4236" lon="6.71159">
        <ele>5.371078</ele>
        <time>2019-08-16T11:07:27Z</time>
      </trkpt>
      <trkpt lat="43.42385" lon="6.71217">
        <ele>5.069363</ele>
        <time>2019-08-16T11:07:37Z</time>
      </trkpt>
      <trkpt lat="43.42414" lon="6.71264">
        <ele>5.130669</ele>
        <time>2019-08-16T11:07:48Z</time>
      </trkpt>
      <trkpt lat="43.42445" lon="6.71308">
        <ele>5</ele>
        <time>2019-08-16T11:07:58Z</time>
      </trkpt>
      <trkpt lat="43.42479" lon="6.71355">
        <ele>5</ele>
        <time>2019-08-16T11:08:09Z</time>
      </trkpt>
      <trkpt lat="43.42512" lon="6.71402">
        <ele>5</ele>
        <time>2019-08-16T11:08:19Z</time>
      </trkpt>
      <trkpt lat="43.42546" lon="6.71449">
        <ele>5</ele>
        <time>2019-08-16T11:08:29Z</time>
      </trkpt>
      <trkpt lat="43.42578" lon="6.71499">
        <ele>5</ele>
        <time>2019-08-16T11:08:39Z</time>
      </trkpt>
      <trkpt lat="43.4261" lon="6.7155">
        <ele>5</ele>
        <time>2019-08-16T11:08:48Z</time>
      </trkpt>
      <trkpt lat="43.42638" lon="6.71599">
        <ele>5</ele>
        <time>2019-08-16T11:08:57Z</time>
      </trkpt>
      <trkpt lat="43.42667" lon="6.71651">
        <ele>5</ele>
        <time>2019-08-16T11:09:08Z</time>
      </trkpt>
      <trkpt lat="43.42697" lon="6.71704">
        <ele>5</ele>
        <time>2019-08-16T11:09:18Z</time>
      </trkpt>
      <trkpt lat="43.42725" lon="6.71754">
        <ele>5</ele>
        <time>2019-08-16T11:09:27Z</time>
      </trkpt>
      <trkpt lat="43.42757" lon="6.71799">
        <ele>5</ele>
        <time>2019-08-16T11:09:37Z</time>
      </trkpt>
      <trkpt lat="43.42787" lon="6.71847">
        <ele>5.585</ele>
        <time>2019-08-16T11:09:46Z</time>
      </trkpt>
      <trkpt lat="43.42819" lon="6.71895">
        <ele>6</ele>
        <time>2019-08-16T11:09:57Z</time>
      </trkpt>
      <trkpt lat="43.42851" lon="6.71942">
        <ele>6</ele>
        <time>2019-08-16T11:10:08Z</time>
      </trkpt>
      <trkpt lat="43.42883" lon="6.71986">
        <ele>6</ele>
        <time>2019-08-16T11:10:20Z</time>
      </trkpt>
      <trkpt lat="43.42915" lon="6.72029">
        <ele>6</ele>
        <time>2019-08-16T11:10:32Z</time>
      </trkpt>
      <trkpt lat="43.42956" lon="6.72058">
        <ele>6</ele>
        <time>2019-08-16T11:10:43Z</time>
      </trkpt>
      <trkpt lat="43.43" lon="6.72087">
        <ele>6</ele>
        <time>2019-08-16T11:10:54Z</time>
      </trkpt>
      <trkpt lat="43.43042" lon="6.72115">
        <ele>6</ele>
        <time>2019-08-16T11:11:03Z</time>
      </trkpt>
      <trkpt lat="43.43084" lon="6.72142">
        <ele>6</ele>
        <time>2019-08-16T11:11:12Z</time>
      </trkpt>
      <trkpt lat="43.43125" lon="6.72169">
        <ele>6</ele>
        <time>2019-08-16T11:11:22Z</time>
      </trkpt>
      <trkpt lat="43.43168" lon="6.7219">
        <ele>6</ele>
        <time>2019-08-16T11:11:31Z</time>
      </trkpt>
      <trkpt lat="43.43217" lon="6.72196">
        <ele>6</ele>
        <time>2019-08-16T11:11:39Z</time>
      </trkpt>
      <trkpt lat="43.43266" lon="6.72205">
        <ele>6</ele>
        <time>2019-08-16T11:11:48Z</time>
      </trkpt>
      <trkpt lat="43.43313" lon="6.72209">
        <ele>6</ele>
        <time>2019-08-16T11:11:59Z</time>
      </trkpt>
      <trkpt lat="43.43363" lon="6.72195">
        <ele>6</ele>
        <time>2019-08-16T11:12:09Z</time>
      </trkpt>
      <trkpt lat="43.4341" lon="6.72211">
        <ele>6</ele>
        <time>2019-08-16T11:12:17Z</time>
      </trkpt>
      <trkpt lat="43.43442" lon="6.7226">
        <ele>7.20375</ele>
        <time>2019-08-16T11:12:25Z</time>
      </trkpt>
      <trkpt lat="43.43462" lon="6.72321">
        <ele>8.6475</ele>
        <time>2019-08-16T11:12:35Z</time>
      </trkpt>
      <trkpt lat="43.4347" lon="6.72383">
        <ele>9.64125</ele>
        <time>2019-08-16T11:12:46Z</time>
      </trkpt>
      <trkpt lat="43.43458" lon="6.72448">
        <ele>10.026859</ele>
        <time>2019-08-16T11:12:59Z</time>
      </trkpt>
      <trkpt lat="43.43422" lon="6.72493">
        <ele>10</ele>
        <time>2019-08-16T11:13:11Z</time>
      </trkpt>
      <trkpt lat="43.43375" lon="6.72485">
        <ele>9.215</ele>
        <time>2019-08-16T11:13:20Z</time>
      </trkpt>
      <trkpt lat="43.43327" lon="6.72491">
        <ele>8.15</ele>
        <time>2019-08-16T11:13:29Z</time>
      </trkpt>
      <trkpt lat="43.43292" lon="6.72522">
        <ele>7.490356</ele>
        <time>2019-08-16T11:13:57Z</time>
      </trkpt>
      <trkpt lat="43.43243" lon="6.72506">
        <ele>6.31</ele>
        <time>2019-08-16T11:14:11Z</time>
      </trkpt>
      <trkpt lat="43.43266" lon="6.72537">
        <ele>7.23375</ele>
        <time>2019-08-16T11:16:13Z</time>
      </trkpt>
      <trkpt lat="43.43296" lon="6.72587">
        <ele>8.0945</ele>
        <time>2019-08-16T11:16:27Z</time>
      </trkpt>
      <trkpt lat="43.43309" lon="6.72648">
        <ele>8.915053</ele>
        <time>2019-08-16T11:16:38Z</time>
      </trkpt>
      <trkpt lat="43.43297" lon="6.72712">
        <ele>9</ele>
        <time>2019-08-16T11:16:50Z</time>
      </trkpt>
      <trkpt lat="43.43283" lon="6.72774">
        <ele>9</ele>
        <time>2019-08-16T11:17:02Z</time>
      </trkpt>
      <trkpt lat="43.4327" lon="6.72838">
        <ele>8.74625</ele>
        <time>2019-08-16T11:17:15Z</time>
      </trkpt>
      <trkpt lat="43.43257" lon="6.72899">
        <ele>8.020075</ele>
        <time>2019-08-16T11:17:27Z</time>
      </trkpt>
      <trkpt lat="43.43243" lon="6.72963">
        <ele>7.774672</ele>
        <time>2019-08-16T11:17:39Z</time>
      </trkpt>
      <trkpt lat="43.43199" lon="6.73">
        <ele>8</ele>
        <time>2019-08-16T11:18:27Z</time>
      </trkpt>
      <trkpt lat="43.43153" lon="6.72994">
        <ele>8</ele>
        <time>2019-08-16T11:18:37Z</time>
      </trkpt>
      <trkpt lat="43.43103" lon="6.72986">
        <ele>8</ele>
        <time>2019-08-16T11:18:50Z</time>
      </trkpt>
      <trkpt lat="43.43055" lon="6.72976">
        <ele>7.898225</ele>
        <time>2019-08-16T11:19:02Z</time>
      </trkpt>
      <trkpt lat="43.43018" lon="6.72996">
        <ele>7.778872</ele>
        <time>2019-08-16T11:19:15Z</time>
      </trkpt>
      <trkpt lat="43.43018" lon="6.73064">
        <ele>8</ele>
        <time>2019-08-16T11:19:26Z</time>
      </trkpt>
      <trkpt lat="43.43014" lon="6.73123">
        <ele>8</ele>
        <time>2019-08-16T11:19:37Z</time>
      </trkpt>
      <trkpt lat="43.43019" lon="6.73184">
        <ele>8</ele>
        <time>2019-08-16T11:19:48Z</time>
      </trkpt>
      <trkpt lat="43.43038" lon="6.73246">
        <ele>8</ele>
        <time>2019-08-16T11:20:00Z</time>
      </trkpt>
      <trkpt lat="43.43062" lon="6.73302">
        <ele>8</ele>
        <time>2019-08-16T11:20:12Z</time>
      </trkpt>
      <trkpt lat="43.4304" lon="6.73348">
        <ele>8</ele>
        <time>2019-08-16T11:20:26Z</time>
      </trkpt>
      <trkpt lat="43.42999" lon="6.73382">
        <ele>8.132031</ele>
        <time>2019-08-16T11:20:36Z</time>
      </trkpt>
      <trkpt lat="43.42964" lon="6.73425">
        <ele>9</ele>
        <time>2019-08-16T11:20:47Z</time>
      </trkpt>
      <trkpt lat="43.42921" lon="6.73452">
        <ele>9</ele>
        <time>2019-08-16T11:21:02Z</time>
      </trkpt>
      <trkpt lat="43.42878" lon="6.7343">
        <ele>9</ele>
        <time>2019-08-16T11:21:12Z</time>
      </trkpt>
      <trkpt lat="43.42831" lon="6.73407">
        <ele>9</ele>
        <time>2019-08-16T11:21:23Z</time>
      </trkpt>
      <trkpt lat="43.42785" lon="6.73385">
        <ele>8.9325</ele>
        <time>2019-08-16T11:21:35Z</time>
      </trkpt>
      <trkpt lat="43.42743" lon="6.73363">
        <ele>8</ele>
        <time>2019-08-16T11:21:46Z</time>
      </trkpt>
      <trkpt lat="43.42698" lon="6.7334">
        <ele>8</ele>
        <time>2019-08-16T11:21:57Z</time>
      </trkpt>
      <trkpt lat="43.42651" lon="6.73319">
        <ele>8</ele>
        <time>2019-08-16T11:22:09Z</time>
      </trkpt>
      <trkpt lat="43.42607" lon="6.73291">
        <ele>8</ele>
        <time>2019-08-16T11:22:19Z</time>
      </trkpt>
      <trkpt lat="43.42564" lon="6.7326">
        <ele>8</ele>
        <time>2019-08-16T11:22:31Z</time>
      </trkpt>
      <trkpt lat="43.42522" lon="6.73224">
        <ele>7.97434</ele>
        <time>2019-08-16T11:22:42Z</time>
      </trkpt>
      <trkpt lat="43.42488" lon="6.73176">
        <ele>8</ele>
        <time>2019-08-16T11:22:52Z</time>
      </trkpt>
      <trkpt lat="43.42456" lon="6.73127">
        <ele>7.3775</ele>
        <time>2019-08-16T11:23:04Z</time>
      </trkpt>
      <trkpt lat="43.42424" lon="6.73083">
        <ele>7</ele>
        <time>2019-08-16T11:23:16Z</time>
      </trkpt>
      <trkpt lat="43.42387" lon="6.73109">
        <ele>7</ele>
        <time>2019-08-16T11:23:29Z</time>
      </trkpt>
      <trkpt lat="43.42348" lon="6.73133">
        <ele>7</ele>
        <time>2019-08-16T11:24:02Z</time>
      </trkpt>
      <trkpt lat="43.42312" lon="6.73128">
        <ele>7</ele>
        <time>2019-08-16T11:24:21Z</time>
      </trkpt>
      <trkpt lat="43.42295" lon="6.73181">
        <ele>7</ele>
        <time>2019-08-16T11:24:37Z</time>
      </trkpt>
      <trkpt lat="43.42301" lon="6.73244">
        <ele>7</ele>
        <time>2019-08-16T11:24:50Z</time>
      </trkpt>
      <trkpt lat="43.42268" lon="6.73267">
        <ele>6.693784</ele>
        <time>2019-08-16T11:25:08Z</time>
      </trkpt>
      <trkpt lat="43.42299" lon="6.73318">
        <ele>7</ele>
        <time>2019-08-16T11:25:36Z</time>
      </trkpt>
      <trkpt lat="43.42328" lon="6.73368">
        <ele>7</ele>
        <time>2019-08-16T11:25:47Z</time>
      </trkpt>
      <trkpt lat="43.42358" lon="6.7342">
        <ele>7</ele>
        <time>2019-08-16T11:25:58Z</time>
      </trkpt>
      <trkpt lat="43.4239" lon="6.73472">
        <ele>7</ele>
        <time>2019-08-16T11:26:09Z</time>
      </trkpt>
      <trkpt lat="43.42419" lon="6.73526">
        <ele>7</ele>
        <time>2019-08-16T11:26:20Z</time>
      </trkpt>
      <trkpt lat="43.42452" lon="6.73567">
        <ele>7.064331</ele>
        <time>2019-08-16T11:26:31Z</time>
      </trkpt>
      <trkpt lat="43.42479" lon="6.73619">
        <ele>7.928813</ele>
        <time>2019-08-16T11:26:43Z</time>
      </trkpt>
      <trkpt lat="43.42493" lon="6.73676">
        <ele>8</ele>
        <time>2019-08-16T11:26:55Z</time>
      </trkpt>
      <trkpt lat="43.42456" lon="6.73722">
        <ele>7.376294</ele>
        <time>2019-08-16T11:27:09Z</time>
      </trkpt>
      <trkpt lat="43.42409" lon="6.7374">
        <ele>7</ele>
        <time>2019-08-16T11:27:21Z</time>
      </trkpt>
      <trkpt lat="43.42364" lon="6.73754">
        <ele>7</ele>
        <time>2019-08-16T11:27:33Z</time>
      </trkpt>
      <trkpt lat="43.42317" lon="6.73769">
        <ele>6.928956</ele>
        <time>2019-08-16T11:27:45Z</time>
      </trkpt>
      <trkpt lat="43.42272" lon="6.73784">
        <ele>6.1595</ele>
        <time>2019-08-16T11:27:57Z</time>
      </trkpt>
      <trkpt lat="43.42233" lon="6.73811">
        <ele>6</ele>
        <time>2019-08-16T11:32:40Z</time>
      </trkpt>
      <trkpt lat="43.42188" lon="6.73825">
        <ele>6</ele>
        <time>2019-08-16T11:32:57Z</time>
      </trkpt>
      <trkpt lat="43.42142" lon="6.73846">
        <ele>5.061975</ele>
        <time>2019-08-16T11:33:09Z</time>
      </trkpt>
      <trkpt lat="43.42098" lon="6.73868">
        <ele>5</ele>
        <time>2019-08-16T11:33:20Z</time>
      </trkpt>
      <trkpt lat="43.42057" lon="6.73903">
        <ele>4.987406</ele>
        <time>2019-08-16T11:33:30Z</time>
      </trkpt>
      <trkpt lat="43.42025" lon="6.73949">
        <ele>4.1105</ele>
        <time>2019-08-16T11:33:41Z</time>
      </trkpt>
      <trkpt lat="43.41992" lon="6.73993">
        <ele>4</ele>
        <time>2019-08-16T11:33:53Z</time>
      </trkpt>
      <trkpt lat="43.41957" lon="6.74041">
        <ele>3.615</ele>
        <time>2019-08-16T11:34:06Z</time>
      </trkpt>
      <trkpt lat="43.41924" lon="6.74091">
        <ele>3</ele>
        <time>2019-08-16T11:34:18Z</time>
      </trkpt>
      <trkpt lat="43.41883" lon="6.74124">
        <ele>3</ele>
        <time>2019-08-16T11:34:29Z</time>
      </trkpt>
      <trkpt lat="43.41849" lon="6.74172">
        <ele>2.3108</ele>
        <time>2019-08-16T11:34:41Z</time>
      </trkpt>
      <trkpt lat="43.41813" lon="6.74214">
        <ele>2</ele>
        <time>2019-08-16T11:34:55Z</time>
      </trkpt>
      <trkpt lat="43.41776" lon="6.74259">
        <ele>1.255544</ele>
        <time>2019-08-16T11:35:06Z</time>
      </trkpt>
      <trkpt lat="43.41741" lon="6.743">
        <ele>1</ele>
        <time>2019-08-16T11:35:19Z</time>
      </trkpt>
      <trkpt lat="43.41766" lon="6.74352">
        <ele>1</ele>
        <time>2019-08-16T11:35:37Z</time>
      </trkpt>
      <trkpt lat="43.41766" lon="6.74416">
        <ele>1</ele>
        <time>2019-08-16T11:35:49Z</time>
      </trkpt>
      <trkpt lat="43.41743" lon="6.74466">
        <ele>1</ele>
        <time>2019-08-16T11:36:05Z</time>
      </trkpt>
      <trkpt lat="43.41776" lon="6.7451">
        <ele>0.904238</ele>
        <time>2019-08-16T11:36:21Z</time>
      </trkpt>
      <trkpt lat="43.41807" lon="6.74561">
        <ele>1</ele>
        <time>2019-08-16T11:36:36Z</time>
      </trkpt>
      <trkpt lat="43.4184" lon="6.74605">
        <ele>1</ele>
        <time>2019-08-16T11:36:50Z</time>
      </trkpt>
      <trkpt lat="43.41877" lon="6.74641">
        <ele>0.80875</ele>
        <time>2019-08-16T11:37:03Z</time>
      </trkpt>
      <trkpt lat="43.41912" lon="6.7466">
        <ele>0.8536</ele>
        <time>2019-08-16T11:37:25Z</time>
      </trkpt>
      <trkpt lat="43.41936" lon="6.74713">
        <ele>0.7891</ele>
        <time>2019-08-16T11:37:52Z</time>
      </trkpt>
      <trkpt lat="43.41952" lon="6.74773">
        <ele>0.6825</ele>
        <time>2019-08-16T11:38:10Z</time>
      </trkpt>
      <trkpt lat="43.41991" lon="6.74791">
        <ele>1</ele>
        <time>2019-08-16T11:38:28Z</time>
      </trkpt>
      <trkpt lat="43.42012" lon="6.74731">
        <ele>1</ele>
        <time>2019-08-16T11:38:40Z</time>
      </trkpt>
      <trkpt lat="43.42037" lon="6.74665">
        <ele>1.285016</ele>
        <time>2019-08-16T11:38:51Z</time>
      </trkpt>
      <trkpt lat="43.42067" lon="6.74621">
        <ele>2</ele>
        <time>2019-08-16T11:39:04Z</time>
      </trkpt>
      <trkpt lat="43.42098" lon="6.74578">
        <ele>2</ele>
        <time>2019-08-16T11:39:15Z</time>
      </trkpt>
      <trkpt lat="43.42137" lon="6.74538">
        <ele>2.458716</ele>
        <time>2019-08-16T11:39:26Z</time>
      </trkpt>
      <trkpt lat="43.42175" lon="6.74504">
        <ele>3</ele>
        <time>2019-08-16T11:39:36Z</time>
      </trkpt>
      <trkpt lat="43.42216" lon="6.74471">
        <ele>3</ele>
        <time>2019-08-16T11:39:45Z</time>
      </trkpt>
      <trkpt lat="43.42261" lon="6.74449">
        <ele>3.395</ele>
        <time>2019-08-16T11:39:56Z</time>
      </trkpt>
      <trkpt lat="43.42295" lon="6.74497">
        <ele>3.031469</ele>
        <time>2019-08-16T11:40:08Z</time>
      </trkpt>
      <trkpt lat="43.42319" lon="6.74551">
        <ele>3</ele>
        <time>2019-08-16T11:40:20Z</time>
      </trkpt>
      <trkpt lat="43.42347" lon="6.74605">
        <ele>3</ele>
        <time>2019-08-16T11:40:33Z</time>
      </trkpt>
      <trkpt lat="43.42375" lon="6.74663">
        <ele>3</ele>
        <time>2019-08-16T11:40:44Z</time>
      </trkpt>
      <trkpt lat="43.42401" lon="6.74714">
        <ele>3</ele>
        <time>2019-08-16T11:40:52Z</time>
      </trkpt>
      <trkpt lat="43.42405" lon="6.74772">
        <ele>3</ele>
        <time>2019-08-16T11:41:04Z</time>
      </trkpt>
      <trkpt lat="43.42391" lon="6.74833">
        <ele>2.649925</ele>
        <time>2019-08-16T11:41:16Z</time>
      </trkpt>
      <trkpt lat="43.42368" lon="6.74893">
        <ele>2.0425</ele>
        <time>2019-08-16T11:41:26Z</time>
      </trkpt>
      <trkpt lat="43.42341" lon="6.74946">
        <ele>2</ele>
        <time>2019-08-16T11:41:37Z</time>
      </trkpt>
      <trkpt lat="43.42297" lon="6.74985">
        <ele>1.889663</ele>
        <time>2019-08-16T11:41:48Z</time>
      </trkpt>
      <trkpt lat="43.42257" lon="6.75019">
        <ele>1.111719</ele>
        <time>2019-08-16T11:41:57Z</time>
      </trkpt>
      <trkpt lat="43.42237" lon="6.75075">
        <ele>1</ele>
        <time>2019-08-16T11:42:10Z</time>
      </trkpt>
      <trkpt lat="43.42261" lon="6.75132">
        <ele>1</ele>
        <time>2019-08-16T11:42:22Z</time>
      </trkpt>
      <trkpt lat="43.42287" lon="6.7519">
        <ele>1</ele>
        <time>2019-08-16T11:42:32Z</time>
      </trkpt>
      <trkpt lat="43.42314" lon="6.75246">
        <ele>1.084066</ele>
        <time>2019-08-16T11:42:44Z</time>
      </trkpt>
      <trkpt lat="43.42332" lon="6.75302">
        <ele>1</ele>
        <time>2019-08-16T11:42:56Z</time>
      </trkpt>
      <trkpt lat="43.42289" lon="6.75339">
        <ele>1</ele>
        <time>2019-08-16T11:43:08Z</time>
      </trkpt>
      <trkpt lat="43.42265" lon="6.75376">
        <ele>1</ele>
        <time>2019-08-16T11:43:22Z</time>
      </trkpt>
      <trkpt lat="43.42289" lon="6.75432">
        <ele>1</ele>
        <time>2019-08-16T11:43:34Z</time>
      </trkpt>
      <trkpt lat="43.42313" lon="6.75485">
        <ele>1</ele>
        <time>2019-08-16T11:43:47Z</time>
      </trkpt>
      <trkpt lat="43.42339" lon="6.75542">
        <ele>1</ele>
        <time>2019-08-16T11:43:58Z</time>
      </trkpt>
      <trkpt lat="43.42359" lon="6.75599">
        <ele>1</ele>
        <time>2019-08-16T11:44:08Z</time>
      </trkpt>
      <trkpt lat="43.42368" lon="6.75658">
        <ele>1</ele>
        <time>2019-08-16T11:44:24Z</time>
      </trkpt>
      <trkpt lat="43.42386" lon="6.7572">
        <ele>1</ele>
        <time>2019-08-16T11:44:44Z</time>
      </trkpt>
      <trkpt lat="43.42401" lon="6.75782">
        <ele>1</ele>
        <time>2019-08-16T11:44:54Z</time>
      </trkpt>
      <trkpt lat="43.42415" lon="6.75842">
        <ele>1</ele>
        <time>2019-08-16T11:45:04Z</time>
      </trkpt>
      <trkpt lat="43.42429" lon="6.75903">
        <ele>1</ele>
        <time>2019-08-16T11:45:15Z</time>
      </trkpt>
      <trkpt lat="43.42445" lon="6.75968">
        <ele>1</ele>
        <time>2019-08-16T11:45:27Z</time>
      </trkpt>
      <trkpt lat="43.4246" lon="6.76032">
        <ele>1</ele>
        <time>2019-08-16T11:45:37Z</time>
      </trkpt>
      <trkpt lat="43.4247" lon="6.76092">
        <ele>1</ele>
        <time>2019-08-16T11:45:49Z</time>
      </trkpt>
      <trkpt lat="43.42474" lon="6.76159">
        <ele>1</ele>
        <time>2019-08-16T11:46:00Z</time>
      </trkpt>
      <trkpt lat="43.42465" lon="6.76221">
        <ele>1</ele>
        <time>2019-08-16T11:46:12Z</time>
      </trkpt>
      <trkpt lat="43.42461" lon="6.76285">
        <ele>1</ele>
        <time>2019-08-16T11:46:23Z</time>
      </trkpt>
      <trkpt lat="43.4245" lon="6.7635">
        <ele>1</ele>
        <time>2019-08-16T11:46:35Z</time>
      </trkpt>
      <trkpt lat="43.42434" lon="6.7641">
        <ele>1</ele>
        <time>2019-08-16T11:46:50Z</time>
      </trkpt>
      <trkpt lat="43.42422" lon="6.76456">
        <ele>1</ele>
        <time>2019-08-16T11:47:19Z</time>
      </trkpt>
      <trkpt lat="43.42416" lon="6.76521">
        <ele>0.589875</ele>
        <time>2019-08-16T11:47:32Z</time>
      </trkpt>
      <trkpt lat="43.42399" lon="6.76582">
        <ele>0.981562</ele>
        <time>2019-08-16T11:47:47Z</time>
      </trkpt>
      <trkpt lat="43.4236" lon="6.76612">
        <ele>1.232188</ele>
        <time>2019-08-16T11:48:00Z</time>
      </trkpt>
      <trkpt lat="43.42314" lon="6.76602">
        <ele>1.435</ele>
        <time>2019-08-16T11:48:14Z</time>
      </trkpt>
      <trkpt lat="43.42268" lon="6.76592">
        <ele>1.6025</ele>
        <time>2019-08-16T11:48:30Z</time>
      </trkpt>
      <trkpt lat="43.42257" lon="6.76537">
        <ele>0.964297</ele>
        <time>2019-08-16T11:48:48Z</time>
      </trkpt>
      <trkpt lat="43.42262" lon="6.76493">
        <ele>0.875</ele>
        <time>2019-08-16T11:49:42Z</time>
      </trkpt>
      <trkpt lat="43.42266" lon="6.76432">
        <ele>0.8325</ele>
        <time>2019-08-16T11:50:30Z</time>
      </trkpt>
      <trkpt lat="43.42286" lon="6.76391">
        <ele>0.415</ele>
        <time>2019-08-16T12:29:50Z</time>
      </trkpt>
      <trkpt lat="43.42319" lon="6.76357">
        <ele>0.2825</ele>
        <time>2019-08-16T12:30:51Z</time>
      </trkpt>
      <trkpt lat="43.42329" lon="6.7629">
        <ele>0.147356</ele>
        <time>2019-08-16T12:31:07Z</time>
      </trkpt>
      <trkpt lat="43.42317" lon="6.76226">
        <time>2019-08-16T12:31:21Z</time>
      </trkpt>
      <trkpt lat="43.4228" lon="6.76178">
        <time>2019-08-16T12:31:34Z</time>
      </trkpt>
      <trkpt lat="43.42233" lon="6.76147">
        <time>2019-08-16T12:31:46Z</time>
      </trkpt>
      <trkpt lat="43.42186" lon="6.76123">
        <time>2019-08-16T12:31:56Z</time>
      </trkpt>
      <trkpt lat="43.42142" lon="6.76102">
        <time>2019-08-16T12:32:05Z</time>
      </trkpt>
      <trkpt lat="43.42094" lon="6.76081">
        <time>2019-08-16T12:32:14Z</time>
      </trkpt>
      <trkpt lat="43.42051" lon="6.76052">
        <time>2019-08-16T12:32:22Z</time>
      </trkpt>
      <trkpt lat="43.42005" lon="6.76023">
        <time>2019-08-16T12:32:30Z</time>
      </trkpt>
      <trkpt lat="43.41961" lon="6.75998">
        <time>2019-08-16T12:32:38Z</time>
      </trkpt>
      <trkpt lat="43.41911" lon="6.75973">
        <time>2019-08-16T12:32:46Z</time>
      </trkpt>
      <trkpt lat="43.41865" lon="6.75949">
        <time>2019-08-16T12:32:54Z</time>
      </trkpt>
      <trkpt lat="43.41818" lon="6.75928">
        <time>2019-08-16T12:33:02Z</time>
      </trkpt>
      <trkpt lat="43.4177" lon="6.75906">
        <time>2019-08-16T12:33:10Z</time>
      </trkpt>
      <trkpt lat="43.41722" lon="6.75882">
        <time>2019-08-16T12:33:18Z</time>
      </trkpt>
      <trkpt lat="43.41673" lon="6.75858">
        <time>2019-08-16T12:33:26Z</time>
      </trkpt>
      <trkpt lat="43.41625" lon="6.75837">
        <time>2019-08-16T12:33:34Z</time>
      </trkpt>
      <trkpt lat="43.41577" lon="6.75814">
        <time>2019-08-16T12:33:42Z</time>
      </trkpt>
      <trkpt lat="43.41533" lon="6.75794">
        <time>2019-08-16T12:33:49Z</time>
      </trkpt>
      <trkpt lat="43.41484" lon="6.75771">
        <time>2019-08-16T12:33:57Z</time>
      </trkpt>
      <trkpt lat="43.41436" lon="6.75748">
        <time>2019-08-16T12:34:05Z</time>
      </trkpt>
      <trkpt lat="43.41388" lon="6.75727">
        <time>2019-08-16T12:34:13Z</time>
      </trkpt>
      <trkpt lat="43.41344" lon="6.75707">
        <time>2019-08-16T12:34:20Z</time>
      </trkpt>
      <trkpt lat="43.41296" lon="6.7569">
        <time>2019-08-16T12:34:28Z</time>
      </trkpt>
      <trkpt lat="43.41249" lon="6.7567">
        <time>2019-08-16T12:34:36Z</time>
      </trkpt>
      <trkpt lat="43.41207" lon="6.75652">
        <time>2019-08-16T12:34:43Z</time>
      </trkpt>
      <trkpt lat="43.41156" lon="6.75631">
        <time>2019-08-16T12:34:51Z</time>
      </trkpt>
      <trkpt lat="43.41107" lon="6.75613">
        <time>2019-08-16T12:34:59Z</time>
      </trkpt>
      <trkpt lat="43.4106" lon="6.75597">
        <time>2019-08-16T12:35:07Z</time>
      </trkpt>
      <trkpt lat="43.41015" lon="6.75583">
        <time>2019-08-16T12:35:14Z</time>
      </trkpt>
      <trkpt lat="43.40971" lon="6.75563">
        <time>2019-08-16T12:35:21Z</time>
      </trkpt>
      <trkpt lat="43.40928" lon="6.75543">
        <time>2019-08-16T12:35:28Z</time>
      </trkpt>
      <trkpt lat="43.40879" lon="6.7552">
        <time>2019-08-16T12:35:36Z</time>
      </trkpt>
      <trkpt lat="43.40836" lon="6.75498">
        <time>2019-08-16T12:35:43Z</time>
      </trkpt>
      <trkpt lat="43.40788" lon="6.75478">
        <time>2019-08-16T12:35:51Z</time>
      </trkpt>
      <trkpt lat="43.40745" lon="6.75462">
        <time>2019-08-16T12:35:58Z</time>
      </trkpt>
      <trkpt lat="43.40697" lon="6.75447">
        <time>2019-08-16T12:36:06Z</time>
      </trkpt>
      <trkpt lat="43.40648" lon="6.75431">
        <time>2019-08-16T12:36:14Z</time>
      </trkpt>
      <trkpt lat="43.40597" lon="6.75413">
        <time>2019-08-16T12:36:22Z</time>
      </trkpt>
      <trkpt lat="43.40553" lon="6.75395">
        <time>2019-08-16T12:36:29Z</time>
      </trkpt>
      <trkpt lat="43.40509" lon="6.75374">
        <time>2019-08-16T12:36:36Z</time>
      </trkpt>
      <trkpt lat="43.40469" lon="6.75351">
        <time>2019-08-16T12:36:43Z</time>
      </trkpt>
      <trkpt lat="43.40424" lon="6.75325">
        <time>2019-08-16T12:36:51Z</time>
      </trkpt>
      <trkpt lat="43.40376" lon="6.75301">
        <time>2019-08-16T12:36:59Z</time>
      </trkpt>
      <trkpt lat="43.40332" lon="6.75281">
        <time>2019-08-16T12:37:06Z</time>
      </trkpt>
      <trkpt lat="43.40283" lon="6.75259">
        <time>2019-08-16T12:37:14Z</time>
      </trkpt>
      <trkpt lat="43.40241" lon="6.75236">
        <time>2019-08-16T12:37:21Z</time>
      </trkpt>
      <trkpt lat="43.40195" lon="6.7521">
        <time>2019-08-16T12:37:29Z</time>
      </trkpt>
      <trkpt lat="43.40149" lon="6.75185">
        <time>2019-08-16T12:37:37Z</time>
      </trkpt>
      <trkpt lat="43.40107" lon="6.75159">
        <time>2019-08-16T12:37:44Z</time>
      </trkpt>
      <trkpt lat="43.4006" lon="6.75133">
        <time>2019-08-16T12:37:52Z</time>
      </trkpt>
      <trkpt lat="43.40018" lon="6.75108">
        <time>2019-08-16T12:37:59Z</time>
      </trkpt>
      <trkpt lat="43.39974" lon="6.75082">
        <time>2019-08-16T12:38:07Z</time>
      </trkpt>
      <trkpt lat="43.39924" lon="6.75058">
        <time>2019-08-16T12:38:15Z</time>
      </trkpt>
      <trkpt lat="43.39878" lon="6.7504">
        <time>2019-08-16T12:38:23Z</time>
      </trkpt>
      <trkpt lat="43.39831" lon="6.75027">
        <time>2019-08-16T12:38:30Z</time>
      </trkpt>
      <trkpt lat="43.39784" lon="6.75018">
        <time>2019-08-16T12:38:37Z</time>
      </trkpt>
      <trkpt lat="43.39732" lon="6.75007">
        <time>2019-08-16T12:38:45Z</time>
      </trkpt>
      <trkpt lat="43.39683" lon="6.74991">
        <time>2019-08-16T12:38:53Z</time>
      </trkpt>
      <trkpt lat="43.39636" lon="6.74971">
        <time>2019-08-16T12:39:01Z</time>
      </trkpt>
      <trkpt lat="43.3959" lon="6.74947">
        <time>2019-08-16T12:39:09Z</time>
      </trkpt>
      <trkpt lat="43.39542" lon="6.74918">
        <time>2019-08-16T12:39:17Z</time>
      </trkpt>
      <trkpt lat="43.39496" lon="6.74887">
        <time>2019-08-16T12:39:25Z</time>
      </trkpt>
      <trkpt lat="43.39452" lon="6.74857">
        <time>2019-08-16T12:39:33Z</time>
      </trkpt>
      <trkpt lat="43.39409" lon="6.74824">
        <time>2019-08-16T12:39:41Z</time>
      </trkpt>
      <trkpt lat="43.39366" lon="6.7479">
        <time>2019-08-16T12:39:49Z</time>
      </trkpt>
      <trkpt lat="43.39319" lon="6.7476">
        <time>2019-08-16T12:39:57Z</time>
      </trkpt>
      <trkpt lat="43.39272" lon="6.74733">
        <time>2019-08-16T12:40:05Z</time>
      </trkpt>
      <trkpt lat="43.39224" lon="6.74712">
        <time>2019-08-16T12:40:13Z</time>
      </trkpt>
      <trkpt lat="43.39176" lon="6.74689">
        <time>2019-08-16T12:40:21Z</time>
      </trkpt>
      <trkpt lat="43.39129" lon="6.74668">
        <time>2019-08-16T12:40:29Z</time>
      </trkpt>
      <trkpt lat="43.39082" lon="6.74644">
        <time>2019-08-16T12:40:37Z</time>
      </trkpt>
      <trkpt lat="43.39033" lon="6.74621">
        <time>2019-08-16T12:40:45Z</time>
      </trkpt>
      <trkpt lat="43.38989" lon="6.74599">
        <time>2019-08-16T12:40:53Z</time>
      </trkpt>
      <trkpt lat="43.38941" lon="6.74576">
        <time>2019-08-16T12:41:01Z</time>
      </trkpt>
      <trkpt lat="43.38896" lon="6.74555">
        <time>2019-08-16T12:41:08Z</time>
      </trkpt>
      <trkpt lat="43.38846" lon="6.74529">
        <time>2019-08-16T12:41:16Z</time>
      </trkpt>
      <trkpt lat="43.38797" lon="6.74502">
        <time>2019-08-16T12:41:24Z</time>
      </trkpt>
      <trkpt lat="43.38754" lon="6.74482">
        <time>2019-08-16T12:41:31Z</time>
      </trkpt>
      <trkpt lat="43.38705" lon="6.74462">
        <time>2019-08-16T12:41:39Z</time>
      </trkpt>
      <trkpt lat="43.38656" lon="6.74439">
        <time>2019-08-16T12:41:47Z</time>
      </trkpt>
      <trkpt lat="43.38612" lon="6.7442">
        <time>2019-08-16T12:41:54Z</time>
      </trkpt>
      <trkpt lat="43.38563" lon="6.74402">
        <time>2019-08-16T12:42:02Z</time>
      </trkpt>
      <trkpt lat="43.38514" lon="6.74382">
        <time>2019-08-16T12:42:10Z</time>
      </trkpt>
      <trkpt lat="43.38465" lon="6.74362">
        <time>2019-08-16T12:42:18Z</time>
      </trkpt>
      <trkpt lat="43.38415" lon="6.74342">
        <time>2019-08-16T12:42:26Z</time>
      </trkpt>
      <trkpt lat="43.38367" lon="6.74321">
        <time>2019-08-16T12:42:34Z</time>
      </trkpt>
      <trkpt lat="43.38321" lon="6.74301">
        <time>2019-08-16T12:42:42Z</time>
      </trkpt>
      <trkpt lat="43.38271" lon="6.74283">
        <time>2019-08-16T12:42:50Z</time>
      </trkpt>
      <trkpt lat="43.38222" lon="6.74263">
        <time>2019-08-16T12:42:58Z</time>
      </trkpt>
      <trkpt lat="43.38173" lon="6.74246">
        <time>2019-08-16T12:43:06Z</time>
      </trkpt>
      <trkpt lat="43.38123" lon="6.74228">
        <time>2019-08-16T12:43:14Z</time>
      </trkpt>
      <trkpt lat="43.38077" lon="6.74211">
        <time>2019-08-16T12:43:22Z</time>
      </trkpt>
      <trkpt lat="43.38027" lon="6.74195">
        <time>2019-08-16T12:43:30Z</time>
      </trkpt>
      <trkpt lat="43.37976" lon="6.74179">
        <time>2019-08-16T12:43:38Z</time>
      </trkpt>
      <trkpt lat="43.37927" lon="6.74161">
        <time>2019-08-16T12:43:46Z</time>
      </trkpt>
      <trkpt lat="43.37878" lon="6.74143">
        <time>2019-08-16T12:43:54Z</time>
      </trkpt>
      <trkpt lat="43.3783" lon="6.74123">
        <time>2019-08-16T12:44:02Z</time>
      </trkpt>
      <trkpt lat="43.37783" lon="6.741">
        <time>2019-08-16T12:44:10Z</time>
      </trkpt>
      <trkpt lat="43.37737" lon="6.74077">
        <time>2019-08-16T12:44:18Z</time>
      </trkpt>
      <trkpt lat="43.37692" lon="6.74052">
        <time>2019-08-16T12:44:26Z</time>
      </trkpt>
      <trkpt lat="43.37642" lon="6.74028">
        <time>2019-08-16T12:44:34Z</time>
      </trkpt>
      <trkpt lat="43.37592" lon="6.74005">
        <time>2019-08-16T12:44:42Z</time>
      </trkpt>
      <trkpt lat="43.37543" lon="6.73984">
        <time>2019-08-16T12:44:50Z</time>
      </trkpt>
      <trkpt lat="43.375" lon="6.73965">
        <time>2019-08-16T12:44:57Z</time>
      </trkpt>
      <trkpt lat="43.37452" lon="6.73942">
        <time>2019-08-16T12:45:05Z</time>
      </trkpt>
      <trkpt lat="43.37404" lon="6.73923">
        <time>2019-08-16T12:45:13Z</time>
      </trkpt>
      <trkpt lat="43.37355" lon="6.73907">
        <time>2019-08-16T12:45:21Z</time>
      </trkpt>
      <trkpt lat="43.37305" lon="6.73891">
        <time>2019-08-16T12:45:29Z</time>
      </trkpt>
      <trkpt lat="43.37255" lon="6.73873">
        <time>2019-08-16T12:45:37Z</time>
      </trkpt>
      <trkpt lat="43.37207" lon="6.73858">
        <time>2019-08-16T12:45:45Z</time>
      </trkpt>
      <trkpt lat="43.37158" lon="6.73846">
        <time>2019-08-16T12:45:53Z</time>
      </trkpt>
      <trkpt lat="43.37109" lon="6.73834">
        <time>2019-08-16T12:46:01Z</time>
      </trkpt>
      <trkpt lat="43.3706" lon="6.73823">
        <time>2019-08-16T12:46:09Z</time>
      </trkpt>
      <trkpt lat="43.3701" lon="6.73804">
        <time>2019-08-16T12:46:17Z</time>
      </trkpt>
      <trkpt lat="43.3696" lon="6.73786">
        <time>2019-08-16T12:46:25Z</time>
      </trkpt>
      <trkpt lat="43.36912" lon="6.73763">
        <time>2019-08-16T12:46:33Z</time>
      </trkpt>
      <trkpt lat="43.36868" lon="6.73738">
        <time>2019-08-16T12:46:41Z</time>
      </trkpt>
      <trkpt lat="43.36824" lon="6.73707">
        <time>2019-08-16T12:46:49Z</time>
      </trkpt>
      <trkpt lat="43.36778" lon="6.73678">
        <time>2019-08-16T12:46:57Z</time>
      </trkpt>
      <trkpt lat="43.36729" lon="6.73653">
        <time>2019-08-16T12:47:05Z</time>
      </trkpt>
      <trkpt lat="43.36682" lon="6.7363">
        <time>2019-08-16T12:47:13Z</time>
      </trkpt>
      <trkpt lat="43.36635" lon="6.73605">
        <time>2019-08-16T12:47:21Z</time>
      </trkpt>
      <trkpt lat="43.36591" lon="6.7358">
        <time>2019-08-16T12:47:29Z</time>
      </trkpt>
      <trkpt lat="43.36547" lon="6.73552">
        <time>2019-08-16T12:47:37Z</time>
      </trkpt>
      <trkpt lat="43.365" lon="6.73524">
        <time>2019-08-16T12:47:45Z</time>
      </trkpt>
      <trkpt lat="43.36449" lon="6.73495">
        <time>2019-08-16T12:47:53Z</time>
      </trkpt>
      <trkpt lat="43.36401" lon="6.7347">
        <time>2019-08-16T12:48:01Z</time>
      </trkpt>
      <trkpt lat="43.36353" lon="6.73446">
        <time>2019-08-16T12:48:09Z</time>
      </trkpt>
      <trkpt lat="43.36304" lon="6.73428">
        <time>2019-08-16T12:48:17Z</time>
      </trkpt>
      <trkpt lat="43.36254" lon="6.73409">
        <time>2019-08-16T12:48:25Z</time>
      </trkpt>
      <trkpt lat="43.36205" lon="6.73391">
        <time>2019-08-16T12:48:33Z</time>
      </trkpt>
      <trkpt lat="43.36158" lon="6.73369">
        <time>2019-08-16T12:48:41Z</time>
      </trkpt>
      <trkpt lat="43.36113" lon="6.73343">
        <time>2019-08-16T12:48:49Z</time>
      </trkpt>
      <trkpt lat="43.36068" lon="6.73315">
        <time>2019-08-16T12:48:57Z</time>
      </trkpt>
      <trkpt lat="43.36022" lon="6.73284">
        <time>2019-08-16T12:49:05Z</time>
      </trkpt>
      <trkpt lat="43.35977" lon="6.73252">
        <time>2019-08-16T12:49:13Z</time>
      </trkpt>
      <trkpt lat="43.3593" lon="6.73222">
        <time>2019-08-16T12:49:21Z</time>
      </trkpt>
      <trkpt lat="43.35881" lon="6.73199">
        <time>2019-08-16T12:49:29Z</time>
      </trkpt>
      <trkpt lat="43.35837" lon="6.73176">
        <time>2019-08-16T12:49:36Z</time>
      </trkpt>
      <trkpt lat="43.35791" lon="6.73151">
        <time>2019-08-16T12:49:44Z</time>
      </trkpt>
      <trkpt lat="43.35749" lon="6.73128">
        <time>2019-08-16T12:49:51Z</time>
      </trkpt>
      <trkpt lat="43.35703" lon="6.73105">
        <time>2019-08-16T12:49:59Z</time>
      </trkpt>
      <trkpt lat="43.35656" lon="6.73081">
        <time>2019-08-16T12:50:07Z</time>
      </trkpt>
      <trkpt lat="43.35609" lon="6.73059">
        <time>2019-08-16T12:50:15Z</time>
      </trkpt>
      <trkpt lat="43.3556" lon="6.73036">
        <time>2019-08-16T12:50:23Z</time>
      </trkpt>
      <trkpt lat="43.35513" lon="6.73013">
        <time>2019-08-16T12:50:31Z</time>
      </trkpt>
      <trkpt lat="43.35465" lon="6.72988">
        <time>2019-08-16T12:50:39Z</time>
      </trkpt>
      <trkpt lat="43.35416" lon="6.72963">
        <time>2019-08-16T12:50:47Z</time>
      </trkpt>
      <trkpt lat="43.35372" lon="6.72935">
        <time>2019-08-16T12:50:55Z</time>
      </trkpt>
      <trkpt lat="43.35329" lon="6.72914">
        <time>2019-08-16T12:51:02Z</time>
      </trkpt>
      <trkpt lat="43.35284" lon="6.72886">
        <time>2019-08-16T12:51:10Z</time>
      </trkpt>
      <trkpt lat="43.35239" lon="6.72862">
        <time>2019-08-16T12:51:18Z</time>
      </trkpt>
      <trkpt lat="43.35191" lon="6.72838">
        <time>2019-08-16T12:51:26Z</time>
      </trkpt>
      <trkpt lat="43.35145" lon="6.72814">
        <time>2019-08-16T12:51:34Z</time>
      </trkpt>
      <trkpt lat="43.35103" lon="6.72794">
        <time>2019-08-16T12:51:41Z</time>
      </trkpt>
      <trkpt lat="43.35054" lon="6.72772">
        <time>2019-08-16T12:51:49Z</time>
      </trkpt>
      <trkpt lat="43.35006" lon="6.72743">
        <time>2019-08-16T12:51:57Z</time>
      </trkpt>
      <trkpt lat="43.34961" lon="6.7271">
        <time>2019-08-16T12:52:05Z</time>
      </trkpt>
      <trkpt lat="43.34921" lon="6.72671">
        <time>2019-08-16T12:52:13Z</time>
      </trkpt>
      <trkpt lat="43.3488" lon="6.72632">
        <time>2019-08-16T12:52:21Z</time>
      </trkpt>
      <trkpt lat="43.34842" lon="6.72594">
        <time>2019-08-16T12:52:29Z</time>
      </trkpt>
      <trkpt lat="43.34799" lon="6.72557">
        <time>2019-08-16T12:52:37Z</time>
      </trkpt>
      <trkpt lat="43.34754" lon="6.72524">
        <time>2019-08-16T12:52:45Z</time>
      </trkpt>
      <trkpt lat="43.34707" lon="6.72492">
        <time>2019-08-16T12:52:53Z</time>
      </trkpt>
      <trkpt lat="43.34667" lon="6.72463">
        <time>2019-08-16T12:53:00Z</time>
      </trkpt>
      <trkpt lat="43.34621" lon="6.7243">
        <time>2019-08-16T12:53:08Z</time>
      </trkpt>
      <trkpt lat="43.34577" lon="6.72394">
        <time>2019-08-16T12:53:16Z</time>
      </trkpt>
      <trkpt lat="43.34536" lon="6.72359">
        <time>2019-08-16T12:53:24Z</time>
      </trkpt>
      <trkpt lat="43.34495" lon="6.72321">
        <time>2019-08-16T12:53:32Z</time>
      </trkpt>
      <trkpt lat="43.34457" lon="6.72278">
        <time>2019-08-16T12:53:40Z</time>
      </trkpt>
      <trkpt lat="43.34416" lon="6.72237">
        <time>2019-08-16T12:53:48Z</time>
      </trkpt>
      <trkpt lat="43.3438" lon="6.722">
        <time>2019-08-16T12:53:55Z</time>
      </trkpt>
      <trkpt lat="43.34342" lon="6.72159">
        <time>2019-08-16T12:54:03Z</time>
      </trkpt>
      <trkpt lat="43.34298" lon="6.7212">
        <time>2019-08-16T12:54:11Z</time>
      </trkpt>
      <trkpt lat="43.34255" lon="6.72084">
        <time>2019-08-16T12:54:19Z</time>
      </trkpt>
      <trkpt lat="43.34209" lon="6.72049">
        <time>2019-08-16T12:54:27Z</time>
      </trkpt>
      <trkpt lat="43.34164" lon="6.72014">
        <time>2019-08-16T12:54:35Z</time>
      </trkpt>
      <trkpt lat="43.34122" lon="6.71984">
        <time>2019-08-16T12:54:42Z</time>
      </trkpt>
      <trkpt lat="43.34078" lon="6.71955">
        <time>2019-08-16T12:54:50Z</time>
      </trkpt>
      <trkpt lat="43.34034" lon="6.71928">
        <time>2019-08-16T12:54:58Z</time>
      </trkpt>
      <trkpt lat="43.33987" lon="6.71902">
        <time>2019-08-16T12:55:06Z</time>
      </trkpt>
      <trkpt lat="43.33942" lon="6.71876">
        <time>2019-08-16T12:55:14Z</time>
      </trkpt>
      <trkpt lat="43.33893" lon="6.71854">
        <time>2019-08-16T12:55:22Z</time>
      </trkpt>
      <trkpt lat="43.33846" lon="6.71835">
        <time>2019-08-16T12:55:30Z</time>
      </trkpt>
      <trkpt lat="43.338" lon="6.71806">
        <time>2019-08-16T12:55:38Z</time>
      </trkpt>
      <trkpt lat="43.33752" lon="6.71773">
        <time>2019-08-16T12:55:46Z</time>
      </trkpt>
      <trkpt lat="43.33714" lon="6.71739">
        <time>2019-08-16T12:55:53Z</time>
      </trkpt>
      <trkpt lat="43.33678" lon="6.71695">
        <time>2019-08-16T12:56:01Z</time>
      </trkpt>
      <trkpt lat="43.33646" lon="6.71653">
        <time>2019-08-16T12:56:08Z</time>
      </trkpt>
      <trkpt lat="43.33615" lon="6.7161">
        <time>2019-08-16T12:56:15Z</time>
      </trkpt>
      <trkpt lat="43.33581" lon="6.71567">
        <time>2019-08-16T12:56:22Z</time>
      </trkpt>
      <trkpt lat="43.33543" lon="6.7152">
        <time>2019-08-16T12:56:30Z</time>
      </trkpt>
      <trkpt lat="43.33508" lon="6.71478">
        <time>2019-08-16T12:56:37Z</time>
      </trkpt>
      <trkpt lat="43.33466" lon="6.71439">
        <time>2019-08-16T12:56:45Z</time>
      </trkpt>
      <trkpt lat="43.3342" lon="6.714">
        <time>2019-08-16T12:56:53Z</time>
      </trkpt>
      <trkpt lat="43.33376" lon="6.71364">
        <time>2019-08-16T12:57:01Z</time>
      </trkpt>
      <trkpt lat="43.3333" lon="6.71332">
        <time>2019-08-16T12:57:09Z</time>
      </trkpt>
      <trkpt lat="43.33282" lon="6.71305">
        <time>2019-08-16T12:57:17Z</time>
      </trkpt>
      <trkpt lat="43.3324" lon="6.71285">
        <time>2019-08-16T12:57:24Z</time>
      </trkpt>
      <trkpt lat="43.33193" lon="6.71259">
        <time>2019-08-16T12:57:32Z</time>
      </trkpt>
      <trkpt lat="43.33146" lon="6.71231">
        <time>2019-08-16T12:57:40Z</time>
      </trkpt>
      <trkpt lat="43.33108" lon="6.71199">
        <time>2019-08-16T12:57:47Z</time>
      </trkpt>
      <trkpt lat="43.33069" lon="6.71156">
        <time>2019-08-16T12:57:55Z</time>
      </trkpt>
      <trkpt lat="43.33035" lon="6.71113">
        <time>2019-08-16T12:58:03Z</time>
      </trkpt>
      <trkpt lat="43.32996" lon="6.71067">
        <time>2019-08-16T12:58:11Z</time>
      </trkpt>
      <trkpt lat="43.3295" lon="6.71031">
        <time>2019-08-16T12:58:19Z</time>
      </trkpt>
      <trkpt lat="43.32907" lon="6.70993">
        <time>2019-08-16T12:58:27Z</time>
      </trkpt>
      <trkpt lat="43.32867" lon="6.70965">
        <time>2019-08-16T12:58:34Z</time>
      </trkpt>
      <trkpt lat="43.32824" lon="6.70931">
        <time>2019-08-16T12:58:42Z</time>
      </trkpt>
      <trkpt lat="43.32786" lon="6.70899">
        <time>2019-08-16T12:58:49Z</time>
      </trkpt>
      <trkpt lat="43.32745" lon="6.70854">
        <time>2019-08-16T12:58:57Z</time>
      </trkpt>
      <trkpt lat="43.32709" lon="6.70816">
        <time>2019-08-16T12:59:04Z</time>
      </trkpt>
      <trkpt lat="43.32672" lon="6.70769">
        <time>2019-08-16T12:59:12Z</time>
      </trkpt>
      <trkpt lat="43.32634" lon="6.70724">
        <time>2019-08-16T12:59:20Z</time>
      </trkpt>
      <trkpt lat="43.32595" lon="6.7068">
        <time>2019-08-16T12:59:28Z</time>
      </trkpt>
      <trkpt lat="43.32555" lon="6.70635">
        <time>2019-08-16T12:59:36Z</time>
      </trkpt>
      <trkpt lat="43.32522" lon="6.70597">
        <time>2019-08-16T12:59:43Z</time>
      </trkpt>
      <trkpt lat="43.32476" lon="6.70556">
        <time>2019-08-16T12:59:51Z</time>
      </trkpt>
      <trkpt lat="43.32434" lon="6.70518">
        <time>2019-08-16T12:59:59Z</time>
      </trkpt>
      <trkpt lat="43.32393" lon="6.70489">
        <time>2019-08-16T13:00:06Z</time>
      </trkpt>
      <trkpt lat="43.3235" lon="6.70452">
        <time>2019-08-16T13:00:14Z</time>
      </trkpt>
      <trkpt lat="43.32313" lon="6.70412">
        <time>2019-08-16T13:00:22Z</time>
      </trkpt>
      <trkpt lat="43.32276" lon="6.70377">
        <time>2019-08-16T13:00:29Z</time>
      </trkpt>
      <trkpt lat="43.32232" lon="6.70342">
        <time>2019-08-16T13:00:37Z</time>
      </trkpt>
      <trkpt lat="43.3219" lon="6.70313">
        <time>2019-08-16T13:00:44Z</time>
      </trkpt>
      <trkpt lat="43.32144" lon="6.70281">
        <time>2019-08-16T13:00:52Z</time>
      </trkpt>
      <trkpt lat="43.32103" lon="6.70252">
        <time>2019-08-16T13:00:59Z</time>
      </trkpt>
      <trkpt lat="43.3206" lon="6.70218">
        <time>2019-08-16T13:01:07Z</time>
      </trkpt>
      <trkpt lat="43.32018" lon="6.70183">
        <time>2019-08-16T13:01:15Z</time>
      </trkpt>
      <trkpt lat="43.31979" lon="6.70145">
        <time>2019-08-16T13:01:23Z</time>
      </trkpt>
      <trkpt lat="43.31942" lon="6.7011">
        <time>2019-08-16T13:01:30Z</time>
      </trkpt>
      <trkpt lat="43.31901" lon="6.7007">
        <time>2019-08-16T13:01:38Z</time>
      </trkpt>
      <trkpt lat="43.31862" lon="6.70033">
        <time>2019-08-16T13:01:45Z</time>
      </trkpt>
      <trkpt lat="43.31819" lon="6.69991">
        <time>2019-08-16T13:01:53Z</time>
      </trkpt>
      <trkpt lat="43.3178" lon="6.69959">
        <time>2019-08-16T13:02:00Z</time>
      </trkpt>
      <trkpt lat="43.31736" lon="6.69922">
        <time>2019-08-16T13:02:08Z</time>
      </trkpt>
      <trkpt lat="43.31694" lon="6.69883">
        <time>2019-08-16T13:02:16Z</time>
      </trkpt>
      <trkpt lat="43.31652" lon="6.69847">
        <time>2019-08-16T13:02:24Z</time>
      </trkpt>
      <trkpt lat="43.3161" lon="6.69813">
        <time>2019-08-16T13:02:31Z</time>
      </trkpt>
      <trkpt lat="43.31566" lon="6.69778">
        <time>2019-08-16T13:02:39Z</time>
      </trkpt>
      <trkpt lat="43.31522" lon="6.69742">
        <time>2019-08-16T13:02:47Z</time>
      </trkpt>
      <trkpt lat="43.31485" lon="6.69707">
        <time>2019-08-16T13:02:55Z</time>
      </trkpt>
      <trkpt lat="43.31443" lon="6.69668">
        <time>2019-08-16T13:03:03Z</time>
      </trkpt>
      <trkpt lat="43.31406" lon="6.69634">
        <time>2019-08-16T13:03:10Z</time>
      </trkpt>
      <trkpt lat="43.31361" lon="6.69594">
        <time>2019-08-16T13:03:18Z</time>
      </trkpt>
      <trkpt lat="43.31323" lon="6.69558">
        <time>2019-08-16T13:03:25Z</time>
      </trkpt>
      <trkpt lat="43.31286" lon="6.69519">
        <time>2019-08-16T13:03:33Z</time>
      </trkpt>
      <trkpt lat="43.31248" lon="6.69481">
        <time>2019-08-16T13:03:41Z</time>
      </trkpt>
      <trkpt lat="43.31205" lon="6.69438">
        <time>2019-08-16T13:03:49Z</time>
      </trkpt>
      <trkpt lat="43.31164" lon="6.69397">
        <time>2019-08-16T13:03:57Z</time>
      </trkpt>
      <trkpt lat="43.31125" lon="6.6936">
        <time>2019-08-16T13:04:04Z</time>
      </trkpt>
      <trkpt lat="43.31089" lon="6.69322">
        <time>2019-08-16T13:04:11Z</time>
      </trkpt>
      <trkpt lat="43.31053" lon="6.69278">
        <time>2019-08-16T13:04:19Z</time>
      </trkpt>
      <trkpt lat="43.31018" lon="6.69228">
        <time>2019-08-16T13:04:27Z</time>
      </trkpt>
      <trkpt lat="43.30981" lon="6.69178">
        <time>2019-08-16T13:04:35Z</time>
      </trkpt>
      <trkpt lat="43.30947" lon="6.69125">
        <time>2019-08-16T13:04:43Z</time>
      </trkpt>
      <trkpt lat="43.30915" lon="6.69074">
        <time>2019-08-16T13:04:51Z</time>
      </trkpt>
      <trkpt lat="43.30882" lon="6.69027">
        <time>2019-08-16T13:04:58Z</time>
      </trkpt>
      <trkpt lat="43.30853" lon="6.68979">
        <time>2019-08-16T13:05:05Z</time>
      </trkpt>
      <trkpt lat="43.30822" lon="6.68923">
        <time>2019-08-16T13:05:13Z</time>
      </trkpt>
      <trkpt lat="43.30792" lon="6.68869">
        <time>2019-08-16T13:05:21Z</time>
      </trkpt>
      <trkpt lat="43.30763" lon="6.68812">
        <time>2019-08-16T13:05:29Z</time>
      </trkpt>
      <trkpt lat="43.30737" lon="6.68757">
        <time>2019-08-16T13:05:36Z</time>
      </trkpt>
      <trkpt lat="43.30715" lon="6.68703">
        <time>2019-08-16T13:05:43Z</time>
      </trkpt>
      <trkpt lat="43.30689" lon="6.68652">
        <time>2019-08-16T13:05:50Z</time>
      </trkpt>
      <trkpt lat="43.30664" lon="6.686">
        <time>2019-08-16T13:05:57Z</time>
      </trkpt>
      <trkpt lat="43.30638" lon="6.6854">
        <time>2019-08-16T13:06:05Z</time>
      </trkpt>
      <trkpt lat="43.30612" lon="6.68487">
        <time>2019-08-16T13:06:12Z</time>
      </trkpt>
      <trkpt lat="43.30588" lon="6.68431">
        <time>2019-08-16T13:06:19Z</time>
      </trkpt>
      <trkpt lat="43.30563" lon="6.68377">
        <time>2019-08-16T13:06:26Z</time>
      </trkpt>
      <trkpt lat="43.30537" lon="6.68321">
        <time>2019-08-16T13:06:34Z</time>
      </trkpt>
      <trkpt lat="43.30507" lon="6.68269">
        <time>2019-08-16T13:06:42Z</time>
      </trkpt>
      <trkpt lat="43.30471" lon="6.68215">
        <time>2019-08-16T13:06:50Z</time>
      </trkpt>
      <trkpt lat="43.30438" lon="6.68165">
        <time>2019-08-16T13:06:57Z</time>
      </trkpt>
      <trkpt lat="43.30404" lon="6.68112">
        <time>2019-08-16T13:07:05Z</time>
      </trkpt>
      <trkpt lat="43.30371" lon="6.68054">
        <time>2019-08-16T13:07:13Z</time>
      </trkpt>
      <trkpt lat="43.30344" lon="6.68005">
        <time>2019-08-16T13:07:20Z</time>
      </trkpt>
      <trkpt lat="43.3031" lon="6.67949">
        <time>2019-08-16T13:07:28Z</time>
      </trkpt>
      <trkpt lat="43.30283" lon="6.67896">
        <time>2019-08-16T13:07:36Z</time>
      </trkpt>
      <trkpt lat="43.30255" lon="6.67842">
        <time>2019-08-16T13:07:44Z</time>
      </trkpt>
      <trkpt lat="43.30224" lon="6.67787">
        <time>2019-08-16T13:07:52Z</time>
      </trkpt>
      <trkpt lat="43.30191" lon="6.67734">
        <time>2019-08-16T13:08:00Z</time>
      </trkpt>
      <trkpt lat="43.3016" lon="6.67683">
        <time>2019-08-16T13:08:07Z</time>
      </trkpt>
      <trkpt lat="43.30129" lon="6.67634">
        <time>2019-08-16T13:08:15Z</time>
      </trkpt>
      <trkpt lat="43.30094" lon="6.67579">
        <time>2019-08-16T13:08:23Z</time>
      </trkpt>
      <trkpt lat="43.30064" lon="6.67527">
        <time>2019-08-16T13:08:31Z</time>
      </trkpt>
      <trkpt lat="43.30033" lon="6.6747">
        <time>2019-08-16T13:08:39Z</time>
      </trkpt>
      <trkpt lat="43.30011" lon="6.67414">
        <time>2019-08-16T13:08:47Z</time>
      </trkpt>
      <trkpt lat="43.29982" lon="6.67353">
        <time>2019-08-16T13:08:55Z</time>
      </trkpt>
      <trkpt lat="43.29955" lon="6.67296">
        <time>2019-08-16T13:09:03Z</time>
      </trkpt>
      <trkpt lat="43.29925" lon="6.67244">
        <time>2019-08-16T13:09:10Z</time>
      </trkpt>
      <trkpt lat="43.29895" lon="6.67193">
        <time>2019-08-16T13:09:17Z</time>
      </trkpt>
      <trkpt lat="43.29871" lon="6.67141">
        <time>2019-08-16T13:09:24Z</time>
      </trkpt>
      <trkpt lat="43.29846" lon="6.67087">
        <time>2019-08-16T13:09:31Z</time>
      </trkpt>
      <trkpt lat="43.29823" lon="6.6703">
        <time>2019-08-16T13:09:39Z</time>
      </trkpt>
      <trkpt lat="43.29796" lon="6.66972">
        <time>2019-08-16T13:09:47Z</time>
      </trkpt>
      <trkpt lat="43.29768" lon="6.66921">
        <time>2019-08-16T13:09:54Z</time>
      </trkpt>
      <trkpt lat="43.2974" lon="6.66864">
        <time>2019-08-16T13:10:02Z</time>
      </trkpt>
      <trkpt lat="43.29715" lon="6.66812">
        <time>2019-08-16T13:10:09Z</time>
      </trkpt>
      <trkpt lat="43.29686" lon="6.66758">
        <time>2019-08-16T13:10:16Z</time>
      </trkpt>
      <trkpt lat="43.2966" lon="6.66703">
        <time>2019-08-16T13:10:23Z</time>
      </trkpt>
      <trkpt lat="43.29639" lon="6.6665">
        <time>2019-08-16T13:10:30Z</time>
      </trkpt>
      <trkpt lat="43.29616" lon="6.66591">
        <time>2019-08-16T13:10:38Z</time>
      </trkpt>
      <trkpt lat="43.2959" lon="6.66538">
        <time>2019-08-16T13:10:45Z</time>
      </trkpt>
      <trkpt lat="43.29562" lon="6.66479">
        <time>2019-08-16T13:10:53Z</time>
      </trkpt>
      <trkpt lat="43.29534" lon="6.66423">
        <time>2019-08-16T13:11:01Z</time>
      </trkpt>
      <trkpt lat="43.29502" lon="6.66366">
        <time>2019-08-16T13:11:09Z</time>
      </trkpt>
      <trkpt lat="43.2947" lon="6.66316">
        <time>2019-08-16T13:11:16Z</time>
      </trkpt>
      <trkpt lat="43.29442" lon="6.66267">
        <time>2019-08-16T13:11:23Z</time>
      </trkpt>
      <trkpt lat="43.29414" lon="6.66215">
        <time>2019-08-16T13:11:30Z</time>
      </trkpt>
      <trkpt lat="43.2939" lon="6.66163">
        <time>2019-08-16T13:11:37Z</time>
      </trkpt>
      <trkpt lat="43.29372" lon="6.66109">
        <time>2019-08-16T13:11:45Z</time>
      </trkpt>
      <trkpt lat="43.2935" lon="6.66055">
        <time>2019-08-16T13:11:52Z</time>
      </trkpt>
      <trkpt lat="43.29322" lon="6.65998">
        <time>2019-08-16T13:12:00Z</time>
      </trkpt>
      <trkpt lat="43.29292" lon="6.65942">
        <time>2019-08-16T13:12:08Z</time>
      </trkpt>
      <trkpt lat="43.29261" lon="6.65887">
        <time>2019-08-16T13:12:15Z</time>
      </trkpt>
      <trkpt lat="43.29239" lon="6.65835">
        <time>2019-08-16T13:12:22Z</time>
      </trkpt>
      <trkpt lat="43.29212" lon="6.65773">
        <time>2019-08-16T13:12:30Z</time>
      </trkpt>
      <trkpt lat="43.29187" lon="6.65721">
        <time>2019-08-16T13:12:37Z</time>
      </trkpt>
      <trkpt lat="43.29164" lon="6.65665">
        <time>2019-08-16T13:12:44Z</time>
      </trkpt>
      <trkpt lat="43.29145" lon="6.65606">
        <time>2019-08-16T13:12:51Z</time>
      </trkpt>
      <trkpt lat="43.29123" lon="6.65543">
        <time>2019-08-16T13:12:59Z</time>
      </trkpt>
      <trkpt lat="43.291" lon="6.65485">
        <time>2019-08-16T13:13:07Z</time>
      </trkpt>
      <trkpt lat="43.29073" lon="6.65431">
        <time>2019-08-16T13:13:14Z</time>
      </trkpt>
      <trkpt lat="43.29039" lon="6.65378">
        <time>2019-08-16T13:13:22Z</time>
      </trkpt>
      <trkpt lat="43.29007" lon="6.65329">
        <time>2019-08-16T13:13:29Z</time>
      </trkpt>
      <trkpt lat="43.28976" lon="6.65278">
        <time>2019-08-16T13:13:37Z</time>
      </trkpt>
      <trkpt lat="43.28946" lon="6.65229">
        <time>2019-08-16T13:13:44Z</time>
      </trkpt>
      <trkpt lat="43.28916" lon="6.65179">
        <time>2019-08-16T13:13:51Z</time>
      </trkpt>
      <trkpt lat="43.28886" lon="6.6513">
        <time>2019-08-16T13:13:58Z</time>
      </trkpt>
      <trkpt lat="43.28856" lon="6.65081">
        <time>2019-08-16T13:14:05Z</time>
      </trkpt>
      <trkpt lat="43.28825" lon="6.6504">
        <time>2019-08-16T13:14:12Z</time>
      </trkpt>
      <trkpt lat="43.28794" lon="6.64994">
        <time>2019-08-16T13:14:19Z</time>
      </trkpt>
      <trkpt lat="43.28759" lon="6.6494">
        <time>2019-08-16T13:14:27Z</time>
      </trkpt>
      <trkpt lat="43.2873" lon="6.64893">
        <time>2019-08-16T13:14:34Z</time>
      </trkpt>
      <trkpt lat="43.28699" lon="6.6484">
        <time>2019-08-16T13:14:42Z</time>
      </trkpt>
      <trkpt lat="43.28671" lon="6.64792">
        <time>2019-08-16T13:14:49Z</time>
      </trkpt>
      <trkpt lat="43.28637" lon="6.64743">
        <time>2019-08-16T13:14:57Z</time>
      </trkpt>
      <trkpt lat="43.28609" lon="6.64698">
        <time>2019-08-16T13:15:04Z</time>
      </trkpt>
      <trkpt lat="43.28575" lon="6.6465">
        <time>2019-08-16T13:15:11Z</time>
      </trkpt>
      <trkpt lat="43.28541" lon="6.64604">
        <time>2019-08-16T13:15:18Z</time>
      </trkpt>
      <trkpt lat="43.28505" lon="6.64551">
        <time>2019-08-16T13:15:26Z</time>
      </trkpt>
      <trkpt lat="43.28477" lon="6.64505">
        <time>2019-08-16T13:15:33Z</time>
      </trkpt>
      <trkpt lat="43.28452" lon="6.64454">
        <time>2019-08-16T13:15:40Z</time>
      </trkpt>
      <trkpt lat="43.28429" lon="6.64399">
        <time>2019-08-16T13:15:48Z</time>
      </trkpt>
      <trkpt lat="43.28406" lon="6.64348">
        <time>2019-08-16T13:15:55Z</time>
      </trkpt>
      <trkpt lat="43.28376" lon="6.64298">
        <time>2019-08-16T13:16:02Z</time>
      </trkpt>
      <trkpt lat="43.28342" lon="6.64243">
        <time>2019-08-16T13:16:10Z</time>
      </trkpt>
      <trkpt lat="43.28309" lon="6.64199">
        <time>2019-08-16T13:16:17Z</time>
      </trkpt>
      <trkpt lat="43.28275" lon="6.6416">
        <time>2019-08-16T13:16:24Z</time>
      </trkpt>
      <trkpt lat="43.28236" lon="6.64114">
        <time>2019-08-16T13:16:32Z</time>
      </trkpt>
      <trkpt lat="43.28196" lon="6.64068">
        <time>2019-08-16T13:16:40Z</time>
      </trkpt>
      <trkpt lat="43.28161" lon="6.64024">
        <time>2019-08-16T13:16:48Z</time>
      </trkpt>
      <trkpt lat="43.28126" lon="6.6398">
        <time>2019-08-16T13:16:55Z</time>
      </trkpt>
      <trkpt lat="43.28094" lon="6.6393">
        <time>2019-08-16T13:17:02Z</time>
      </trkpt>
      <trkpt lat="43.28061" lon="6.63875">
        <time>2019-08-16T13:17:10Z</time>
      </trkpt>
      <trkpt lat="43.28036" lon="6.63825">
        <time>2019-08-16T13:17:17Z</time>
      </trkpt>
      <trkpt lat="43.2801" lon="6.63769">
        <time>2019-08-16T13:17:25Z</time>
      </trkpt>
      <trkpt lat="43.27982" lon="6.63712">
        <time>2019-08-16T13:17:33Z</time>
      </trkpt>
      <trkpt lat="43.27957" lon="6.63653">
        <time>2019-08-16T13:17:41Z</time>
      </trkpt>
      <trkpt lat="43.27931" lon="6.63594">
        <time>2019-08-16T13:17:49Z</time>
      </trkpt>
      <trkpt lat="43.27903" lon="6.63541">
        <time>2019-08-16T13:17:56Z</time>
      </trkpt>
      <trkpt lat="43.27877" lon="6.63488">
        <time>2019-08-16T13:18:03Z</time>
      </trkpt>
      <trkpt lat="43.27848" lon="6.63428">
        <time>2019-08-16T13:18:11Z</time>
      </trkpt>
      <trkpt lat="43.27824" lon="6.63374">
        <time>2019-08-16T13:18:18Z</time>
      </trkpt>
      <trkpt lat="43.278" lon="6.63321">
        <time>2019-08-16T13:18:25Z</time>
      </trkpt>
      <trkpt lat="43.27775" lon="6.63263">
        <time>2019-08-16T13:18:33Z</time>
      </trkpt>
      <trkpt lat="43.27748" lon="6.63206">
        <time>2019-08-16T13:18:41Z</time>
      </trkpt>
      <trkpt lat="43.2772" lon="6.63149">
        <time>2019-08-16T13:18:49Z</time>
      </trkpt>
      <trkpt lat="43.27681" lon="6.631">
        <time>2019-08-16T13:18:57Z</time>
      </trkpt>
      <trkpt lat="43.27645" lon="6.63058">
        <time>2019-08-16T13:19:04Z</time>
      </trkpt>
      <trkpt lat="43.27604" lon="6.6302">
        <time>2019-08-16T13:19:11Z</time>
      </trkpt>
      <trkpt lat="43.27561" lon="6.62995">
        <time>2019-08-16T13:19:18Z</time>
      </trkpt>
      <trkpt lat="43.27513" lon="6.62977">
        <time>2019-08-16T13:19:26Z</time>
      </trkpt>
      <trkpt lat="43.27468" lon="6.62971">
        <time>2019-08-16T13:19:34Z</time>
      </trkpt>
      <trkpt lat="43.27418" lon="6.62974">
        <time>2019-08-16T13:19:42Z</time>
      </trkpt>
      <trkpt lat="43.27372" lon="6.62974">
        <time>2019-08-16T13:19:50Z</time>
      </trkpt>
      <trkpt lat="43.2732" lon="6.62972">
        <time>2019-08-16T13:19:59Z</time>
      </trkpt>
      <trkpt lat="43.27271" lon="6.62975">
        <time>2019-08-16T13:20:09Z</time>
      </trkpt>
      <trkpt lat="43.27222" lon="6.62982">
        <time>2019-08-16T13:20:20Z</time>
      </trkpt>
      <trkpt lat="43.27176" lon="6.63001">
        <time>2019-08-16T13:20:31Z</time>
      </trkpt>
      <trkpt lat="43.27138" lon="6.63033">
        <time>2019-08-16T13:20:42Z</time>
      </trkpt>
      <trkpt lat="43.27101" lon="6.63075">
        <time>2019-08-16T13:20:53Z</time>
      </trkpt>
      <trkpt lat="43.27074" lon="6.63126">
        <time>2019-08-16T13:21:06Z</time>
      </trkpt>
      <trkpt lat="43.27051" lon="6.63181">
        <ele>2</ele>
        <time>2019-08-16T13:21:23Z</time>
      </trkpt>
      <trkpt lat="43.27034" lon="6.6324">
        <ele>0.448959</ele>
        <time>2019-08-16T13:21:49Z</time>
      </trkpt>
      <trkpt lat="43.27039" lon="6.63308">
        <ele>0.990856</ele>
        <time>2019-08-16T13:28:45Z</time>
      </trkpt>
      <trkpt lat="43.27021" lon="6.63361">
        <ele>1</ele>
        <time>2019-08-16T13:29:03Z</time>
      </trkpt>
      <trkpt lat="43.26993" lon="6.63406">
        <ele>1</ele>
        <time>2019-08-16T13:29:19Z</time>
      </trkpt>
      <trkpt lat="43.26957" lon="6.63445">
        <ele>2.455844</ele>
        <time>2019-08-16T13:29:37Z</time>
      </trkpt>
      <trkpt lat="43.26925" lon="6.63426">
        <ele>3.185</ele>
        <time>2019-08-16T13:30:00Z</time>
      </trkpt>
      <trkpt lat="43.26893" lon="6.63375">
        <ele>3.175356</ele>
        <time>2019-08-16T13:30:15Z</time>
      </trkpt>
      <trkpt lat="43.26868" lon="6.63322">
        <ele>3.672897</ele>
        <time>2019-08-16T13:30:28Z</time>
      </trkpt>
      <trkpt lat="43.26842" lon="6.63266">
        <ele>3.66</ele>
        <time>2019-08-16T13:30:39Z</time>
      </trkpt>
      <trkpt lat="43.26817" lon="6.63209">
        <ele>3.3775</ele>
        <time>2019-08-16T13:30:50Z</time>
      </trkpt>
      <trkpt lat="43.26794" lon="6.63152">
        <ele>3.06625</ele>
        <time>2019-08-16T13:31:02Z</time>
      </trkpt>
      <trkpt lat="43.26772" lon="6.63091">
        <ele>2.63375</ele>
        <time>2019-08-16T13:31:12Z</time>
      </trkpt>
      <trkpt lat="43.26753" lon="6.63032">
        <ele>2.185</ele>
        <time>2019-08-16T13:31:23Z</time>
      </trkpt>
      <trkpt lat="43.26734" lon="6.62975">
        <ele>1.7475</ele>
        <time>2019-08-16T13:31:33Z</time>
      </trkpt>
      <trkpt lat="43.2671" lon="6.62916">
        <ele>1.69</ele>
        <time>2019-08-16T13:31:43Z</time>
      </trkpt>
      <trkpt lat="43.26696" lon="6.62856">
        <ele>2.135</ele>
        <time>2019-08-16T13:31:55Z</time>
      </trkpt>
      <trkpt lat="43.26683" lon="6.62794">
        <ele>2.83</ele>
        <time>2019-08-16T13:32:05Z</time>
      </trkpt>
      <trkpt lat="43.26668" lon="6.62732">
        <ele>3.520013</ele>
        <time>2019-08-16T13:32:14Z</time>
      </trkpt>
      <trkpt lat="43.26654" lon="6.6267">
        <ele>4.0925</ele>
        <time>2019-08-16T13:32:26Z</time>
      </trkpt>
      <trkpt lat="43.26621" lon="6.62619">
        <ele>4.873091</ele>
        <time>2019-08-16T13:32:39Z</time>
      </trkpt>
      <trkpt lat="43.26586" lon="6.62578">
        <ele>4.47</ele>
        <time>2019-08-16T13:32:54Z</time>
      </trkpt>
      <trkpt lat="43.26552" lon="6.62535">
        <ele>3.560322</ele>
        <time>2019-08-16T13:33:17Z</time>
      </trkpt>
      <trkpt lat="43.26518" lon="6.62489">
        <ele>3.3325</ele>
        <time>2019-08-16T13:33:36Z</time>
      </trkpt>
      <trkpt lat="43.26478" lon="6.62444">
        <ele>3.007463</ele>
        <time>2019-08-16T13:33:54Z</time>
      </trkpt>
      <trkpt lat="43.26446" lon="6.62386">
        <ele>3.44375</ele>
        <time>2019-08-16T13:34:10Z</time>
      </trkpt>
      <trkpt lat="43.26434" lon="6.62322">
        <ele>2.9704</ele>
        <time>2019-08-16T13:34:21Z</time>
      </trkpt>
      <trkpt lat="43.26421" lon="6.62257">
        <ele>2.7525</ele>
        <time>2019-08-16T13:34:30Z</time>
      </trkpt>
      <trkpt lat="43.26411" lon="6.62195">
        <ele>2.334972</ele>
        <time>2019-08-16T13:34:40Z</time>
      </trkpt>
      <trkpt lat="43.26411" lon="6.62126">
        <ele>1.342937</ele>
        <time>2019-08-16T13:34:51Z</time>
      </trkpt>
      <trkpt lat="43.26412" lon="6.62061">
        <ele>1.334797</ele>
        <time>2019-08-16T13:34:59Z</time>
      </trkpt>
      <trkpt lat="43.2641" lon="6.61998">
        <ele>2.57875</ele>
        <time>2019-08-16T13:35:07Z</time>
      </trkpt>
      <trkpt lat="43.26408" lon="6.61932">
        <ele>3.386369</ele>
        <time>2019-08-16T13:35:18Z</time>
      </trkpt>
      <trkpt lat="43.26404" lon="6.61867">
        <ele>4.547366</ele>
        <time>2019-08-16T13:35:28Z</time>
      </trkpt>
      <trkpt lat="43.26398" lon="6.618">
        <ele>5.701934</ele>
        <time>2019-08-16T13:35:39Z</time>
      </trkpt>
      <trkpt lat="43.26384" lon="6.61735">
        <ele>5.8037</ele>
        <time>2019-08-16T13:35:50Z</time>
      </trkpt>
      <trkpt lat="43.26371" lon="6.61669">
        <ele>5.065</ele>
        <time>2019-08-16T13:36:01Z</time>
      </trkpt>
      <trkpt lat="43.26361" lon="6.61603">
        <ele>4.27625</ele>
        <time>2019-08-16T13:36:10Z</time>
      </trkpt>
      <trkpt lat="43.26356" lon="6.61541">
        <ele>4.283566</ele>
        <time>2019-08-16T13:36:18Z</time>
      </trkpt>
      <trkpt lat="43.26362" lon="6.61472">
        <ele>4.680372</ele>
        <time>2019-08-16T13:36:28Z</time>
      </trkpt>
      <trkpt lat="43.2637" lon="6.61407">
        <ele>4.535038</ele>
        <time>2019-08-16T13:36:37Z</time>
      </trkpt>
      <trkpt lat="43.26377" lon="6.61337">
        <ele>4.47</ele>
        <time>2019-08-16T13:36:45Z</time>
      </trkpt>
      <trkpt lat="43.26384" lon="6.61273">
        <ele>4.445982</ele>
        <time>2019-08-16T13:36:54Z</time>
      </trkpt>
      <trkpt lat="43.26388" lon="6.61207">
        <ele>4.750312</ele>
        <time>2019-08-16T13:37:05Z</time>
      </trkpt>
      <trkpt lat="43.26387" lon="6.61145">
        <ele>4.255009</ele>
        <time>2019-08-16T13:37:14Z</time>
      </trkpt>
      <trkpt lat="43.26368" lon="6.61087">
        <ele>4.513394</ele>
        <time>2019-08-16T13:37:24Z</time>
      </trkpt>
      <trkpt lat="43.26344" lon="6.61034">
        <ele>5.810863</ele>
        <time>2019-08-16T13:37:32Z</time>
      </trkpt>
      <trkpt lat="43.26336" lon="6.6097">
        <ele>6.65</ele>
        <time>2019-08-16T13:37:39Z</time>
      </trkpt>
      <trkpt lat="43.2634" lon="6.60903">
        <ele>5.97375</ele>
        <time>2019-08-16T13:37:48Z</time>
      </trkpt>
      <trkpt lat="43.26336" lon="6.60838">
        <ele>5.606284</ele>
        <time>2019-08-16T13:38:01Z</time>
      </trkpt>
      <trkpt lat="43.26331" lon="6.60769">
        <ele>6.26625</ele>
        <time>2019-08-16T13:38:12Z</time>
      </trkpt>
      <trkpt lat="43.2634" lon="6.60702">
        <ele>9.644906</ele>
        <time>2019-08-16T13:38:21Z</time>
      </trkpt>
      <trkpt lat="43.26341" lon="6.60636">
        <ele>10.163363</ele>
        <time>2019-08-16T13:38:31Z</time>
      </trkpt>
      <trkpt lat="43.26323" lon="6.60577">
        <ele>9.545938</ele>
        <time>2019-08-16T13:38:42Z</time>
      </trkpt>
      <trkpt lat="43.26296" lon="6.6052">
        <ele>10.860562</ele>
        <time>2019-08-16T13:38:54Z</time>
      </trkpt>
      <trkpt lat="43.26268" lon="6.60469">
        <ele>11.71</ele>
        <time>2019-08-16T13:39:04Z</time>
      </trkpt>
      <trkpt lat="43.26243" lon="6.60413">
        <ele>11.746575</ele>
        <time>2019-08-16T13:39:14Z</time>
      </trkpt>
      <trkpt lat="43.26222" lon="6.60358">
        <ele>12.323187</ele>
        <time>2019-08-16T13:39:24Z</time>
      </trkpt>
      <trkpt lat="43.26223" lon="6.60294">
        <ele>10.74</ele>
        <time>2019-08-16T13:39:33Z</time>
      </trkpt>
      <trkpt lat="43.2623" lon="6.60231">
        <ele>10.041919</ele>
        <time>2019-08-16T13:39:40Z</time>
      </trkpt>
      <trkpt lat="43.26238" lon="6.60166">
        <ele>9.82375</ele>
        <time>2019-08-16T13:39:48Z</time>
      </trkpt>
      <trkpt lat="43.26239" lon="6.60101">
        <ele>10.721704</ele>
        <time>2019-08-16T13:39:57Z</time>
      </trkpt>
      <trkpt lat="43.26239" lon="6.60041">
        <ele>11.341065</ele>
        <time>2019-08-16T13:40:06Z</time>
      </trkpt>
      <trkpt lat="43.26242" lon="6.59971">
        <ele>11.5375</ele>
        <time>2019-08-16T13:40:17Z</time>
      </trkpt>
      <trkpt lat="43.26235" lon="6.59905">
        <ele>12.492738</ele>
        <time>2019-08-16T13:40:26Z</time>
      </trkpt>
      <trkpt lat="43.26216" lon="6.59841">
        <ele>13.062</ele>
        <time>2019-08-16T13:40:35Z</time>
      </trkpt>
      <trkpt lat="43.26191" lon="6.59782">
        <ele>12.24625</ele>
        <time>2019-08-16T13:40:43Z</time>
      </trkpt>
      <trkpt lat="43.26169" lon="6.59725">
        <ele>11.354862</ele>
        <time>2019-08-16T13:40:50Z</time>
      </trkpt>
      <trkpt lat="43.26145" lon="6.59669">
        <ele>10.3325</ele>
        <time>2019-08-16T13:40:58Z</time>
      </trkpt>
      <trkpt lat="43.2612" lon="6.59607">
        <ele>9.057125</ele>
        <time>2019-08-16T13:41:07Z</time>
      </trkpt>
      <trkpt lat="43.26095" lon="6.59548">
        <ele>6.71881</ele>
        <time>2019-08-16T13:41:15Z</time>
      </trkpt>
      <trkpt lat="43.26072" lon="6.59489">
        <ele>4.8025</ele>
        <time>2019-08-16T13:41:22Z</time>
      </trkpt>
      <trkpt lat="43.26051" lon="6.5943">
        <ele>3.500819</ele>
        <time>2019-08-16T13:41:29Z</time>
      </trkpt>
      <trkpt lat="43.26029" lon="6.59376">
        <ele>3.000691</ele>
        <time>2019-08-16T13:41:37Z</time>
      </trkpt>
      <trkpt lat="43.26007" lon="6.59319">
        <ele>2.065975</ele>
        <time>2019-08-16T13:41:47Z</time>
      </trkpt>
      <trkpt lat="43.25986" lon="6.59263">
        <ele>2.011456</ele>
        <time>2019-08-16T13:41:56Z</time>
      </trkpt>
      <trkpt lat="43.25963" lon="6.59203">
        <ele>2.879859</ele>
        <time>2019-08-16T13:42:07Z</time>
      </trkpt>
      <trkpt lat="43.25951" lon="6.5914">
        <ele>3.636103</ele>
        <time>2019-08-16T13:42:16Z</time>
      </trkpt>
      <trkpt lat="43.25968" lon="6.59079">
        <ele>3.882062</ele>
        <time>2019-08-16T13:42:28Z</time>
      </trkpt>
      <trkpt lat="43.25995" lon="6.59029">
        <ele>4.57625</ele>
        <time>2019-08-16T13:42:35Z</time>
      </trkpt>
      <trkpt lat="43.26025" lon="6.58973">
        <ele>4.71385</ele>
        <time>2019-08-16T13:42:43Z</time>
      </trkpt>
      <trkpt lat="43.26054" lon="6.58915">
        <ele>5</ele>
        <time>2019-08-16T13:42:52Z</time>
      </trkpt>
      <trkpt lat="43.2608" lon="6.58856">
        <ele>5.134587</ele>
        <time>2019-08-16T13:43:00Z</time>
      </trkpt>
      <trkpt lat="43.26108" lon="6.58798">
        <ele>5.335312</ele>
        <time>2019-08-16T13:43:08Z</time>
      </trkpt>
      <trkpt lat="43.26133" lon="6.5874">
        <ele>5.22</ele>
        <time>2019-08-16T13:43:17Z</time>
      </trkpt>
      <trkpt lat="43.26156" lon="6.58683">
        <ele>5</ele>
        <time>2019-08-16T13:43:25Z</time>
      </trkpt>
      <trkpt lat="43.26184" lon="6.58632">
        <ele>5</ele>
        <time>2019-08-16T13:43:34Z</time>
      </trkpt>
      <trkpt lat="43.26226" lon="6.58613">
        <ele>5</ele>
        <time>2019-08-16T13:44:05Z</time>
      </trkpt>
      <trkpt lat="43.2627" lon="6.58642">
        <ele>4.85891</ele>
        <time>2019-08-16T13:44:16Z</time>
      </trkpt>
      <trkpt lat="43.26301" lon="6.5868">
        <ele>4.52</ele>
        <time>2019-08-16T13:44:25Z</time>
      </trkpt>
      <trkpt lat="43.26321" lon="6.58618">
        <ele>4.052547</ele>
        <time>2019-08-16T13:44:34Z</time>
      </trkpt>
      <trkpt lat="43.26334" lon="6.58554">
        <ele>4</ele>
        <time>2019-08-16T13:44:43Z</time>
      </trkpt>
      <trkpt lat="43.26342" lon="6.58492">
        <ele>4</ele>
        <time>2019-08-16T13:44:52Z</time>
      </trkpt>
      <trkpt lat="43.26351" lon="6.58427">
        <ele>4</ele>
        <time>2019-08-16T13:45:01Z</time>
      </trkpt>
      <trkpt lat="43.26321" lon="6.58391">
        <ele>4</ele>
        <time>2019-08-16T13:45:14Z</time>
      </trkpt>
      <trkpt lat="43.26353" lon="6.58352">
        <ele>4</ele>
        <time>2019-08-16T13:45:30Z</time>
      </trkpt>
      <trkpt lat="43.2639" lon="6.58312">
        <ele>4</ele>
        <time>2019-08-16T13:45:39Z</time>
      </trkpt>
      <trkpt lat="43.26412" lon="6.58255">
        <ele>4.278422</ele>
        <time>2019-08-16T13:45:48Z</time>
      </trkpt>
      <trkpt lat="43.26422" lon="6.58189">
        <ele>4.8083</ele>
        <time>2019-08-16T13:45:58Z</time>
      </trkpt>
      <trkpt lat="43.26417" lon="6.58127">
        <ele>5</ele>
        <time>2019-08-16T13:46:06Z</time>
      </trkpt>
      <trkpt lat="43.26442" lon="6.58087">
        <ele>5</ele>
        <time>2019-08-16T13:46:16Z</time>
      </trkpt>
      <trkpt lat="43.26453" lon="6.58025">
        <ele>5</ele>
        <time>2019-08-16T13:46:25Z</time>
      </trkpt>
      <trkpt lat="43.26465" lon="6.57958">
        <ele>5.277594</ele>
        <time>2019-08-16T13:46:36Z</time>
      </trkpt>
      <trkpt lat="43.26477" lon="6.57892">
        <ele>5.742269</ele>
        <time>2019-08-16T13:46:45Z</time>
      </trkpt>
      <trkpt lat="43.26489" lon="6.57826">
        <ele>6</ele>
        <time>2019-08-16T13:46:56Z</time>
      </trkpt>
      <trkpt lat="43.26496" lon="6.57761">
        <ele>6</ele>
        <time>2019-08-16T13:47:05Z</time>
      </trkpt>
      <trkpt lat="43.26513" lon="6.57709">
        <ele>6</ele>
        <time>2019-08-16T13:47:18Z</time>
      </trkpt>
      <trkpt lat="43.26538" lon="6.57655">
        <ele>6</ele>
        <time>2019-08-16T13:47:30Z</time>
      </trkpt>
      <trkpt lat="43.26569" lon="6.57603">
        <ele>5.51</ele>
        <time>2019-08-16T13:47:41Z</time>
      </trkpt>
      <trkpt lat="43.26603" lon="6.57559">
        <ele>5</ele>
        <time>2019-08-16T13:47:51Z</time>
      </trkpt>
      <trkpt lat="43.26636" lon="6.57514">
        <ele>5</ele>
        <time>2019-08-16T13:48:01Z</time>
      </trkpt>
      <trkpt lat="43.26672" lon="6.57471">
        <ele>5</ele>
        <time>2019-08-16T13:48:11Z</time>
      </trkpt>
      <trkpt lat="43.26718" lon="6.57453">
        <ele>4.3475</ele>
        <time>2019-08-16T13:48:22Z</time>
      </trkpt>
      <trkpt lat="43.26762" lon="6.57434">
        <ele>4</ele>
        <time>2019-08-16T13:48:31Z</time>
      </trkpt>
      <trkpt lat="43.2681" lon="6.57414">
        <ele>4</ele>
        <time>2019-08-16T13:48:41Z</time>
      </trkpt>
      <trkpt lat="43.26854" lon="6.57406">
        <ele>4</ele>
        <time>2019-08-16T13:48:50Z</time>
      </trkpt>
      <trkpt lat="43.26896" lon="6.57379">
        <ele>4</ele>
        <time>2019-08-16T13:49:06Z</time>
      </trkpt>
      <trkpt lat="43.26944" lon="6.57362">
        <ele>4</ele>
        <time>2019-08-16T13:49:17Z</time>
      </trkpt>
      <trkpt lat="43.26992" lon="6.57345">
        <ele>4</ele>
        <time>2019-08-16T13:49:27Z</time>
      </trkpt>
      <trkpt lat="43.2704" lon="6.57333">
        <ele>4</ele>
        <time>2019-08-16T13:49:37Z</time>
      </trkpt>
      <trkpt lat="43.27088" lon="6.5734">
        <ele>4</ele>
        <time>2019-08-16T13:49:48Z</time>
      </trkpt>
      <trkpt lat="43.2714" lon="6.57356">
        <ele>4</ele>
        <time>2019-08-16T13:49:59Z</time>
      </trkpt>
      <trkpt lat="43.27188" lon="6.57374">
        <ele>4</ele>
        <time>2019-08-16T13:50:08Z</time>
      </trkpt>
      <trkpt lat="43.27235" lon="6.57392">
        <ele>4</ele>
        <time>2019-08-16T13:50:18Z</time>
      </trkpt>
      <trkpt lat="43.27281" lon="6.57415">
        <ele>4</ele>
        <time>2019-08-16T13:50:27Z</time>
      </trkpt>
      <trkpt lat="43.27324" lon="6.57436">
        <ele>3.892422</ele>
        <time>2019-08-16T13:50:35Z</time>
      </trkpt>
      <trkpt lat="43.2737" lon="6.57454">
        <ele>3</ele>
        <time>2019-08-16T13:50:45Z</time>
      </trkpt>
      <trkpt lat="43.27411" lon="6.57485">
        <ele>3.029288</ele>
        <time>2019-08-16T13:50:57Z</time>
      </trkpt>
      <trkpt lat="43.27457" lon="6.57483">
        <ele>3.4974</ele>
        <time>2019-08-16T13:51:15Z</time>
      </trkpt>
      <trkpt lat="43.27505" lon="6.57494">
        <ele>4.134053</ele>
        <time>2019-08-16T13:51:26Z</time>
      </trkpt>
      <trkpt lat="43.27551" lon="6.5751">
        <ele>4.88125</ele>
        <time>2019-08-16T13:51:37Z</time>
      </trkpt>
      <trkpt lat="43.27596" lon="6.57525">
        <ele>5.296412</ele>
        <time>2019-08-16T13:51:48Z</time>
      </trkpt>
      <trkpt lat="43.27643" lon="6.57543">
        <ele>6.092187</ele>
        <time>2019-08-16T13:51:58Z</time>
      </trkpt>
      <trkpt lat="43.27691" lon="6.57562">
        <ele>6.56375</ele>
        <time>2019-08-16T13:52:10Z</time>
      </trkpt>
      <trkpt lat="43.27736" lon="6.57581">
        <ele>6.8125</ele>
        <time>2019-08-16T13:52:19Z</time>
      </trkpt>
      <trkpt lat="43.27779" lon="6.57599">
        <ele>7.0575</ele>
        <time>2019-08-16T13:52:28Z</time>
      </trkpt>
      <trkpt lat="43.27828" lon="6.57621">
        <ele>7.664294</ele>
        <time>2019-08-16T13:52:40Z</time>
      </trkpt>
      <trkpt lat="43.27867" lon="6.57659">
        <ele>8</ele>
        <time>2019-08-16T13:52:50Z</time>
      </trkpt>
      <trkpt lat="43.27902" lon="6.57704">
        <ele>8.692931</ele>
        <time>2019-08-16T13:53:00Z</time>
      </trkpt>
      <trkpt lat="43.27928" lon="6.57758">
        <ele>9</ele>
        <time>2019-08-16T13:53:11Z</time>
      </trkpt>
      <trkpt lat="43.27952" lon="6.57817">
        <ele>8.356172</ele>
        <time>2019-08-16T13:53:21Z</time>
      </trkpt>
      <trkpt lat="43.27982" lon="6.57871">
        <ele>7.970781</ele>
        <time>2019-08-16T13:53:31Z</time>
      </trkpt>
      <trkpt lat="43.2801" lon="6.57923">
        <ele>7.192375</ele>
        <time>2019-08-16T13:53:40Z</time>
      </trkpt>
      <trkpt lat="43.28034" lon="6.57981">
        <ele>7</ele>
        <time>2019-08-16T13:53:51Z</time>
      </trkpt>
      <trkpt lat="43.28055" lon="6.58035">
        <ele>6.18375</ele>
        <time>2019-08-16T13:54:00Z</time>
      </trkpt>
      <trkpt lat="43.28072" lon="6.58094">
        <ele>5.478028</ele>
        <time>2019-08-16T13:54:10Z</time>
      </trkpt>
      <trkpt lat="43.28087" lon="6.58159">
        <ele>5.146125</ele>
        <time>2019-08-16T13:54:28Z</time>
      </trkpt>
      <trkpt lat="43.28103" lon="6.58228">
        <ele>5.13</ele>
        <time>2019-08-16T13:54:38Z</time>
      </trkpt>
      <trkpt lat="43.2812" lon="6.58294">
        <ele>5.5575</ele>
        <time>2019-08-16T13:54:48Z</time>
      </trkpt>
      <trkpt lat="43.28136" lon="6.58354">
        <ele>5.098144</ele>
        <time>2019-08-16T13:54:56Z</time>
      </trkpt>
      <trkpt lat="43.2815" lon="6.58417">
        <ele>5.34</ele>
        <time>2019-08-16T13:55:04Z</time>
      </trkpt>
      <trkpt lat="43.28166" lon="6.58482">
        <ele>5.7425</ele>
        <time>2019-08-16T13:55:14Z</time>
      </trkpt>
      <trkpt lat="43.28184" lon="6.58544">
        <ele>5.27625</ele>
        <time>2019-08-16T13:55:22Z</time>
      </trkpt>
      <trkpt lat="43.28201" lon="6.58607">
        <ele>5.6225</ele>
        <time>2019-08-16T13:55:32Z</time>
      </trkpt>
      <trkpt lat="43.28182" lon="6.58661">
        <ele>3.831691</ele>
        <time>2019-08-16T13:55:47Z</time>
      </trkpt>
      <trkpt lat="43.28176" lon="6.58703">
        <ele>2.8325</ele>
        <time>2019-08-16T13:56:21Z</time>
      </trkpt>
      <trkpt lat="43.28183" lon="6.58669">
        <ele>3.668856</ele>
        <time>2019-08-16T13:58:40Z</time>
      </trkpt>
      <trkpt lat="43.28171" lon="6.58735">
        <ele>2.108803</ele>
        <time>2019-08-16T13:58:56Z</time>
      </trkpt>
    </trkseg>
  </trk>
</gpx>